<?xml version='1.0' encoding='UTF-8'?><gpx version="1.1" creator="JPX - https://github.com/jenetics/jpx" xmlns="http://www.topografix.com/GPX/1/1"><trk><trkseg><trkpt lat="41.9907001" lon="12.0889649"><ele>36.00000000000001</ele><time>2026-04-25T14:34:19.523Z</time></trkpt><trkpt lat="41.9907631" lon="12.0889706"><ele>36.0</ele><time>2026-04-25T14:34:22.531Z</time></trkpt><trkpt lat="41.9908089" lon="12.0889117"><ele>36.0</ele><time>2026-04-25T14:34:26.497Z</time></trkpt><trkpt lat="41.9908962" lon="12.088934"><ele>36.0</ele><time>2026-04-25T14:34:31.504Z</time></trkpt><trkpt lat="41.9909512" lon="12.0889776"><ele>36.0</ele><time>2026-04-25T14:34:33.502Z</time></trkpt><trkpt lat="41.9910064" lon="12.0890345"><ele>36.00000000000001</ele><time>2026-04-25T14:34:35.512Z</time></trkpt><trkpt lat="41.991066" lon="12.0890985"><ele>36.0</ele><time>2026-04-25T14:34:37.504Z</time></trkpt><trkpt lat="41.9911318" lon="12.0891775"><ele>36.6</ele><time>2026-04-25T14:34:39.505Z</time></trkpt><trkpt lat="41.9912174" lon="12.0892543"><ele>37.2</ele><time>2026-04-25T14:34:41.508Z</time></trkpt><trkpt lat="41.9912915" lon="12.0893386"><ele>37.8</ele><time>2026-04-25T14:34:43.503Z</time></trkpt><trkpt lat="41.9913678" lon="12.0894063"><ele>38.4</ele><time>2026-04-25T14:34:45.532Z</time></trkpt><trkpt lat="41.9914487" lon="12.0894855"><ele>39.0</ele><time>2026-04-25T14:34:47.55Z</time></trkpt><trkpt lat="41.9915355" lon="12.0895669"><ele>39.0</ele><time>2026-04-25T14:34:49.499Z</time></trkpt><trkpt lat="41.9916179" lon="12.0896392"><ele>39.0</ele><time>2026-04-25T14:34:51.5Z</time></trkpt><trkpt lat="41.991717" lon="12.0897251"><ele>39.0</ele><time>2026-04-25T14:34:53.504Z</time></trkpt><trkpt lat="41.9917728" lon="12.0897709"><ele>39.0</ele><time>2026-04-25T14:34:54.503Z</time></trkpt><trkpt lat="41.9918808" lon="12.0898622"><ele>39.0</ele><time>2026-04-25T14:34:56.5Z</time></trkpt><trkpt lat="41.991964" lon="12.0899346"><ele>38.2</ele><time>2026-04-25T14:34:58.502Z</time></trkpt><trkpt lat="41.9920378" lon="12.0900093"><ele>37.4</ele><time>2026-04-25T14:35:00.629Z</time></trkpt><trkpt lat="41.9921333" lon="12.0901009"><ele>36.6</ele><time>2026-04-25T14:35:02.499Z</time></trkpt><trkpt lat="41.9922317" lon="12.0901952"><ele>35.8</ele><time>2026-04-25T14:35:04.498Z</time></trkpt><trkpt lat="41.9923237" lon="12.090258"><ele>35.0</ele><time>2026-04-25T14:35:06.497Z</time></trkpt><trkpt lat="41.9924227" lon="12.0903264"><ele>35.0</ele><time>2026-04-25T14:35:08.499Z</time></trkpt><trkpt lat="41.992522" lon="12.0904124"><ele>35.0</ele><time>2026-04-25T14:35:10.508Z</time></trkpt><trkpt lat="41.9926151" lon="12.0905004"><ele>35.0</ele><time>2026-04-25T14:35:12.528Z</time></trkpt><trkpt lat="41.9927124" lon="12.0905931"><ele>35.0</ele><time>2026-04-25T14:35:14.557Z</time></trkpt><trkpt lat="41.9928005" lon="12.0906907"><ele>35.0</ele><time>2026-04-25T14:35:16.51Z</time></trkpt><trkpt lat="41.9928974" lon="12.0907953"><ele>35.0</ele><time>2026-04-25T14:35:18.518Z</time></trkpt><trkpt lat="41.9929794" lon="12.0908941"><ele>35.0</ele><time>2026-04-25T14:35:20.501Z</time></trkpt><trkpt lat="41.993059" lon="12.0910175"><ele>35.0</ele><time>2026-04-25T14:35:22.504Z</time></trkpt><trkpt lat="41.9931265" lon="12.0911371"><ele>35.0</ele><time>2026-04-25T14:35:24.582Z</time></trkpt><trkpt lat="41.9932327" lon="12.0911688"><ele>35.0</ele><time>2026-04-25T14:35:26.497Z</time></trkpt><trkpt lat="41.9933352" lon="12.0911905"><ele>35.0</ele><time>2026-04-25T14:35:28.516Z</time></trkpt><trkpt lat="41.9934291" lon="12.0912394"><ele>35.0</ele><time>2026-04-25T14:35:30.506Z</time></trkpt><trkpt lat="41.9935161" lon="12.091302"><ele>35.0</ele><time>2026-04-25T14:35:32.526Z</time></trkpt><trkpt lat="41.9935933" lon="12.0913638"><ele>35.2</ele><time>2026-04-25T14:35:34.532Z</time></trkpt><trkpt lat="41.9936808" lon="12.0914278"><ele>35.4</ele><time>2026-04-25T14:35:36.588Z</time></trkpt><trkpt lat="41.9937604" lon="12.091485"><ele>35.6</ele><time>2026-04-25T14:35:38.502Z</time></trkpt><trkpt lat="41.9938439" lon="12.0915508"><ele>35.8</ele><time>2026-04-25T14:35:40.518Z</time></trkpt><trkpt lat="41.9939244" lon="12.0916223"><ele>36.0</ele><time>2026-04-25T14:35:42.514Z</time></trkpt><trkpt lat="41.9940048" lon="12.0916778"><ele>36.0</ele><time>2026-04-25T14:35:44.515Z</time></trkpt><trkpt lat="41.9940834" lon="12.0917216"><ele>36.0</ele><time>2026-04-25T14:35:46.522Z</time></trkpt><trkpt lat="41.9941606" lon="12.0917614"><ele>36.0</ele><time>2026-04-25T14:35:48.508Z</time></trkpt><trkpt lat="41.9942333" lon="12.0918141"><ele>36.0</ele><time>2026-04-25T14:35:50.499Z</time></trkpt><trkpt lat="41.9943118" lon="12.0918641"><ele>36.0</ele><time>2026-04-25T14:35:52.513Z</time></trkpt><trkpt lat="41.9943892" lon="12.0919156"><ele>36.0</ele><time>2026-04-25T14:35:54.524Z</time></trkpt><trkpt lat="41.9944666" lon="12.0919697"><ele>36.833333333333336</ele><time>2026-04-25T14:35:56.507Z</time></trkpt><trkpt lat="41.9945454" lon="12.0920242"><ele>37.666666666666664</ele><time>2026-04-25T14:35:58.575Z</time></trkpt><trkpt lat="41.9946261" lon="12.0920792"><ele>38.5</ele><time>2026-04-25T14:36:00.507Z</time></trkpt><trkpt lat="41.9947018" lon="12.0921331"><ele>39.33333333333333</ele><time>2026-04-25T14:36:02.509Z</time></trkpt><trkpt lat="41.9947798" lon="12.0921776"><ele>40.166666666666664</ele><time>2026-04-25T14:36:04.523Z</time></trkpt><trkpt lat="41.994858" lon="12.0922298"><ele>41.0</ele><time>2026-04-25T14:36:06.506Z</time></trkpt><trkpt lat="41.9949284" lon="12.092291"><ele>41.199999999999996</ele><time>2026-04-25T14:36:08.522Z</time></trkpt><trkpt lat="41.9950108" lon="12.0923632"><ele>41.4</ele><time>2026-04-25T14:36:10.516Z</time></trkpt><trkpt lat="41.9950935" lon="12.0924152"><ele>41.6</ele><time>2026-04-25T14:36:12.506Z</time></trkpt><trkpt lat="41.9951724" lon="12.0924707"><ele>41.8</ele><time>2026-04-25T14:36:14.521Z</time></trkpt><trkpt lat="41.9952601" lon="12.0925196"><ele>42.0</ele><time>2026-04-25T14:36:16.505Z</time></trkpt><trkpt lat="41.99535" lon="12.0925791"><ele>41.6</ele><time>2026-04-25T14:36:18.501Z</time></trkpt><trkpt lat="41.995428" lon="12.0926471"><ele>41.2</ele><time>2026-04-25T14:36:20.503Z</time></trkpt><trkpt lat="41.9955036" lon="12.0927204"><ele>40.8</ele><time>2026-04-25T14:36:22.521Z</time></trkpt><trkpt lat="41.9955747" lon="12.0927978"><ele>40.4</ele><time>2026-04-25T14:36:24.503Z</time></trkpt><trkpt lat="41.9956529" lon="12.0928727"><ele>40.0</ele><time>2026-04-25T14:36:26.516Z</time></trkpt><trkpt lat="41.9957329" lon="12.0929646"><ele>40.0</ele><time>2026-04-25T14:36:28.555Z</time></trkpt><trkpt lat="41.9958046" lon="12.093027"><ele>40.0</ele><time>2026-04-25T14:36:30.505Z</time></trkpt><trkpt lat="41.9958805" lon="12.0931065"><ele>40.0</ele><time>2026-04-25T14:36:32.561Z</time></trkpt><trkpt lat="41.9959494" lon="12.0931996"><ele>40.0</ele><time>2026-04-25T14:36:34.527Z</time></trkpt><trkpt lat="41.9960188" lon="12.0933009"><ele>40.0</ele><time>2026-04-25T14:36:36.553Z</time></trkpt><trkpt lat="41.9960824" lon="12.0933985"><ele>40.4</ele><time>2026-04-25T14:36:38.528Z</time></trkpt><trkpt lat="41.9961367" lon="12.0935197"><ele>40.8</ele><time>2026-04-25T14:36:40.55Z</time></trkpt><trkpt lat="41.9961849" lon="12.0936265"><ele>41.2</ele><time>2026-04-25T14:36:42.526Z</time></trkpt><trkpt lat="41.9962346" lon="12.0937275"><ele>41.6</ele><time>2026-04-25T14:36:44.513Z</time></trkpt><trkpt lat="41.9962874" lon="12.0938368"><ele>42.0</ele><time>2026-04-25T14:36:46.501Z</time></trkpt><trkpt lat="41.9963376" lon="12.0939601"><ele>42.0</ele><time>2026-04-25T14:36:48.523Z</time></trkpt><trkpt lat="41.9963735" lon="12.0940813"><ele>42.0</ele><time>2026-04-25T14:36:50.52Z</time></trkpt><trkpt lat="41.9964129" lon="12.0942135"><ele>42.0</ele><time>2026-04-25T14:36:52.521Z</time></trkpt><trkpt lat="41.996448" lon="12.0943356"><ele>42.0</ele><time>2026-04-25T14:36:54.505Z</time></trkpt><trkpt lat="41.9964768" lon="12.094459"><ele>42.0</ele><time>2026-04-25T14:36:56.52Z</time></trkpt><trkpt lat="41.9965051" lon="12.0945767"><ele>42.0</ele><time>2026-04-25T14:36:58.56Z</time></trkpt><trkpt lat="41.9965305" lon="12.094698"><ele>42.0</ele><time>2026-04-25T14:37:00.554Z</time></trkpt><trkpt lat="41.9965703" lon="12.0948079"><ele>42.0</ele><time>2026-04-25T14:37:02.518Z</time></trkpt><trkpt lat="41.9966006" lon="12.0949128"><ele>42.0</ele><time>2026-04-25T14:37:04.508Z</time></trkpt><trkpt lat="41.9966349" lon="12.0950194"><ele>42.0</ele><time>2026-04-25T14:37:06.548Z</time></trkpt><trkpt lat="41.9966662" lon="12.0951368"><ele>42.0</ele><time>2026-04-25T14:37:08.497Z</time></trkpt><trkpt lat="41.9966958" lon="12.0952498"><ele>42.285714285714285</ele><time>2026-04-25T14:37:10.581Z</time></trkpt><trkpt lat="41.9967224" lon="12.0953554"><ele>42.57142857142857</ele><time>2026-04-25T14:37:12.524Z</time></trkpt><trkpt lat="41.9967479" lon="12.0954556"><ele>42.85714285714286</ele><time>2026-04-25T14:37:14.518Z</time></trkpt><trkpt lat="41.9967699" lon="12.0955483"><ele>43.14285714285714</ele><time>2026-04-25T14:37:16.553Z</time></trkpt><trkpt lat="41.9968012" lon="12.0956302"><ele>43.42857142857143</ele><time>2026-04-25T14:37:18.508Z</time></trkpt><trkpt lat="41.9968352" lon="12.0957064"><ele>43.714285714285715</ele><time>2026-04-25T14:37:20.51Z</time></trkpt><trkpt lat="41.9968641" lon="12.0957853"><ele>44.0</ele><time>2026-04-25T14:37:22.502Z</time></trkpt><trkpt lat="41.9968892" lon="12.0958662"><ele>45.166666666666664</ele><time>2026-04-25T14:37:24.509Z</time></trkpt><trkpt lat="41.9969281" lon="12.0959777"><ele>46.33333333333333</ele><time>2026-04-25T14:37:27.534Z</time></trkpt><trkpt lat="41.9969688" lon="12.0960796"><ele>47.5</ele><time>2026-04-25T14:37:30.516Z</time></trkpt><trkpt lat="41.9970071" lon="12.0961709"><ele>48.666666666666664</ele><time>2026-04-25T14:37:33.503Z</time></trkpt><trkpt lat="41.997045" lon="12.096256"><ele>49.833333333333336</ele><time>2026-04-25T14:37:36.524Z</time></trkpt><trkpt lat="41.9970824" lon="12.0963493"><ele>51.0</ele><time>2026-04-25T14:37:39.51Z</time></trkpt><trkpt lat="41.9971197" lon="12.0964429"><ele>51.0</ele><time>2026-04-25T14:37:42.518Z</time></trkpt><trkpt lat="41.9971609" lon="12.0965171"><ele>51.0</ele><time>2026-04-25T14:37:45.56Z</time></trkpt><trkpt lat="41.9972156" lon="12.0965786"><ele>51.0</ele><time>2026-04-25T14:37:48.523Z</time></trkpt><trkpt lat="41.9972746" lon="12.0966306"><ele>51.0</ele><time>2026-04-25T14:37:51.518Z</time></trkpt><trkpt lat="41.9973407" lon="12.096644"><ele>51.0</ele><time>2026-04-25T14:37:54.51Z</time></trkpt><trkpt lat="41.9974031" lon="12.0965928"><ele>51.0</ele><time>2026-04-25T14:37:57.572Z</time></trkpt><trkpt lat="41.9974302" lon="12.0965108"><ele>51.0</ele><time>2026-04-25T14:37:59.516Z</time></trkpt><trkpt lat="41.9974655" lon="12.0964118"><ele>50.599999999999994</ele><time>2026-04-25T14:38:01.51Z</time></trkpt><trkpt lat="41.9975049" lon="12.0963205"><ele>50.2</ele><time>2026-04-25T14:38:03.521Z</time></trkpt><trkpt lat="41.9975858" lon="12.0961717"><ele>49.8</ele><time>2026-04-25T14:38:05.512Z</time></trkpt><trkpt lat="41.9976801" lon="12.0961361"><ele>49.400000000000006</ele><time>2026-04-25T14:38:07.534Z</time></trkpt><trkpt lat="41.9977939" lon="12.0961083"><ele>49.0</ele><time>2026-04-25T14:38:09.548Z</time></trkpt><trkpt lat="41.9979204" lon="12.0961059"><ele>48.99999999999999</ele><time>2026-04-25T14:38:11.496Z</time></trkpt><trkpt lat="41.9979896" lon="12.0961278"><ele>49.0</ele><time>2026-04-25T14:38:12.505Z</time></trkpt><trkpt lat="41.9981209" lon="12.0961595"><ele>49.0</ele><time>2026-04-25T14:38:14.501Z</time></trkpt><trkpt lat="41.9981898" lon="12.0961764"><ele>49.0</ele><time>2026-04-25T14:38:15.519Z</time></trkpt><trkpt lat="41.9982546" lon="12.0961905"><ele>48.99999999999999</ele><time>2026-04-25T14:38:16.518Z</time></trkpt><trkpt lat="41.9983249" lon="12.0962241"><ele>49.0</ele><time>2026-04-25T14:38:17.595Z</time></trkpt><trkpt lat="41.9983915" lon="12.0962764"><ele>48.83333333333333</ele><time>2026-04-25T14:38:18.507Z</time></trkpt><trkpt lat="41.9984725" lon="12.0963135"><ele>48.666666666666664</ele><time>2026-04-25T14:38:19.512Z</time></trkpt><trkpt lat="41.9985429" lon="12.0963602"><ele>48.5</ele><time>2026-04-25T14:38:20.51Z</time></trkpt><trkpt lat="41.9986065" lon="12.0964109"><ele>48.33333333333333</ele><time>2026-04-25T14:38:21.55Z</time></trkpt><trkpt lat="41.9986842" lon="12.0964664"><ele>48.166666666666664</ele><time>2026-04-25T14:38:22.525Z</time></trkpt><trkpt lat="41.9987673" lon="12.0964945"><ele>48.0</ele><time>2026-04-25T14:38:23.556Z</time></trkpt><trkpt lat="41.9988457" lon="12.0965236"><ele>48.0</ele><time>2026-04-25T14:38:24.515Z</time></trkpt><trkpt lat="41.9989228" lon="12.0965005"><ele>48.0</ele><time>2026-04-25T14:38:25.545Z</time></trkpt><trkpt lat="41.9990519" lon="12.0963463"><ele>48.0</ele><time>2026-04-25T14:38:27.497Z</time></trkpt><trkpt lat="41.9991203" lon="12.0962472"><ele>48.0</ele><time>2026-04-25T14:38:28.522Z</time></trkpt><trkpt lat="41.9991736" lon="12.0961631"><ele>48.0</ele><time>2026-04-25T14:38:29.552Z</time></trkpt><trkpt lat="41.9992324" lon="12.0960612"><ele>49.8</ele><time>2026-04-25T14:38:30.517Z</time></trkpt><trkpt lat="41.999279" lon="12.0959952"><ele>51.599999999999994</ele><time>2026-04-25T14:38:31.563Z</time></trkpt><trkpt lat="41.999315" lon="12.0959231"><ele>53.400000000000006</ele><time>2026-04-25T14:38:32.496Z</time></trkpt><trkpt lat="41.9993081" lon="12.0957693"><ele>55.2</ele><time>2026-04-25T14:38:34.515Z</time></trkpt><trkpt lat="41.9992834" lon="12.0956254"><ele>57.0</ele><time>2026-04-25T14:38:36.516Z</time></trkpt><trkpt lat="41.9992379" lon="12.0955051"><ele>56.333333333333336</ele><time>2026-04-25T14:38:38.519Z</time></trkpt><trkpt lat="41.9992116" lon="12.0953904"><ele>55.66666666666667</ele><time>2026-04-25T14:38:40.562Z</time></trkpt><trkpt lat="41.9991583" lon="12.0953037"><ele>55.0</ele><time>2026-04-25T14:38:42.54Z</time></trkpt><trkpt lat="41.999114" lon="12.0952269"><ele>54.333333333333336</ele><time>2026-04-25T14:38:44.503Z</time></trkpt><trkpt lat="41.9990745" lon="12.0951465"><ele>53.66666666666667</ele><time>2026-04-25T14:38:46.506Z</time></trkpt><trkpt lat="41.9990449" lon="12.0950602"><ele>53.0</ele><time>2026-04-25T14:38:48.503Z</time></trkpt><trkpt lat="41.9990154" lon="12.0949792"><ele>53.66666666666667</ele><time>2026-04-25T14:38:50.521Z</time></trkpt><trkpt lat="41.9989799" lon="12.0948614"><ele>54.333333333333336</ele><time>2026-04-25T14:38:53.526Z</time></trkpt><trkpt lat="41.9989517" lon="12.0947465"><ele>55.0</ele><time>2026-04-25T14:38:56.502Z</time></trkpt><trkpt lat="41.9989632" lon="12.0946285"><ele>55.66666666666667</ele><time>2026-04-25T14:38:59.523Z</time></trkpt><trkpt lat="41.998981" lon="12.0945162"><ele>56.333333333333336</ele><time>2026-04-25T14:39:02.565Z</time></trkpt><trkpt lat="41.9990528" lon="12.094476"><ele>57.0</ele><time>2026-04-25T14:39:08.523Z</time></trkpt><trkpt lat="41.9991028" lon="12.0943474"><ele>58.666666666666664</ele><time>2026-04-25T14:39:09.498Z</time></trkpt><trkpt lat="41.9991693" lon="12.0943032"><ele>60.33333333333333</ele><time>2026-04-25T14:39:12.511Z</time></trkpt><trkpt lat="41.9992217" lon="12.0942499"><ele>62.0</ele><time>2026-04-25T14:39:14.504Z</time></trkpt><trkpt lat="41.9992883" lon="12.094191"><ele>63.666666666666664</ele><time>2026-04-25T14:39:17.498Z</time></trkpt><trkpt lat="41.999359" lon="12.0941322"><ele>65.33333333333333</ele><time>2026-04-25T14:39:20.512Z</time></trkpt><trkpt lat="41.9994278" lon="12.0940678"><ele>67.0</ele><time>2026-04-25T14:39:23.543Z</time></trkpt><trkpt lat="41.9994805" lon="12.0939888"><ele>67.0</ele><time>2026-04-25T14:39:26.526Z</time></trkpt><trkpt lat="41.9995366" lon="12.093906"><ele>67.0</ele><time>2026-04-25T14:39:29.502Z</time></trkpt><trkpt lat="41.9995866" lon="12.0938211"><ele>67.0</ele><time>2026-04-25T14:39:32.501Z</time></trkpt><trkpt lat="41.9996249" lon="12.0937236"><ele>67.0</ele><time>2026-04-25T14:39:35.529Z</time></trkpt><trkpt lat="41.9996566" lon="12.0936123"><ele>67.0</ele><time>2026-04-25T14:39:38.503Z</time></trkpt><trkpt lat="41.9996974" lon="12.0935"><ele>67.0</ele><time>2026-04-25T14:39:41.52Z</time></trkpt><trkpt lat="41.9997356" lon="12.0934279"><ele>67.0</ele><time>2026-04-25T14:39:43.509Z</time></trkpt><trkpt lat="41.9997936" lon="12.0933361"><ele>67.0</ele><time>2026-04-25T14:39:46.524Z</time></trkpt><trkpt lat="41.9998498" lon="12.0932799"><ele>67.0</ele><time>2026-04-25T14:39:49.565Z</time></trkpt><trkpt lat="41.9999045" lon="12.0932074"><ele>67.0</ele><time>2026-04-25T14:39:52.504Z</time></trkpt><trkpt lat="41.9999603" lon="12.093122"><ele>67.0</ele><time>2026-04-25T14:39:55.519Z</time></trkpt><trkpt lat="42.0000293" lon="12.0930358"><ele>67.0</ele><time>2026-04-25T14:39:58.513Z</time></trkpt><trkpt lat="42.0000869" lon="12.0929631"><ele>66.2</ele><time>2026-04-25T14:40:01.504Z</time></trkpt><trkpt lat="42.0001563" lon="12.0928885"><ele>65.4</ele><time>2026-04-25T14:40:04.502Z</time></trkpt><trkpt lat="42.0002463" lon="12.0927977"><ele>64.6</ele><time>2026-04-25T14:40:08.525Z</time></trkpt><trkpt lat="42.000316" lon="12.0927381"><ele>63.8</ele><time>2026-04-25T14:40:11.508Z</time></trkpt><trkpt lat="42.000379" lon="12.0926943"><ele>63.0</ele><time>2026-04-25T14:40:14.52Z</time></trkpt><trkpt lat="42.0005981" lon="12.092673"><ele>63.0</ele><time>2026-04-25T14:40:23.501Z</time></trkpt><trkpt lat="42.0006716" lon="12.092692"><ele>63.0</ele><time>2026-04-25T14:40:26.523Z</time></trkpt><trkpt lat="42.0007428" lon="12.0927462"><ele>63.0</ele><time>2026-04-25T14:40:29.514Z</time></trkpt><trkpt lat="42.0008081" lon="12.0928028"><ele>63.0</ele><time>2026-04-25T14:40:32.522Z</time></trkpt><trkpt lat="42.000868" lon="12.092865"><ele>63.0</ele><time>2026-04-25T14:40:35.517Z</time></trkpt><trkpt lat="42.000933" lon="12.0929279"><ele>63.0</ele><time>2026-04-25T14:40:39.557Z</time></trkpt><trkpt lat="42.0009888" lon="12.0929697"><ele>63.166666666666664</ele><time>2026-04-25T14:40:43.512Z</time></trkpt><trkpt lat="42.0010396" lon="12.0930223"><ele>63.33333333333333</ele><time>2026-04-25T14:40:46.517Z</time></trkpt><trkpt lat="42.0011015" lon="12.0930657"><ele>63.5</ele><time>2026-04-25T14:40:50.517Z</time></trkpt><trkpt lat="42.0011566" lon="12.0931398"><ele>63.666666666666664</ele><time>2026-04-25T14:40:54.511Z</time></trkpt><trkpt lat="42.0012172" lon="12.0931796"><ele>63.83333333333333</ele><time>2026-04-25T14:40:57.502Z</time></trkpt><trkpt lat="42.0012979" lon="12.0932804"><ele>64.0</ele><time>2026-04-25T14:41:00.527Z</time></trkpt><trkpt lat="42.0013489" lon="12.0933357"><ele>65.33333333333333</ele><time>2026-04-25T14:41:05.5Z</time></trkpt><trkpt lat="42.0014066" lon="12.0933964"><ele>66.66666666666666</ele><time>2026-04-25T14:41:09.525Z</time></trkpt><trkpt lat="42.0014729" lon="12.0934415"><ele>68.0</ele><time>2026-04-25T14:41:14.51Z</time></trkpt><trkpt lat="42.0015443" lon="12.0935148"><ele>69.33333333333333</ele><time>2026-04-25T14:41:18.533Z</time></trkpt><trkpt lat="42.0016072" lon="12.0935989"><ele>70.66666666666667</ele><time>2026-04-25T14:41:21.502Z</time></trkpt><trkpt lat="42.0016707" lon="12.0936664"><ele>72.0</ele><time>2026-04-25T14:41:24.534Z</time></trkpt><trkpt lat="42.0017312" lon="12.0937335"><ele>72.33333333333333</ele><time>2026-04-25T14:41:27.521Z</time></trkpt><trkpt lat="42.0018315" lon="12.0937705"><ele>72.66666666666667</ele><time>2026-04-25T14:41:36.568Z</time></trkpt><trkpt lat="42.0018975" lon="12.0938245"><ele>73.0</ele><time>2026-04-25T14:41:39.519Z</time></trkpt><trkpt lat="42.0019607" lon="12.0938943"><ele>73.33333333333334</ele><time>2026-04-25T14:41:42.508Z</time></trkpt><trkpt lat="42.0020192" lon="12.093964"><ele>73.66666666666667</ele><time>2026-04-25T14:41:45.508Z</time></trkpt><trkpt lat="42.0020849" lon="12.0940299"><ele>74.0</ele><time>2026-04-25T14:41:48.521Z</time></trkpt><trkpt lat="42.0021566" lon="12.0940878"><ele>74.8</ele><time>2026-04-25T14:41:51.521Z</time></trkpt><trkpt lat="42.0022239" lon="12.0941519"><ele>75.60000000000001</ele><time>2026-04-25T14:41:54.505Z</time></trkpt><trkpt lat="42.0023565" lon="12.0942677"><ele>76.4</ele><time>2026-04-25T14:42:08.509Z</time></trkpt><trkpt lat="42.0024251" lon="12.094332"><ele>77.2</ele><time>2026-04-25T14:42:11.508Z</time></trkpt><trkpt lat="42.0024958" lon="12.0943977"><ele>78.0</ele><time>2026-04-25T14:42:14.501Z</time></trkpt><trkpt lat="42.0025702" lon="12.0944611"><ele>78.16666666666667</ele><time>2026-04-25T14:42:17.505Z</time></trkpt><trkpt lat="42.002636" lon="12.0945223"><ele>78.33333333333333</ele><time>2026-04-25T14:42:20.516Z</time></trkpt><trkpt lat="42.0026927" lon="12.0945783"><ele>78.5</ele><time>2026-04-25T14:42:23.504Z</time></trkpt><trkpt lat="42.0027584" lon="12.0946371"><ele>78.66666666666666</ele><time>2026-04-25T14:42:26.5Z</time></trkpt><trkpt lat="42.0028172" lon="12.0947063"><ele>78.83333333333333</ele><time>2026-04-25T14:42:38.506Z</time></trkpt><trkpt lat="42.0028845" lon="12.094767"><ele>79.0</ele><time>2026-04-25T14:42:42.526Z</time></trkpt><trkpt lat="42.0029481" lon="12.0948012"><ele>79.0</ele><time>2026-04-25T14:42:45.501Z</time></trkpt><trkpt lat="42.0030122" lon="12.0948849"><ele>79.0</ele><time>2026-04-25T14:42:48.516Z</time></trkpt><trkpt lat="42.0037804" lon="12.0958244"><ele>79.42857142857143</ele><time>2026-04-25T14:42:49.502Z</time></trkpt><trkpt lat="42.0038265" lon="12.0958971"><ele>79.85714285714286</ele><time>2026-04-25T14:42:51.514Z</time></trkpt><trkpt lat="42.0038717" lon="12.0959639"><ele>80.28571428571428</ele><time>2026-04-25T14:42:53.546Z</time></trkpt><trkpt lat="42.0039099" lon="12.0960415"><ele>80.71428571428572</ele><time>2026-04-25T14:42:55.574Z</time></trkpt><trkpt lat="42.003944" lon="12.0961214"><ele>81.14285714285714</ele><time>2026-04-25T14:42:57.506Z</time></trkpt><trkpt lat="42.0039863" lon="12.0962203"><ele>81.57142857142857</ele><time>2026-04-25T14:43:00.521Z</time></trkpt><trkpt lat="42.0040247" lon="12.0962988"><ele>82.0</ele><time>2026-04-25T14:43:02.507Z</time></trkpt><trkpt lat="42.0040584" lon="12.0963737"><ele>81.99999999999999</ele><time>2026-04-25T14:43:04.536Z</time></trkpt><trkpt lat="42.0040976" lon="12.0964457"><ele>82.0</ele><time>2026-04-25T14:43:06.513Z</time></trkpt><trkpt lat="42.0041334" lon="12.0965218"><ele>82.0</ele><time>2026-04-25T14:43:08.51Z</time></trkpt><trkpt lat="42.0041711" lon="12.0966"><ele>82.0</ele><time>2026-04-25T14:43:10.509Z</time></trkpt><trkpt lat="42.0042094" lon="12.0966747"><ele>82.0</ele><time>2026-04-25T14:43:12.513Z</time></trkpt><trkpt lat="42.0042489" lon="12.0967535"><ele>81.99999999999999</ele><time>2026-04-25T14:43:14.509Z</time></trkpt><trkpt lat="42.004291" lon="12.096835"><ele>82.0</ele><time>2026-04-25T14:43:16.5Z</time></trkpt><trkpt lat="42.004326" lon="12.0969077"><ele>82.99999999999999</ele><time>2026-04-25T14:43:18.518Z</time></trkpt><trkpt lat="42.0043628" lon="12.0969766"><ele>84.0</ele><time>2026-04-25T14:43:20.512Z</time></trkpt><trkpt lat="42.0043924" lon="12.0970541"><ele>85.0</ele><time>2026-04-25T14:43:22.499Z</time></trkpt><trkpt lat="42.0044381" lon="12.0971628"><ele>86.0</ele><time>2026-04-25T14:43:25.497Z</time></trkpt><trkpt lat="42.0044759" lon="12.097251"><ele>87.0</ele><time>2026-04-25T14:43:28.507Z</time></trkpt><trkpt lat="42.0045149" lon="12.0973229"><ele>87.99999999999999</ele><time>2026-04-25T14:43:30.523Z</time></trkpt><trkpt lat="42.0045563" lon="12.0974014"><ele>89.0</ele><time>2026-04-25T14:43:32.52Z</time></trkpt><trkpt lat="42.0045909" lon="12.0974766"><ele>89.16666666666667</ele><time>2026-04-25T14:43:34.498Z</time></trkpt><trkpt lat="42.0046451" lon="12.0975865"><ele>89.33333333333334</ele><time>2026-04-25T14:43:37.498Z</time></trkpt><trkpt lat="42.0046877" lon="12.0976829"><ele>89.5</ele><time>2026-04-25T14:43:40.497Z</time></trkpt><trkpt lat="42.004724" lon="12.0977864"><ele>89.66666666666667</ele><time>2026-04-25T14:43:43.517Z</time></trkpt><trkpt lat="42.0047731" lon="12.0978746"><ele>89.83333333333333</ele><time>2026-04-25T14:43:46.502Z</time></trkpt><trkpt lat="42.0048121" lon="12.0979587"><ele>90.0</ele><time>2026-04-25T14:43:48.507Z</time></trkpt><trkpt lat="42.0048591" lon="12.098052"><ele>90.0</ele><time>2026-04-25T14:43:50.582Z</time></trkpt><trkpt lat="42.0048904" lon="12.0981323"><ele>90.0</ele><time>2026-04-25T14:43:52.503Z</time></trkpt><trkpt lat="42.0049233" lon="12.0982144"><ele>90.0</ele><time>2026-04-25T14:43:54.496Z</time></trkpt><trkpt lat="42.0049708" lon="12.0983024"><ele>90.0</ele><time>2026-04-25T14:43:56.5Z</time></trkpt><trkpt lat="42.0050129" lon="12.0983762"><ele>90.0</ele><time>2026-04-25T14:43:58.5Z</time></trkpt><trkpt lat="42.0050564" lon="12.0984671"><ele>90.0</ele><time>2026-04-25T14:44:00.501Z</time></trkpt><trkpt lat="42.0050946" lon="12.098547"><ele>90.0</ele><time>2026-04-25T14:44:02.511Z</time></trkpt><trkpt lat="42.0051372" lon="12.098632"><ele>90.66666666666667</ele><time>2026-04-25T14:44:04.526Z</time></trkpt><trkpt lat="42.0051681" lon="12.0987067"><ele>91.33333333333333</ele><time>2026-04-25T14:44:06.51Z</time></trkpt><trkpt lat="42.0051952" lon="12.0987839"><ele>92.0</ele><time>2026-04-25T14:44:08.499Z</time></trkpt><trkpt lat="42.005243" lon="12.0988878"><ele>92.66666666666666</ele><time>2026-04-25T14:44:11.503Z</time></trkpt><trkpt lat="42.0052812" lon="12.0989672"><ele>93.33333333333333</ele><time>2026-04-25T14:44:13.499Z</time></trkpt><trkpt lat="42.005336" lon="12.0990718"><ele>94.0</ele><time>2026-04-25T14:44:16.497Z</time></trkpt><trkpt lat="42.0053822" lon="12.0991554"><ele>94.14285714285714</ele><time>2026-04-25T14:44:18.523Z</time></trkpt><trkpt lat="42.0054225" lon="12.0992271"><ele>94.28571428571428</ele><time>2026-04-25T14:44:20.497Z</time></trkpt><trkpt lat="42.0054825" lon="12.099326"><ele>94.42857142857143</ele><time>2026-04-25T14:44:23.497Z</time></trkpt><trkpt lat="42.0055186" lon="12.0994025"><ele>94.57142857142857</ele><time>2026-04-25T14:44:25.499Z</time></trkpt><trkpt lat="42.0055506" lon="12.0994838"><ele>94.71428571428572</ele><time>2026-04-25T14:44:27.506Z</time></trkpt><trkpt lat="42.0055663" lon="12.0995726"><ele>94.85714285714286</ele><time>2026-04-25T14:44:29.502Z</time></trkpt><trkpt lat="42.0055629" lon="12.0996634"><ele>95.0</ele><time>2026-04-25T14:44:31.5Z</time></trkpt><trkpt lat="42.0055655" lon="12.0997636"><ele>95.0</ele><time>2026-04-25T14:44:33.511Z</time></trkpt><trkpt lat="42.0055703" lon="12.0998848"><ele>95.0</ele><time>2026-04-25T14:44:35.519Z</time></trkpt><trkpt lat="42.00558" lon="12.1000123"><ele>95.0</ele><time>2026-04-25T14:44:37.501Z</time></trkpt><trkpt lat="42.0055927" lon="12.1001453"><ele>95.0</ele><time>2026-04-25T14:44:39.51Z</time></trkpt><trkpt lat="42.005607" lon="12.100239"><ele>95.0</ele><time>2026-04-25T14:44:40.511Z</time></trkpt><trkpt lat="42.0056083" lon="12.1003688"><ele>95.0</ele><time>2026-04-25T14:44:42.519Z</time></trkpt><trkpt lat="42.0056206" lon="12.1004811"><ele>95.0</ele><time>2026-04-25T14:44:44.502Z</time></trkpt><trkpt lat="42.0056459" lon="12.100587"><ele>95.0</ele><time>2026-04-25T14:44:46.51Z</time></trkpt><trkpt lat="42.0056794" lon="12.1006727"><ele>95.0</ele><time>2026-04-25T14:44:48.521Z</time></trkpt><trkpt lat="42.0057177" lon="12.1007419"><ele>95.0</ele><time>2026-04-25T14:44:50.502Z</time></trkpt><trkpt lat="42.005771" lon="12.1008432"><ele>95.0</ele><time>2026-04-25T14:44:53.515Z</time></trkpt><trkpt lat="42.0058087" lon="12.1009509"><ele>95.66666666666667</ele><time>2026-04-25T14:44:56.512Z</time></trkpt><trkpt lat="42.0058472" lon="12.1010462"><ele>96.33333333333334</ele><time>2026-04-25T14:44:59.506Z</time></trkpt><trkpt lat="42.0058871" lon="12.1011521"><ele>97.0</ele><time>2026-04-25T14:45:02.511Z</time></trkpt><trkpt lat="42.0059035" lon="12.101238"><ele>97.66666666666667</ele><time>2026-04-25T14:45:04.502Z</time></trkpt><trkpt lat="42.0059364" lon="12.1013323"><ele>98.33333333333333</ele><time>2026-04-25T14:45:06.511Z</time></trkpt><trkpt lat="42.0059868" lon="12.101461"><ele>99.0</ele><time>2026-04-25T14:45:09.568Z</time></trkpt><trkpt lat="42.0060307" lon="12.1015287"><ele>99.16666666666667</ele><time>2026-04-25T14:45:11.509Z</time></trkpt><trkpt lat="42.0061009" lon="12.101613"><ele>99.33333333333334</ele><time>2026-04-25T14:45:14.512Z</time></trkpt><trkpt lat="42.0061205" lon="12.1017057"><ele>99.5</ele><time>2026-04-25T14:45:16.556Z</time></trkpt><trkpt lat="42.006126" lon="12.1017995"><ele>99.66666666666667</ele><time>2026-04-25T14:45:18.563Z</time></trkpt><trkpt lat="42.0061462" lon="12.101897"><ele>99.83333333333334</ele><time>2026-04-25T14:45:27.526Z</time></trkpt><trkpt lat="42.0061523" lon="12.1019842"><ele>100.0</ele><time>2026-04-25T14:45:30.519Z</time></trkpt><trkpt lat="42.0061466" lon="12.1020869"><ele>100.00000000000001</ele><time>2026-04-25T14:45:33.575Z</time></trkpt><trkpt lat="42.0061531" lon="12.1022028"><ele>100.0</ele><time>2026-04-25T14:45:36.519Z</time></trkpt><trkpt lat="42.0061607" lon="12.1023168"><ele>100.0</ele><time>2026-04-25T14:45:39.502Z</time></trkpt><trkpt lat="42.0061593" lon="12.1024325"><ele>100.0</ele><time>2026-04-25T14:45:42.512Z</time></trkpt><trkpt lat="42.0061636" lon="12.1025299"><ele>100.00000000000001</ele><time>2026-04-25T14:45:45.506Z</time></trkpt><trkpt lat="42.0061368" lon="12.1026088"><ele>100.0</ele><time>2026-04-25T14:45:49.513Z</time></trkpt><trkpt lat="42.0060646" lon="12.1025769"><ele>100.00000000000001</ele><time>2026-04-25T14:45:51.513Z</time></trkpt><trkpt lat="42.006013" lon="12.1025192"><ele>100.0</ele><time>2026-04-25T14:45:53.502Z</time></trkpt><trkpt lat="42.0059823" lon="12.1024357"><ele>100.0</ele><time>2026-04-25T14:45:55.519Z</time></trkpt><trkpt lat="42.0059557" lon="12.1023497"><ele>100.0</ele><time>2026-04-25T14:45:57.508Z</time></trkpt><trkpt lat="42.0059318" lon="12.1022592"><ele>100.0</ele><time>2026-04-25T14:45:59.508Z</time></trkpt><trkpt lat="42.0059083" lon="12.1021525"><ele>100.00000000000001</ele><time>2026-04-25T14:46:01.514Z</time></trkpt><trkpt lat="42.0058728" lon="12.1020527"><ele>100.0</ele><time>2026-04-25T14:46:03.501Z</time></trkpt><trkpt lat="42.0058194" lon="12.1019649"><ele>99.33333333333334</ele><time>2026-04-25T14:46:05.521Z</time></trkpt><trkpt lat="42.0057383" lon="12.1019245"><ele>98.66666666666667</ele><time>2026-04-25T14:46:07.58Z</time></trkpt><trkpt lat="42.0056536" lon="12.1019309"><ele>98.0</ele><time>2026-04-25T14:46:09.51Z</time></trkpt><trkpt lat="42.005573" lon="12.1019658"><ele>97.33333333333334</ele><time>2026-04-25T14:46:11.506Z</time></trkpt><trkpt lat="42.0054944" lon="12.1020059"><ele>96.66666666666667</ele><time>2026-04-25T14:46:13.507Z</time></trkpt><trkpt lat="42.0054152" lon="12.1020511"><ele>96.0</ele><time>2026-04-25T14:46:15.528Z</time></trkpt><trkpt lat="42.0053312" lon="12.1020885"><ele>96.0</ele><time>2026-04-25T14:46:17.511Z</time></trkpt><trkpt lat="42.005247" lon="12.1021009"><ele>96.0</ele><time>2026-04-25T14:46:19.531Z</time></trkpt><trkpt lat="42.0051658" lon="12.1021014"><ele>96.0</ele><time>2026-04-25T14:46:21.502Z</time></trkpt><trkpt lat="42.0050833" lon="12.102115"><ele>96.0</ele><time>2026-04-25T14:46:23.521Z</time></trkpt><trkpt lat="42.0050069" lon="12.102169"><ele>96.0</ele><time>2026-04-25T14:46:25.58Z</time></trkpt><trkpt lat="42.0049433" lon="12.102248"><ele>96.0</ele><time>2026-04-25T14:46:27.506Z</time></trkpt><trkpt lat="42.0048775" lon="12.1023194"><ele>95.83333333333333</ele><time>2026-04-25T14:46:29.505Z</time></trkpt><trkpt lat="42.0048264" lon="12.1023891"><ele>95.66666666666667</ele><time>2026-04-25T14:46:31.511Z</time></trkpt><trkpt lat="42.0047993" lon="12.1024717"><ele>95.5</ele><time>2026-04-25T14:46:33.508Z</time></trkpt><trkpt lat="42.0048232" lon="12.1025827"><ele>95.33333333333334</ele><time>2026-04-25T14:46:36.514Z</time></trkpt><trkpt lat="42.0048924" lon="12.102667"><ele>95.16666666666667</ele><time>2026-04-25T14:46:39.515Z</time></trkpt><trkpt lat="42.0049593" lon="12.1027488"><ele>95.0</ele><time>2026-04-25T14:46:42.519Z</time></trkpt><trkpt lat="42.0050056" lon="12.1028539"><ele>95.8</ele><time>2026-04-25T14:46:45.519Z</time></trkpt><trkpt lat="42.0050282" lon="12.1029375"><ele>96.6</ele><time>2026-04-25T14:46:47.51Z</time></trkpt><trkpt lat="42.0050445" lon="12.1030582"><ele>97.4</ele><time>2026-04-25T14:46:49.502Z</time></trkpt><trkpt lat="42.0050724" lon="12.1031936"><ele>98.2</ele><time>2026-04-25T14:46:51.516Z</time></trkpt><trkpt lat="42.0051123" lon="12.1033303"><ele>99.0</ele><time>2026-04-25T14:46:53.547Z</time></trkpt><trkpt lat="42.0051646" lon="12.1034459"><ele>99.0</ele><time>2026-04-25T14:46:55.567Z</time></trkpt><trkpt lat="42.0052303" lon="12.103542"><ele>99.0</ele><time>2026-04-25T14:46:57.562Z</time></trkpt><trkpt lat="42.0052938" lon="12.1036336"><ele>99.0</ele><time>2026-04-25T14:46:59.521Z</time></trkpt><trkpt lat="42.0053448" lon="12.1036998"><ele>99.0</ele><time>2026-04-25T14:47:01.514Z</time></trkpt><trkpt lat="42.005395" lon="12.1037828"><ele>99.0</ele><time>2026-04-25T14:47:03.544Z</time></trkpt><trkpt lat="42.0054459" lon="12.1038637"><ele>99.0</ele><time>2026-04-25T14:47:05.511Z</time></trkpt><trkpt lat="42.0055076" lon="12.1039402"><ele>99.0</ele><time>2026-04-25T14:47:07.499Z</time></trkpt><trkpt lat="42.0055931" lon="12.104029"><ele>99.0</ele><time>2026-04-25T14:47:09.588Z</time></trkpt><trkpt lat="42.0056806" lon="12.1040927"><ele>99.0</ele><time>2026-04-25T14:47:11.572Z</time></trkpt><trkpt lat="42.0057626" lon="12.1041354"><ele>99.0</ele><time>2026-04-25T14:47:13.498Z</time></trkpt><trkpt lat="42.0058266" lon="12.1041721"><ele>99.0</ele><time>2026-04-25T14:47:15.514Z</time></trkpt><trkpt lat="42.005877" lon="12.1042346"><ele>99.0</ele><time>2026-04-25T14:47:17.524Z</time></trkpt><trkpt lat="42.0059254" lon="12.1043077"><ele>99.42857142857143</ele><time>2026-04-25T14:47:19.576Z</time></trkpt><trkpt lat="42.00597" lon="12.1043955"><ele>99.85714285714285</ele><time>2026-04-25T14:47:21.549Z</time></trkpt><trkpt lat="42.0060138" lon="12.1044827"><ele>100.28571428571428</ele><time>2026-04-25T14:47:23.545Z</time></trkpt><trkpt lat="42.006056" lon="12.1045651"><ele>100.71428571428572</ele><time>2026-04-25T14:47:25.498Z</time></trkpt><trkpt lat="42.0060971" lon="12.1046341"><ele>101.14285714285714</ele><time>2026-04-25T14:47:27.547Z</time></trkpt><trkpt lat="42.00613" lon="12.1047097"><ele>101.57142857142857</ele><time>2026-04-25T14:47:29.517Z</time></trkpt><trkpt lat="42.0061688" lon="12.1047881"><ele>102.0</ele><time>2026-04-25T14:47:31.554Z</time></trkpt><trkpt lat="42.0062127" lon="12.1048707"><ele>101.5</ele><time>2026-04-25T14:47:33.555Z</time></trkpt><trkpt lat="42.0062634" lon="12.1049554"><ele>101.0</ele><time>2026-04-25T14:47:35.497Z</time></trkpt><trkpt lat="42.006313" lon="12.1050476"><ele>100.5</ele><time>2026-04-25T14:47:37.558Z</time></trkpt><trkpt lat="42.0063696" lon="12.1051358"><ele>100.0</ele><time>2026-04-25T14:47:39.526Z</time></trkpt><trkpt lat="42.006427" lon="12.1052274"><ele>99.5</ele><time>2026-04-25T14:47:41.504Z</time></trkpt><trkpt lat="42.0064734" lon="12.1053314"><ele>99.0</ele><time>2026-04-25T14:47:43.506Z</time></trkpt><trkpt lat="42.0065203" lon="12.1054381"><ele>99.0</ele><time>2026-04-25T14:47:45.502Z</time></trkpt><trkpt lat="42.00659" lon="12.105509"><ele>99.0</ele><time>2026-04-25T14:47:47.496Z</time></trkpt><trkpt lat="42.0066744" lon="12.1055494"><ele>99.0</ele><time>2026-04-25T14:47:49.501Z</time></trkpt><trkpt lat="42.006748" lon="12.1056002"><ele>99.0</ele><time>2026-04-25T14:47:51.497Z</time></trkpt><trkpt lat="42.0068262" lon="12.1056492"><ele>99.0</ele><time>2026-04-25T14:47:53.498Z</time></trkpt><trkpt lat="42.0068896" lon="12.1056756"><ele>99.0</ele><time>2026-04-25T14:47:55.5Z</time></trkpt><trkpt lat="42.0069616" lon="12.1056849"><ele>99.0</ele><time>2026-04-25T14:47:57.501Z</time></trkpt><trkpt lat="42.0070295" lon="12.1057021"><ele>99.0</ele><time>2026-04-25T14:47:59.52Z</time></trkpt><trkpt lat="42.0071053" lon="12.1057269"><ele>99.0</ele><time>2026-04-25T14:48:02.512Z</time></trkpt><trkpt lat="42.0071476" lon="12.1058374"><ele>99.0</ele><time>2026-04-25T14:48:05.512Z</time></trkpt><trkpt lat="42.007154" lon="12.1059361"><ele>99.0</ele><time>2026-04-25T14:48:07.496Z</time></trkpt><trkpt lat="42.0071625" lon="12.1060355"><ele>99.0</ele><time>2026-04-25T14:48:09.518Z</time></trkpt><trkpt lat="42.0071796" lon="12.1061482"><ele>99.0</ele><time>2026-04-25T14:48:11.505Z</time></trkpt><trkpt lat="42.0071916" lon="12.1062709"><ele>99.0</ele><time>2026-04-25T14:48:13.503Z</time></trkpt><trkpt lat="42.0072105" lon="12.1064085"><ele>99.0</ele><time>2026-04-25T14:48:15.52Z</time></trkpt><trkpt lat="42.007229" lon="12.1065306"><ele>99.0</ele><time>2026-04-25T14:48:17.505Z</time></trkpt><trkpt lat="42.0072554" lon="12.106627"><ele>99.0</ele><time>2026-04-25T14:48:19.514Z</time></trkpt><trkpt lat="42.0073031" lon="12.1066873"><ele>99.0</ele><time>2026-04-25T14:48:21.507Z</time></trkpt><trkpt lat="42.0073737" lon="12.1066928"><ele>98.42857142857143</ele><time>2026-04-25T14:48:23.502Z</time></trkpt><trkpt lat="42.0074456" lon="12.1066548"><ele>97.85714285714285</ele><time>2026-04-25T14:48:25.502Z</time></trkpt><trkpt lat="42.0075007" lon="12.1065573"><ele>97.28571428571428</ele><time>2026-04-25T14:48:28.499Z</time></trkpt><trkpt lat="42.0075244" lon="12.1064754"><ele>96.71428571428572</ele><time>2026-04-25T14:48:30.507Z</time></trkpt><trkpt lat="42.007588" lon="12.1064171"><ele>96.14285714285714</ele><time>2026-04-25T14:48:33.513Z</time></trkpt><trkpt lat="42.0076424" lon="12.1063707"><ele>95.57142857142857</ele><time>2026-04-25T14:48:35.515Z</time></trkpt><trkpt lat="42.0077014" lon="12.1063374"><ele>95.0</ele><time>2026-04-25T14:48:37.582Z</time></trkpt><trkpt lat="42.0077809" lon="12.1062843"><ele>97.0</ele><time>2026-04-25T14:48:40.511Z</time></trkpt><trkpt lat="42.0078542" lon="12.1062342"><ele>99.0</ele><time>2026-04-25T14:48:43.503Z</time></trkpt><trkpt lat="42.0079172" lon="12.1061885"><ele>101.0</ele><time>2026-04-25T14:48:45.506Z</time></trkpt><trkpt lat="42.0080029" lon="12.10615"><ele>103.0</ele><time>2026-04-25T14:48:48.497Z</time></trkpt><trkpt lat="42.0080855" lon="12.1061248"><ele>105.0</ele><time>2026-04-25T14:48:51.504Z</time></trkpt><trkpt lat="42.0082571" lon="12.10612"><ele>105.33333333333333</ele><time>2026-04-25T14:48:57.507Z</time></trkpt><trkpt lat="42.0083275" lon="12.106115"><ele>105.66666666666666</ele><time>2026-04-25T14:48:59.496Z</time></trkpt><trkpt lat="42.0083983" lon="12.1061095"><ele>106.0</ele><time>2026-04-25T14:49:01.496Z</time></trkpt><trkpt lat="42.0085547" lon="12.1061146"><ele>106.33333333333333</ele><time>2026-04-25T14:49:05.514Z</time></trkpt><trkpt lat="42.008627" lon="12.1061465"><ele>106.66666666666666</ele><time>2026-04-25T14:49:07.524Z</time></trkpt><trkpt lat="42.0086784" lon="12.1062067"><ele>107.0</ele><time>2026-04-25T14:49:10.507Z</time></trkpt><trkpt lat="42.00878" lon="12.1062282"><ele>107.00000000000001</ele><time>2026-04-25T14:49:13.515Z</time></trkpt><trkpt lat="42.0088226" lon="12.1062944"><ele>107.0</ele><time>2026-04-25T14:49:15.51Z</time></trkpt><trkpt lat="42.008859" lon="12.1063856"><ele>107.0</ele><time>2026-04-25T14:49:17.513Z</time></trkpt><trkpt lat="42.008889" lon="12.106483"><ele>107.0</ele><time>2026-04-25T14:49:19.567Z</time></trkpt><trkpt lat="42.008907" lon="12.1065664"><ele>107.0</ele><time>2026-04-25T14:49:21.541Z</time></trkpt><trkpt lat="42.0089391" lon="12.1066828"><ele>107.00000000000001</ele><time>2026-04-25T14:49:24.503Z</time></trkpt><trkpt lat="42.0089584" lon="12.1067665"><ele>107.0</ele><time>2026-04-25T14:49:26.523Z</time></trkpt><trkpt lat="42.0089792" lon="12.1068878"><ele>106.66666666666666</ele><time>2026-04-25T14:49:29.513Z</time></trkpt><trkpt lat="42.0089785" lon="12.107009"><ele>106.33333333333333</ele><time>2026-04-25T14:49:32.524Z</time></trkpt><trkpt lat="42.0089728" lon="12.1071305"><ele>106.0</ele><time>2026-04-25T14:49:35.511Z</time></trkpt><trkpt lat="42.0089734" lon="12.1072424"><ele>105.66666666666666</ele><time>2026-04-25T14:49:38.52Z</time></trkpt><trkpt lat="42.0089736" lon="12.1073461"><ele>105.33333333333333</ele><time>2026-04-25T14:49:41.523Z</time></trkpt><trkpt lat="42.008992" lon="12.1074519"><ele>105.0</ele><time>2026-04-25T14:49:44.577Z</time></trkpt><trkpt lat="42.0089673" lon="12.1075483"><ele>104.83333333333333</ele><time>2026-04-25T14:49:48.506Z</time></trkpt><trkpt lat="42.0088898" lon="12.1075733"><ele>104.66666666666666</ele><time>2026-04-25T14:49:51.509Z</time></trkpt><trkpt lat="42.0088507" lon="12.1076527"><ele>104.5</ele><time>2026-04-25T14:49:55.514Z</time></trkpt><trkpt lat="42.0088483" lon="12.1077479"><ele>104.33333333333333</ele><time>2026-04-25T14:49:58.509Z</time></trkpt><trkpt lat="42.0088701" lon="12.1078421"><ele>104.16666666666666</ele><time>2026-04-25T14:50:01.503Z</time></trkpt><trkpt lat="42.0088954" lon="12.1079348"><ele>104.0</ele><time>2026-04-25T14:50:04.627Z</time></trkpt><trkpt lat="42.0088926" lon="12.1080473"><ele>104.0</ele><time>2026-04-25T14:50:08.54Z</time></trkpt><trkpt lat="42.0089078" lon="12.1081487"><ele>104.0</ele><time>2026-04-25T14:50:12.497Z</time></trkpt><trkpt lat="42.0089204" lon="12.1082352"><ele>104.0</ele><time>2026-04-25T14:50:16.523Z</time></trkpt><trkpt lat="42.0089359" lon="12.1083262"><ele>104.0</ele><time>2026-04-25T14:50:20.501Z</time></trkpt><trkpt lat="42.0089415" lon="12.1084317"><ele>104.0</ele><time>2026-04-25T14:50:24.495Z</time></trkpt><trkpt lat="42.008944" lon="12.1085355"><ele>104.0</ele><time>2026-04-25T14:50:28.568Z</time></trkpt><trkpt lat="42.0088835" lon="12.1085989"><ele>104.0</ele><time>2026-04-25T14:50:32.507Z</time></trkpt><trkpt lat="42.0088013" lon="12.1086514"><ele>104.28571428571428</ele><time>2026-04-25T14:50:35.502Z</time></trkpt><trkpt lat="42.008744" lon="12.1086985"><ele>104.57142857142858</ele><time>2026-04-25T14:50:37.519Z</time></trkpt><trkpt lat="42.0086758" lon="12.1086906"><ele>104.85714285714286</ele><time>2026-04-25T14:50:39.591Z</time></trkpt><trkpt lat="42.0086049" lon="12.1087114"><ele>105.14285714285714</ele><time>2026-04-25T14:50:41.496Z</time></trkpt><trkpt lat="42.0085453" lon="12.1087912"><ele>105.42857142857142</ele><time>2026-04-25T14:50:43.499Z</time></trkpt><trkpt lat="42.0084821" lon="12.108843"><ele>105.71428571428572</ele><time>2026-04-25T14:50:45.505Z</time></trkpt><trkpt lat="42.00841" lon="12.1088222"><ele>106.0</ele><time>2026-04-25T14:50:47.517Z</time></trkpt><trkpt lat="42.0083435" lon="12.1088345"><ele>104.33333333333334</ele><time>2026-04-25T14:50:49.536Z</time></trkpt><trkpt lat="42.0082986" lon="12.1089055"><ele>102.66666666666667</ele><time>2026-04-25T14:50:51.525Z</time></trkpt><trkpt lat="42.008214" lon="12.1089475"><ele>101.0</ele><time>2026-04-25T14:50:54.503Z</time></trkpt><trkpt lat="42.0081506" lon="12.108931"><ele>99.33333333333334</ele><time>2026-04-25T14:50:56.493Z</time></trkpt><trkpt lat="42.0081015" lon="12.1090144"><ele>97.66666666666667</ele><time>2026-04-25T14:50:59.498Z</time></trkpt><trkpt lat="42.008054" lon="12.109102"><ele>96.0</ele><time>2026-04-25T14:51:03.503Z</time></trkpt><trkpt lat="42.0080681" lon="12.1092197"><ele>95.99999999999999</ele><time>2026-04-25T14:51:07.498Z</time></trkpt><trkpt lat="42.0080508" lon="12.109318"><ele>96.0</ele><time>2026-04-25T14:51:10.514Z</time></trkpt><trkpt lat="42.0080655" lon="12.1094072"><ele>96.0</ele><time>2026-04-25T14:51:14.504Z</time></trkpt><trkpt lat="42.0080753" lon="12.1094985"><ele>96.0</ele><time>2026-04-25T14:51:18.498Z</time></trkpt><trkpt lat="42.0081303" lon="12.1095643"><ele>96.0</ele><time>2026-04-25T14:51:21.504Z</time></trkpt><trkpt lat="42.0081379" lon="12.1096618"><ele>95.99999999999999</ele><time>2026-04-25T14:51:25.515Z</time></trkpt><trkpt lat="42.0081169" lon="12.1097591"><ele>96.0</ele><time>2026-04-25T14:51:28.506Z</time></trkpt><trkpt lat="42.0080683" lon="12.1098462"><ele>97.16666666666667</ele><time>2026-04-25T14:51:31.568Z</time></trkpt><trkpt lat="42.0080342" lon="12.1099197"><ele>98.33333333333334</ele><time>2026-04-25T14:51:34.507Z</time></trkpt><trkpt lat="42.0079759" lon="12.1099829"><ele>99.5</ele><time>2026-04-25T14:51:38.511Z</time></trkpt><trkpt lat="42.0079107" lon="12.1100166"><ele>100.66666666666667</ele><time>2026-04-25T14:51:42.499Z</time></trkpt><trkpt lat="42.0080479" lon="12.1100309"><ele>101.83333333333334</ele><time>2026-04-25T14:52:47.502Z</time></trkpt><trkpt lat="42.0081036" lon="12.1099859"><ele>103.0</ele><time>2026-04-25T14:52:52.45Z</time></trkpt><trkpt lat="42.0081898" lon="12.1100199"><ele>103.00000000000001</ele><time>2026-04-25T14:53:09.505Z</time></trkpt><trkpt lat="42.0081252" lon="12.1100546"><ele>103.0</ele><time>2026-04-25T14:53:35.494Z</time></trkpt><trkpt lat="42.0080505" lon="12.1100163"><ele>103.0</ele><time>2026-04-25T14:53:39.517Z</time></trkpt><trkpt lat="42.008114" lon="12.1099526"><ele>103.0</ele><time>2026-04-25T14:53:46.505Z</time></trkpt><trkpt lat="42.0081701" lon="12.1098948"><ele>103.00000000000001</ele><time>2026-04-25T14:53:49.513Z</time></trkpt><trkpt lat="42.0082504" lon="12.1098476"><ele>103.0</ele><time>2026-04-25T14:53:53.508Z</time></trkpt><trkpt lat="42.0084023" lon="12.1098499"><ele>103.33333333333334</ele><time>2026-04-25T14:54:00.515Z</time></trkpt><trkpt lat="42.0084847" lon="12.1098613"><ele>103.66666666666667</ele><time>2026-04-25T14:54:03.499Z</time></trkpt><trkpt lat="42.0085561" lon="12.1098623"><ele>104.0</ele><time>2026-04-25T14:54:06.516Z</time></trkpt><trkpt lat="42.0086253" lon="12.1098433"><ele>104.33333333333334</ele><time>2026-04-25T14:54:09.505Z</time></trkpt><trkpt lat="42.0087007" lon="12.1098014"><ele>104.66666666666667</ele><time>2026-04-25T14:54:12.506Z</time></trkpt><trkpt lat="42.0087784" lon="12.1097689"><ele>105.0</ele><time>2026-04-25T14:54:15.505Z</time></trkpt><trkpt lat="42.0088488" lon="12.1097602"><ele>105.0</ele><time>2026-04-25T14:54:18.507Z</time></trkpt><trkpt lat="42.0089242" lon="12.1097346"><ele>105.0</ele><time>2026-04-25T14:54:21.503Z</time></trkpt><trkpt lat="42.0089965" lon="12.1097129"><ele>105.0</ele><time>2026-04-25T14:54:24.505Z</time></trkpt><trkpt lat="42.0090641" lon="12.10968"><ele>105.0</ele><time>2026-04-25T14:54:27.501Z</time></trkpt><trkpt lat="42.0091721" lon="12.1096758"><ele>105.0</ele><time>2026-04-25T14:54:31.517Z</time></trkpt><trkpt lat="42.0092396" lon="12.1096576"><ele>105.0</ele><time>2026-04-25T14:54:34.512Z</time></trkpt><trkpt lat="42.0093145" lon="12.1096434"><ele>105.14285714285714</ele><time>2026-04-25T14:54:37.503Z</time></trkpt><trkpt lat="42.0093842" lon="12.1096107"><ele>105.28571428571428</ele><time>2026-04-25T14:54:40.513Z</time></trkpt><trkpt lat="42.0094524" lon="12.1095632"><ele>105.42857142857143</ele><time>2026-04-25T14:54:43.603Z</time></trkpt><trkpt lat="42.0095273" lon="12.1095364"><ele>105.57142857142857</ele><time>2026-04-25T14:54:46.523Z</time></trkpt><trkpt lat="42.0095943" lon="12.1094982"><ele>105.71428571428571</ele><time>2026-04-25T14:54:50.565Z</time></trkpt><trkpt lat="42.0096633" lon="12.1094661"><ele>105.85714285714286</ele><time>2026-04-25T14:54:54.526Z</time></trkpt><trkpt lat="42.0097174" lon="12.1095159"><ele>106.0</ele><time>2026-04-25T14:54:59.551Z</time></trkpt><trkpt lat="42.0097642" lon="12.109582"><ele>106.0</ele><time>2026-04-25T14:55:07.445Z</time></trkpt><trkpt lat="42.0098356" lon="12.1095656"><ele>106.0</ele><time>2026-04-25T14:55:12.497Z</time></trkpt><trkpt lat="42.0098556" lon="12.1096496"><ele>106.0</ele><time>2026-04-25T14:55:18.436Z</time></trkpt><trkpt lat="42.0098744" lon="12.109738"><ele>106.0</ele><time>2026-04-25T14:55:20.493Z</time></trkpt><trkpt lat="42.0098676" lon="12.1098232"><ele>106.0</ele><time>2026-04-25T14:55:24.522Z</time></trkpt><trkpt lat="42.0098529" lon="12.109914"><ele>106.0</ele><time>2026-04-25T14:55:30.501Z</time></trkpt><trkpt lat="42.0098382" lon="12.1100028"><ele>106.0</ele><time>2026-04-25T14:55:34.52Z</time></trkpt><trkpt lat="42.0098358" lon="12.1101005"><ele>106.0</ele><time>2026-04-25T14:55:40.515Z</time></trkpt><trkpt lat="42.0098418" lon="12.1101884"><ele>106.0</ele><time>2026-04-25T14:55:45.498Z</time></trkpt><trkpt lat="42.0098075" lon="12.1102673"><ele>106.0</ele><time>2026-04-25T14:55:49.509Z</time></trkpt><trkpt lat="42.009759" lon="12.110331"><ele>106.0</ele><time>2026-04-25T14:55:53.521Z</time></trkpt><trkpt lat="42.0097144" lon="12.1103927"><ele>106.0</ele><time>2026-04-25T14:55:58.519Z</time></trkpt><trkpt lat="42.009742" lon="12.1104805"><ele>106.0</ele><time>2026-04-25T14:56:03.499Z</time></trkpt><trkpt lat="42.0097627" lon="12.1105626"><ele>106.0</ele><time>2026-04-25T14:56:13.496Z</time></trkpt><trkpt lat="42.0097986" lon="12.1106372"><ele>106.0</ele><time>2026-04-25T14:56:18.502Z</time></trkpt><trkpt lat="42.0098489" lon="12.1106893"><ele>106.0</ele><time>2026-04-25T14:56:23.53Z</time></trkpt><trkpt lat="42.0099189" lon="12.1106795"><ele>106.0</ele><time>2026-04-25T14:56:28.503Z</time></trkpt><trkpt lat="42.0099892" lon="12.1106586"><ele>106.0</ele><time>2026-04-25T14:56:34.561Z</time></trkpt><trkpt lat="42.0100514" lon="12.1106375"><ele>106.0</ele><time>2026-04-25T14:56:36.561Z</time></trkpt><trkpt lat="42.0101083" lon="12.1105938"><ele>106.0</ele><time>2026-04-25T14:56:40.516Z</time></trkpt><trkpt lat="42.0101941" lon="12.1106339"><ele>106.0</ele><time>2026-04-25T14:56:46.505Z</time></trkpt><trkpt lat="42.0102625" lon="12.1105815"><ele>106.28571428571429</ele><time>2026-04-25T14:56:49.518Z</time></trkpt><trkpt lat="42.0103382" lon="12.1106209"><ele>106.57142857142857</ele><time>2026-04-25T14:56:53.507Z</time></trkpt><trkpt lat="42.0103903" lon="12.1106699"><ele>106.85714285714286</ele><time>2026-04-25T14:56:56.553Z</time></trkpt><trkpt lat="42.0104104" lon="12.1107799"><ele>107.14285714285714</ele><time>2026-04-25T14:57:00.511Z</time></trkpt><trkpt lat="42.0104474" lon="12.1108673"><ele>107.42857142857142</ele><time>2026-04-25T14:57:03.515Z</time></trkpt><trkpt lat="42.010477" lon="12.1109555"><ele>107.71428571428571</ele><time>2026-04-25T14:57:06.498Z</time></trkpt><trkpt lat="42.010493" lon="12.1110405"><ele>108.0</ele><time>2026-04-25T14:57:09.564Z</time></trkpt><trkpt lat="42.0105315" lon="12.1111423"><ele>108.33333333333333</ele><time>2026-04-25T14:57:13.51Z</time></trkpt><trkpt lat="42.0105916" lon="12.1111741"><ele>108.66666666666666</ele><time>2026-04-25T14:57:16.511Z</time></trkpt><trkpt lat="42.0106798" lon="12.111211"><ele>109.0</ele><time>2026-04-25T14:57:19.558Z</time></trkpt><trkpt lat="42.0107554" lon="12.111197"><ele>109.33333333333333</ele><time>2026-04-25T14:57:22.504Z</time></trkpt><trkpt lat="42.0107933" lon="12.1111142"><ele>109.66666666666666</ele><time>2026-04-25T14:57:25.519Z</time></trkpt><trkpt lat="42.0108163" lon="12.1110238"><ele>110.0</ele><time>2026-04-25T14:57:28.53Z</time></trkpt><trkpt lat="42.0108947" lon="12.110992"><ele>110.14285714285714</ele><time>2026-04-25T14:57:32.504Z</time></trkpt><trkpt lat="42.0109476" lon="12.110934"><ele>110.28571428571428</ele><time>2026-04-25T14:57:35.567Z</time></trkpt><trkpt lat="42.0109948" lon="12.1108749"><ele>110.42857142857142</ele><time>2026-04-25T14:57:38.519Z</time></trkpt><trkpt lat="42.0110567" lon="12.1109246"><ele>110.57142857142857</ele><time>2026-04-25T14:57:49.498Z</time></trkpt><trkpt lat="42.0110674" lon="12.1110194"><ele>110.71428571428572</ele><time>2026-04-25T14:57:52.544Z</time></trkpt><trkpt lat="42.011099" lon="12.111122"><ele>110.85714285714285</ele><time>2026-04-25T14:57:55.581Z</time></trkpt><trkpt lat="42.011124" lon="12.111229"><ele>111.0</ele><time>2026-04-25T14:57:58.509Z</time></trkpt><trkpt lat="42.0111087" lon="12.1113488"><ele>111.0</ele><time>2026-04-25T14:58:01.506Z</time></trkpt><trkpt lat="42.0110974" lon="12.1114441"><ele>111.0</ele><time>2026-04-25T14:58:03.504Z</time></trkpt><trkpt lat="42.0110765" lon="12.1115372"><ele>111.0</ele><time>2026-04-25T14:58:05.499Z</time></trkpt><trkpt lat="42.0110282" lon="12.1116122"><ele>111.0</ele><time>2026-04-25T14:58:07.495Z</time></trkpt><trkpt lat="42.0109674" lon="12.1116731"><ele>111.0</ele><time>2026-04-25T14:58:09.501Z</time></trkpt><trkpt lat="42.010916" lon="12.1117874"><ele>111.0</ele><time>2026-04-25T14:58:12.511Z</time></trkpt><trkpt lat="42.010894" lon="12.1118772"><ele>110.71428571428571</ele><time>2026-04-25T14:58:14.509Z</time></trkpt><trkpt lat="42.010868" lon="12.1119658"><ele>110.42857142857143</ele><time>2026-04-25T14:58:16.499Z</time></trkpt><trkpt lat="42.0108166" lon="12.1120326"><ele>110.14285714285714</ele><time>2026-04-25T14:58:19.553Z</time></trkpt><trkpt lat="42.0107339" lon="12.1120836"><ele>109.85714285714286</ele><time>2026-04-25T14:58:22.518Z</time></trkpt><trkpt lat="42.0106695" lon="12.112103"><ele>109.57142857142858</ele><time>2026-04-25T14:58:24.514Z</time></trkpt><trkpt lat="42.0106073" lon="12.1120899"><ele>109.28571428571429</ele><time>2026-04-25T14:58:26.515Z</time></trkpt><trkpt lat="42.0105382" lon="12.112063"><ele>109.0</ele><time>2026-04-25T14:58:28.567Z</time></trkpt><trkpt lat="42.0104599" lon="12.1120419"><ele>108.50000000000001</ele><time>2026-04-25T14:58:30.499Z</time></trkpt><trkpt lat="42.0103846" lon="12.112015"><ele>108.0</ele><time>2026-04-25T14:58:32.507Z</time></trkpt><trkpt lat="42.0103022" lon="12.1119713"><ele>107.5</ele><time>2026-04-25T14:58:34.509Z</time></trkpt><trkpt lat="42.0102196" lon="12.1119284"><ele>107.0</ele><time>2026-04-25T14:58:36.528Z</time></trkpt><trkpt lat="42.0101394" lon="12.1118926"><ele>106.50000000000001</ele><time>2026-04-25T14:58:38.495Z</time></trkpt><trkpt lat="42.0100662" lon="12.1118503"><ele>106.0</ele><time>2026-04-25T14:58:40.515Z</time></trkpt><trkpt lat="42.0100024" lon="12.1117999"><ele>105.66666666666667</ele><time>2026-04-25T14:58:42.521Z</time></trkpt><trkpt lat="42.00993" lon="12.1117773"><ele>105.33333333333334</ele><time>2026-04-25T14:58:44.493Z</time></trkpt><trkpt lat="42.0098518" lon="12.1117746"><ele>105.0</ele><time>2026-04-25T14:58:46.515Z</time></trkpt><trkpt lat="42.0097704" lon="12.1117808"><ele>104.66666666666666</ele><time>2026-04-25T14:58:48.539Z</time></trkpt><trkpt lat="42.0097053" lon="12.1118136"><ele>104.33333333333333</ele><time>2026-04-25T14:58:50.53Z</time></trkpt><trkpt lat="42.0096218" lon="12.1118434"><ele>104.0</ele><time>2026-04-25T14:58:52.516Z</time></trkpt><trkpt lat="42.0095485" lon="12.111874"><ele>104.0</ele><time>2026-04-25T14:58:54.494Z</time></trkpt><trkpt lat="42.0094786" lon="12.1119236"><ele>104.0</ele><time>2026-04-25T14:58:56.493Z</time></trkpt><trkpt lat="42.0094243" lon="12.1119809"><ele>104.0</ele><time>2026-04-25T14:58:58.513Z</time></trkpt><trkpt lat="42.0093945" lon="12.1120636"><ele>104.0</ele><time>2026-04-25T14:59:00.5Z</time></trkpt><trkpt lat="42.0093838" lon="12.1121677"><ele>104.0</ele><time>2026-04-25T14:59:02.498Z</time></trkpt><trkpt lat="42.0093863" lon="12.1122726"><ele>104.0</ele><time>2026-04-25T14:59:04.498Z</time></trkpt><trkpt lat="42.0093883" lon="12.1123699"><ele>104.0</ele><time>2026-04-25T14:59:06.564Z</time></trkpt><trkpt lat="42.0094069" lon="12.1124779"><ele>104.16666666666666</ele><time>2026-04-25T14:59:09.503Z</time></trkpt><trkpt lat="42.0094153" lon="12.1125797"><ele>104.33333333333333</ele><time>2026-04-25T14:59:12.513Z</time></trkpt><trkpt lat="42.0094154" lon="12.1126905"><ele>104.5</ele><time>2026-04-25T14:59:15.518Z</time></trkpt><trkpt lat="42.0093935" lon="12.1127925"><ele>104.66666666666666</ele><time>2026-04-25T14:59:23.507Z</time></trkpt><trkpt lat="42.0093829" lon="12.1129073"><ele>104.83333333333333</ele><time>2026-04-25T14:59:26.505Z</time></trkpt><trkpt lat="42.00939" lon="12.1129953"><ele>105.0</ele><time>2026-04-25T14:59:28.54Z</time></trkpt><trkpt lat="42.0094257" lon="12.1130665"><ele>105.0</ele><time>2026-04-25T14:59:30.511Z</time></trkpt><trkpt lat="42.009483" lon="12.1131645"><ele>105.0</ele><time>2026-04-25T14:59:33.509Z</time></trkpt><trkpt lat="42.0095393" lon="12.1132634"><ele>105.0</ele><time>2026-04-25T14:59:36.513Z</time></trkpt><trkpt lat="42.0095912" lon="12.1133633"><ele>105.0</ele><time>2026-04-25T14:59:39.51Z</time></trkpt><trkpt lat="42.0096354" lon="12.1134289"><ele>105.0</ele><time>2026-04-25T14:59:41.501Z</time></trkpt><trkpt lat="42.0096768" lon="12.1135094"><ele>105.0</ele><time>2026-04-25T14:59:43.566Z</time></trkpt><trkpt lat="42.0097503" lon="12.1135639"><ele>105.0</ele><time>2026-04-25T14:59:46.506Z</time></trkpt><trkpt lat="42.0098043" lon="12.1136269"><ele>105.0</ele><time>2026-04-25T14:59:48.545Z</time></trkpt><trkpt lat="42.0098786" lon="12.1136717"><ele>105.0</ele><time>2026-04-25T14:59:50.567Z</time></trkpt><trkpt lat="42.0099301" lon="12.1137373"><ele>105.0</ele><time>2026-04-25T14:59:52.514Z</time></trkpt><trkpt lat="42.0099723" lon="12.1138127"><ele>105.0</ele><time>2026-04-25T14:59:54.519Z</time></trkpt><trkpt lat="42.0100144" lon="12.1138869"><ele>105.0</ele><time>2026-04-25T14:59:56.507Z</time></trkpt><trkpt lat="42.0100574" lon="12.1139628"><ele>105.0</ele><time>2026-04-25T14:59:58.557Z</time></trkpt><trkpt lat="42.0100968" lon="12.1140404"><ele>105.71428571428571</ele><time>2026-04-25T15:00:00.56Z</time></trkpt><trkpt lat="42.0101309" lon="12.1141204"><ele>106.42857142857143</ele><time>2026-04-25T15:00:02.498Z</time></trkpt><trkpt lat="42.010161" lon="12.1142164"><ele>107.14285714285714</ele><time>2026-04-25T15:00:04.542Z</time></trkpt><trkpt lat="42.0101929" lon="12.1142945"><ele>107.85714285714286</ele><time>2026-04-25T15:00:06.509Z</time></trkpt><trkpt lat="42.0102296" lon="12.1143694"><ele>108.57142857142857</ele><time>2026-04-25T15:00:08.523Z</time></trkpt><trkpt lat="42.0102744" lon="12.1144645"><ele>109.28571428571428</ele><time>2026-04-25T15:00:11.503Z</time></trkpt><trkpt lat="42.0103043" lon="12.1145531"><ele>110.0</ele><time>2026-04-25T15:00:14.542Z</time></trkpt><trkpt lat="42.0103558" lon="12.1146421"><ele>109.99999999999999</ele><time>2026-04-25T15:00:18.515Z</time></trkpt><trkpt lat="42.0103795" lon="12.1147455"><ele>110.0</ele><time>2026-04-25T15:00:21.566Z</time></trkpt><trkpt lat="42.0104038" lon="12.1148241"><ele>110.0</ele><time>2026-04-25T15:00:23.518Z</time></trkpt><trkpt lat="42.0104245" lon="12.114913"><ele>110.0</ele><time>2026-04-25T15:00:26.515Z</time></trkpt><trkpt lat="42.0104483" lon="12.1150116"><ele>109.99999999999999</ele><time>2026-04-25T15:00:29.575Z</time></trkpt><trkpt lat="42.0104849" lon="12.1151166"><ele>110.0</ele><time>2026-04-25T15:00:31.504Z</time></trkpt><trkpt lat="42.0105224" lon="12.1152082"><ele>110.83333333333333</ele><time>2026-04-25T15:00:33.499Z</time></trkpt><trkpt lat="42.0105576" lon="12.1152964"><ele>111.66666666666666</ele><time>2026-04-25T15:00:35.502Z</time></trkpt><trkpt lat="42.0105907" lon="12.115394"><ele>112.5</ele><time>2026-04-25T15:00:37.511Z</time></trkpt><trkpt lat="42.0106332" lon="12.1154788"><ele>113.33333333333334</ele><time>2026-04-25T15:00:39.514Z</time></trkpt><trkpt lat="42.0106751" lon="12.1155839"><ele>114.16666666666667</ele><time>2026-04-25T15:00:42.522Z</time></trkpt><trkpt lat="42.0107443" lon="12.1156707"><ele>115.0</ele><time>2026-04-25T15:00:46.571Z</time></trkpt><trkpt lat="42.0107901" lon="12.11574"><ele>115.16666666666667</ele><time>2026-04-25T15:00:48.516Z</time></trkpt><trkpt lat="42.0108307" lon="12.1158089"><ele>115.33333333333334</ele><time>2026-04-25T15:00:50.525Z</time></trkpt><trkpt lat="42.010899" lon="12.115886"><ele>115.5</ele><time>2026-04-25T15:00:53.499Z</time></trkpt><trkpt lat="42.0109494" lon="12.1159656"><ele>115.66666666666666</ele><time>2026-04-25T15:00:56.511Z</time></trkpt><trkpt lat="42.0110098" lon="12.1160278"><ele>115.83333333333333</ele><time>2026-04-25T15:00:59.495Z</time></trkpt><trkpt lat="42.0110762" lon="12.1160861"><ele>116.0</ele><time>2026-04-25T15:01:02.518Z</time></trkpt><trkpt lat="42.0111387" lon="12.1161349"><ele>115.99999999999999</ele><time>2026-04-25T15:01:04.518Z</time></trkpt><trkpt lat="42.0112015" lon="12.116177"><ele>116.0</ele><time>2026-04-25T15:01:07.511Z</time></trkpt><trkpt lat="42.0113211" lon="12.116144"><ele>116.0</ele><time>2026-04-25T15:01:22.513Z</time></trkpt><trkpt lat="42.0113806" lon="12.1161968"><ele>116.0</ele><time>2026-04-25T15:01:25.587Z</time></trkpt><trkpt lat="42.0114279" lon="12.116282"><ele>115.99999999999999</ele><time>2026-04-25T15:01:28.505Z</time></trkpt><trkpt lat="42.0114676" lon="12.1163762"><ele>116.0</ele><time>2026-04-25T15:01:32.497Z</time></trkpt><trkpt lat="42.0115209" lon="12.1164719"><ele>115.99999999999999</ele><time>2026-04-25T15:01:35.504Z</time></trkpt><trkpt lat="42.0115726" lon="12.1165602"><ele>116.0</ele><time>2026-04-25T15:01:38.52Z</time></trkpt><trkpt lat="42.0116419" lon="12.1166068"><ele>116.0</ele><time>2026-04-25T15:01:40.517Z</time></trkpt><trkpt lat="42.0116923" lon="12.1166922"><ele>116.0</ele><time>2026-04-25T15:01:43.496Z</time></trkpt><trkpt lat="42.0117279" lon="12.1167914"><ele>115.99999999999999</ele><time>2026-04-25T15:01:46.499Z</time></trkpt><trkpt lat="42.0117526" lon="12.1168739"><ele>116.0</ele><time>2026-04-25T15:01:49.498Z</time></trkpt><trkpt lat="42.0117227" lon="12.1169721"><ele>116.14285714285717</ele><time>2026-04-25T15:01:54.509Z</time></trkpt><trkpt lat="42.0116924" lon="12.1170557"><ele>116.28571428571429</ele><time>2026-04-25T15:01:57.516Z</time></trkpt><trkpt lat="42.0117287" lon="12.1171461"><ele>116.42857142857144</ele><time>2026-04-25T15:02:00.509Z</time></trkpt><trkpt lat="42.0117589" lon="12.1172568"><ele>116.57142857142858</ele><time>2026-04-25T15:02:03.531Z</time></trkpt><trkpt lat="42.0117728" lon="12.1173397"><ele>116.71428571428572</ele><time>2026-04-25T15:02:05.526Z</time></trkpt><trkpt lat="42.0117918" lon="12.1174415"><ele>116.85714285714286</ele><time>2026-04-25T15:02:08.563Z</time></trkpt><trkpt lat="42.0117688" lon="12.1175348"><ele>117.0</ele><time>2026-04-25T15:02:11.498Z</time></trkpt><trkpt lat="42.01179" lon="12.1176405"><ele>117.85714285714286</ele><time>2026-04-25T15:02:14.526Z</time></trkpt><trkpt lat="42.0117996" lon="12.1177313"><ele>118.71428571428572</ele><time>2026-04-25T15:02:17.566Z</time></trkpt><trkpt lat="42.0118013" lon="12.1178319"><ele>119.57142857142858</ele><time>2026-04-25T15:02:23.51Z</time></trkpt><trkpt lat="42.0118296" lon="12.1179311"><ele>120.42857142857144</ele><time>2026-04-25T15:02:27.514Z</time></trkpt><trkpt lat="42.0118382" lon="12.1180154"><ele>121.28571428571429</ele><time>2026-04-25T15:02:31.507Z</time></trkpt><trkpt lat="42.0118433" lon="12.1181062"><ele>122.14285714285717</ele><time>2026-04-25T15:02:34.504Z</time></trkpt><trkpt lat="42.0119134" lon="12.1181671"><ele>123.00000000000001</ele><time>2026-04-25T15:02:37.492Z</time></trkpt><trkpt lat="42.0119778" lon="12.1181743"><ele>123.0</ele><time>2026-04-25T15:02:39.504Z</time></trkpt><trkpt lat="42.0120749" lon="12.1181665"><ele>123.0</ele><time>2026-04-25T15:02:42.506Z</time></trkpt><trkpt lat="42.0121396" lon="12.1181541"><ele>123.0</ele><time>2026-04-25T15:02:44.5Z</time></trkpt><trkpt lat="42.0122237" lon="12.1181397"><ele>123.0</ele><time>2026-04-25T15:02:47.503Z</time></trkpt><trkpt lat="42.0122873" lon="12.1181478"><ele>123.0</ele><time>2026-04-25T15:02:49.507Z</time></trkpt><trkpt lat="42.0123706" lon="12.1181783"><ele>123.0</ele><time>2026-04-25T15:02:52.503Z</time></trkpt><trkpt lat="42.0124523" lon="12.1182284"><ele>122.5</ele><time>2026-04-25T15:02:55.507Z</time></trkpt><trkpt lat="42.0125242" lon="12.1182685"><ele>122.0</ele><time>2026-04-25T15:02:57.503Z</time></trkpt><trkpt lat="42.0126015" lon="12.118314"><ele>121.5</ele><time>2026-04-25T15:02:59.496Z</time></trkpt><trkpt lat="42.0126688" lon="12.1183471"><ele>121.0</ele><time>2026-04-25T15:03:01.502Z</time></trkpt><trkpt lat="42.0127273" lon="12.1183799"><ele>120.5</ele><time>2026-04-25T15:03:03.536Z</time></trkpt><trkpt lat="42.0127981" lon="12.1184033"><ele>120.0</ele><time>2026-04-25T15:03:05.564Z</time></trkpt><trkpt lat="42.0128791" lon="12.1184371"><ele>120.0</ele><time>2026-04-25T15:03:07.506Z</time></trkpt><trkpt lat="42.0129612" lon="12.1184593"><ele>120.0</ele><time>2026-04-25T15:03:09.505Z</time></trkpt><trkpt lat="42.0130512" lon="12.1184862"><ele>120.0</ele><time>2026-04-25T15:03:11.496Z</time></trkpt><trkpt lat="42.0131365" lon="12.118494"><ele>120.0</ele><time>2026-04-25T15:03:13.513Z</time></trkpt><trkpt lat="42.0132163" lon="12.1185071"><ele>120.0</ele><time>2026-04-25T15:03:15.524Z</time></trkpt><trkpt lat="42.0132813" lon="12.1185512"><ele>120.0</ele><time>2026-04-25T15:03:17.561Z</time></trkpt><trkpt lat="42.0133413" lon="12.1185988"><ele>119.14285714285714</ele><time>2026-04-25T15:03:19.505Z</time></trkpt><trkpt lat="42.0134061" lon="12.1186285"><ele>118.28571428571428</ele><time>2026-04-25T15:03:21.51Z</time></trkpt><trkpt lat="42.0134721" lon="12.1186478"><ele>117.42857142857142</ele><time>2026-04-25T15:03:23.515Z</time></trkpt><trkpt lat="42.0135417" lon="12.1186816"><ele>116.57142857142857</ele><time>2026-04-25T15:03:25.509Z</time></trkpt><trkpt lat="42.0136128" lon="12.1187228"><ele>115.7142857142857</ele><time>2026-04-25T15:03:27.558Z</time></trkpt><trkpt lat="42.013688" lon="12.1187477"><ele>114.85714285714285</ele><time>2026-04-25T15:03:29.507Z</time></trkpt><trkpt lat="42.0137649" lon="12.1187772"><ele>114.0</ele><time>2026-04-25T15:03:31.514Z</time></trkpt><trkpt lat="42.0138403" lon="12.1187964"><ele>114.0</ele><time>2026-04-25T15:03:33.517Z</time></trkpt><trkpt lat="42.0139174" lon="12.1188198"><ele>113.99999999999999</ele><time>2026-04-25T15:03:35.516Z</time></trkpt><trkpt lat="42.0139949" lon="12.1188378"><ele>114.0</ele><time>2026-04-25T15:03:37.507Z</time></trkpt><trkpt lat="42.0140662" lon="12.1188633"><ele>114.0</ele><time>2026-04-25T15:03:39.524Z</time></trkpt><trkpt lat="42.014134" lon="12.1188915"><ele>113.99999999999999</ele><time>2026-04-25T15:03:41.516Z</time></trkpt><trkpt lat="42.0142046" lon="12.1189126"><ele>114.0</ele><time>2026-04-25T15:03:43.509Z</time></trkpt><trkpt lat="42.0142766" lon="12.1189306"><ele>114.0</ele><time>2026-04-25T15:03:45.509Z</time></trkpt><trkpt lat="42.0143479" lon="12.1189461"><ele>114.28571428571428</ele><time>2026-04-25T15:03:47.516Z</time></trkpt><trkpt lat="42.0144115" lon="12.1189756"><ele>114.57142857142856</ele><time>2026-04-25T15:03:49.507Z</time></trkpt><trkpt lat="42.0144718" lon="12.1190013"><ele>114.85714285714286</ele><time>2026-04-25T15:03:51.5Z</time></trkpt><trkpt lat="42.014536" lon="12.1190213"><ele>115.14285714285714</ele><time>2026-04-25T15:04:08.502Z</time></trkpt><trkpt lat="42.0146096" lon="12.1190455"><ele>115.42857142857143</ele><time>2026-04-25T15:04:12.517Z</time></trkpt><trkpt lat="42.0146765" lon="12.1190721"><ele>115.71428571428572</ele><time>2026-04-25T15:04:15.5Z</time></trkpt><trkpt lat="42.0147117" lon="12.1191835"><ele>116.00000000000001</ele><time>2026-04-25T15:04:18.525Z</time></trkpt><trkpt lat="42.0147295" lon="12.1192867"><ele>116.19999999999999</ele><time>2026-04-25T15:04:20.566Z</time></trkpt><trkpt lat="42.0147404" lon="12.1194161"><ele>116.39999999999999</ele><time>2026-04-25T15:04:22.518Z</time></trkpt><trkpt lat="42.0147449" lon="12.1195494"><ele>116.6</ele><time>2026-04-25T15:04:24.509Z</time></trkpt><trkpt lat="42.0147422" lon="12.1196961"><ele>116.8</ele><time>2026-04-25T15:04:26.496Z</time></trkpt><trkpt lat="42.0147289" lon="12.1198577"><ele>117.0</ele><time>2026-04-25T15:04:28.502Z</time></trkpt><trkpt lat="42.014726" lon="12.1199482"><ele>117.0</ele><time>2026-04-25T15:04:29.515Z</time></trkpt><trkpt lat="42.0147191" lon="12.1200375"><ele>117.0</ele><time>2026-04-25T15:04:30.508Z</time></trkpt><trkpt lat="42.0147111" lon="12.1201301"><ele>117.0</ele><time>2026-04-25T15:04:31.516Z</time></trkpt><trkpt lat="42.0147043" lon="12.1202619"><ele>117.0</ele><time>2026-04-25T15:04:33.521Z</time></trkpt><trkpt lat="42.0147455" lon="12.1203737"><ele>117.0</ele><time>2026-04-25T15:04:36.503Z</time></trkpt><trkpt lat="42.0148199" lon="12.1203852"><ele>117.0</ele><time>2026-04-25T15:04:38.513Z</time></trkpt><trkpt lat="42.0148975" lon="12.1203765"><ele>117.0</ele><time>2026-04-25T15:04:40.506Z</time></trkpt><trkpt lat="42.0149647" lon="12.1203733"><ele>117.0</ele><time>2026-04-25T15:04:42.498Z</time></trkpt><trkpt lat="42.0150414" lon="12.1203277"><ele>117.0</ele><time>2026-04-25T15:04:45.496Z</time></trkpt><trkpt lat="42.015078" lon="12.1202394"><ele>117.0</ele><time>2026-04-25T15:04:48.494Z</time></trkpt><trkpt lat="42.0151447" lon="12.1201797"><ele>117.0</ele><time>2026-04-25T15:04:53.515Z</time></trkpt><trkpt lat="42.0151808" lon="12.1201064"><ele>117.0</ele><time>2026-04-25T15:04:56.502Z</time></trkpt><trkpt lat="42.0152322" lon="12.1200251"><ele>117.5</ele><time>2026-04-25T15:05:00.508Z</time></trkpt><trkpt lat="42.0152654" lon="12.1199373"><ele>118.0</ele><time>2026-04-25T15:05:05.51Z</time></trkpt><trkpt lat="42.0153334" lon="12.1198767"><ele>118.5</ele><time>2026-04-25T15:05:10.512Z</time></trkpt><trkpt lat="42.015406" lon="12.1198376"><ele>119.0</ele><time>2026-04-25T15:05:14.5Z</time></trkpt><trkpt lat="42.0154686" lon="12.1197959"><ele>119.5</ele><time>2026-04-25T15:05:18.506Z</time></trkpt><trkpt lat="42.0155221" lon="12.1197294"><ele>120.0</ele><time>2026-04-25T15:05:22.495Z</time></trkpt><trkpt lat="42.0155942" lon="12.1196966"><ele>120.0</ele><time>2026-04-25T15:05:26.498Z</time></trkpt><trkpt lat="42.0156636" lon="12.1196497"><ele>120.0</ele><time>2026-04-25T15:05:30.495Z</time></trkpt><trkpt lat="42.0157124" lon="12.1195872"><ele>120.0</ele><time>2026-04-25T15:05:34.509Z</time></trkpt><trkpt lat="42.0157814" lon="12.1195339"><ele>120.0</ele><time>2026-04-25T15:05:38.521Z</time></trkpt><trkpt lat="42.0158495" lon="12.1194944"><ele>120.0</ele><time>2026-04-25T15:05:42.507Z</time></trkpt><trkpt lat="42.0159444" lon="12.1194545"><ele>120.0</ele><time>2026-04-25T15:05:45.505Z</time></trkpt><trkpt lat="42.0160223" lon="12.1194441"><ele>121.5</ele><time>2026-04-25T15:05:48.514Z</time></trkpt><trkpt lat="42.0161123" lon="12.1194505"><ele>123.0</ele><time>2026-04-25T15:05:55.498Z</time></trkpt><trkpt lat="42.0161952" lon="12.1194547"><ele>124.5</ele><time>2026-04-25T15:06:00.511Z</time></trkpt><trkpt lat="42.0163907" lon="12.1194298"><ele>126.0</ele><time>2026-04-25T15:06:10.517Z</time></trkpt><trkpt lat="42.0164675" lon="12.1194837"><ele>126.0</ele><time>2026-04-25T15:06:15.499Z</time></trkpt><trkpt lat="42.0165414" lon="12.1195144"><ele>126.0</ele><time>2026-04-25T15:06:19.524Z</time></trkpt><trkpt lat="42.0166055" lon="12.1195244"><ele>126.0</ele><time>2026-04-25T15:06:22.513Z</time></trkpt><trkpt lat="42.0166694" lon="12.1195535"><ele>126.0</ele><time>2026-04-25T15:06:25.536Z</time></trkpt><trkpt lat="42.0167336" lon="12.1195821"><ele>126.0</ele><time>2026-04-25T15:06:28.515Z</time></trkpt><trkpt lat="42.0168" lon="12.1195966"><ele>126.0</ele><time>2026-04-25T15:06:31.532Z</time></trkpt><trkpt lat="42.0168615" lon="12.1196259"><ele>126.0</ele><time>2026-04-25T15:06:34.587Z</time></trkpt><trkpt lat="42.0169377" lon="12.1196564"><ele>127.16666666666667</ele><time>2026-04-25T15:06:39.563Z</time></trkpt><trkpt lat="42.0170015" lon="12.1196513"><ele>128.33333333333334</ele><time>2026-04-25T15:06:43.508Z</time></trkpt><trkpt lat="42.0170613" lon="12.119689"><ele>129.5</ele><time>2026-04-25T15:06:47.499Z</time></trkpt><trkpt lat="42.0171247" lon="12.1197258"><ele>130.66666666666669</ele><time>2026-04-25T15:06:51.507Z</time></trkpt><trkpt lat="42.0171936" lon="12.1197303"><ele>131.83333333333334</ele><time>2026-04-25T15:06:54.497Z</time></trkpt><trkpt lat="42.0173161" lon="12.119745"><ele>133.0</ele><time>2026-04-25T15:07:00.52Z</time></trkpt><trkpt lat="42.0174027" lon="12.119787"><ele>133.5</ele><time>2026-04-25T15:07:03.51Z</time></trkpt><trkpt lat="42.0174885" lon="12.1198034"><ele>134.0</ele><time>2026-04-25T15:07:06.505Z</time></trkpt><trkpt lat="42.0175544" lon="12.1198214"><ele>134.5</ele><time>2026-04-25T15:07:08.51Z</time></trkpt><trkpt lat="42.0176567" lon="12.1198353"><ele>135.0</ele><time>2026-04-25T15:07:10.505Z</time></trkpt><trkpt lat="42.0177234" lon="12.1198592"><ele>135.5</ele><time>2026-04-25T15:07:12.515Z</time></trkpt><trkpt lat="42.0178226" lon="12.1198698"><ele>136.0</ele><time>2026-04-25T15:07:20.513Z</time></trkpt><trkpt lat="42.0178879" lon="12.1199337"><ele>136.0</ele><time>2026-04-25T15:07:24.495Z</time></trkpt><trkpt lat="42.0179555" lon="12.1199745"><ele>136.0</ele><time>2026-04-25T15:07:27.506Z</time></trkpt><trkpt lat="42.0180206" lon="12.1200079"><ele>136.0</ele><time>2026-04-25T15:07:30.514Z</time></trkpt><trkpt lat="42.0180977" lon="12.1200242"><ele>136.0</ele><time>2026-04-25T15:07:33.509Z</time></trkpt><trkpt lat="42.0181607" lon="12.1200295"><ele>136.0</ele><time>2026-04-25T15:07:35.499Z</time></trkpt><trkpt lat="42.018358" lon="12.1200275"><ele>136.33333333333334</ele><time>2026-04-25T15:07:44.509Z</time></trkpt><trkpt lat="42.018429" lon="12.1200289"><ele>136.66666666666669</ele><time>2026-04-25T15:07:48.51Z</time></trkpt><trkpt lat="42.018498" lon="12.1200378"><ele>137.0</ele><time>2026-04-25T15:07:52.507Z</time></trkpt><trkpt lat="42.0185664" lon="12.1200786"><ele>137.33333333333334</ele><time>2026-04-25T15:07:58.507Z</time></trkpt><trkpt lat="42.0186514" lon="12.1200864"><ele>137.66666666666666</ele><time>2026-04-25T15:08:01.501Z</time></trkpt><trkpt lat="42.0187389" lon="12.1201102"><ele>138.0</ele><time>2026-04-25T15:08:04.513Z</time></trkpt><trkpt lat="42.0188084" lon="12.120118"><ele>138.0</ele><time>2026-04-25T15:08:07.502Z</time></trkpt><trkpt lat="42.0188783" lon="12.1201442"><ele>138.0</ele><time>2026-04-25T15:08:12.519Z</time></trkpt><trkpt lat="42.0189521" lon="12.1201637"><ele>138.0</ele><time>2026-04-25T15:08:17.499Z</time></trkpt><trkpt lat="42.0190076" lon="12.1202343"><ele>138.0</ele><time>2026-04-25T15:08:21.515Z</time></trkpt><trkpt lat="42.019074" lon="12.1203151"><ele>138.0</ele><time>2026-04-25T15:08:24.506Z</time></trkpt><trkpt lat="42.0191217" lon="12.1202202"><ele>138.0</ele><time>2026-04-25T15:08:27.496Z</time></trkpt><trkpt lat="42.0191934" lon="12.1201419"><ele>138.16666666666666</ele><time>2026-04-25T15:08:30.504Z</time></trkpt><trkpt lat="42.0192669" lon="12.1201141"><ele>138.33333333333334</ele><time>2026-04-25T15:08:32.569Z</time></trkpt><trkpt lat="42.0193361" lon="12.1201053"><ele>138.5</ele><time>2026-04-25T15:08:34.497Z</time></trkpt><trkpt lat="42.019418" lon="12.1200954"><ele>138.66666666666669</ele><time>2026-04-25T15:08:38.499Z</time></trkpt><trkpt lat="42.0194889" lon="12.120064"><ele>138.83333333333334</ele><time>2026-04-25T15:08:42.52Z</time></trkpt><trkpt lat="42.019528" lon="12.1199898"><ele>139.0</ele><time>2026-04-25T15:08:46.494Z</time></trkpt><trkpt lat="42.0195927" lon="12.1198987"><ele>139.0</ele><time>2026-04-25T15:08:53.504Z</time></trkpt><trkpt lat="42.0196576" lon="12.1198402"><ele>139.0</ele><time>2026-04-25T15:08:57.561Z</time></trkpt><trkpt lat="42.0197038" lon="12.1197765"><ele>139.0</ele><time>2026-04-25T15:09:01.518Z</time></trkpt><trkpt lat="42.0197379" lon="12.1196999"><ele>139.0</ele><time>2026-04-25T15:09:09.502Z</time></trkpt><trkpt lat="42.0196661" lon="12.119653"><ele>139.0</ele><time>2026-04-25T15:09:31.509Z</time></trkpt><trkpt lat="42.0195983" lon="12.1196483"><ele>139.0</ele><time>2026-04-25T15:09:33.505Z</time></trkpt><trkpt lat="42.0195335" lon="12.1196334"><ele>139.0</ele><time>2026-04-25T15:09:35.502Z</time></trkpt><trkpt lat="42.019447" lon="12.1196357"><ele>139.0</ele><time>2026-04-25T15:09:38.509Z</time></trkpt><trkpt lat="42.019362" lon="12.1196628"><ele>139.0</ele><time>2026-04-25T15:09:41.513Z</time></trkpt><trkpt lat="42.0193029" lon="12.1196948"><ele>139.0</ele><time>2026-04-25T15:09:43.589Z</time></trkpt><trkpt lat="42.01923" lon="12.1197533"><ele>139.0</ele><time>2026-04-25T15:09:46.613Z</time></trkpt><trkpt lat="42.0191537" lon="12.1197683"><ele>139.0</ele><time>2026-04-25T15:09:49.506Z</time></trkpt><trkpt lat="42.0190742" lon="12.1197859"><ele>139.0</ele><time>2026-04-25T15:09:54.519Z</time></trkpt><trkpt lat="42.0190859" lon="12.1198705"><ele>139.0</ele><time>2026-04-25T15:09:58.517Z</time></trkpt><trkpt lat="42.0191572" lon="12.1199042"><ele>139.0</ele><time>2026-04-25T15:10:03.495Z</time></trkpt><trkpt lat="42.0192388" lon="12.1198817"><ele>139.0</ele><time>2026-04-25T15:10:07.537Z</time></trkpt><trkpt lat="42.0193048" lon="12.1198647"><ele>139.0</ele><time>2026-04-25T15:10:10.514Z</time></trkpt><trkpt lat="42.0193827" lon="12.1198384"><ele>139.0</ele><time>2026-04-25T15:10:14.501Z</time></trkpt><trkpt lat="42.0194593" lon="12.1198041"><ele>139.0</ele><time>2026-04-25T15:10:18.511Z</time></trkpt><trkpt lat="42.0196433" lon="12.1198029"><ele>139.0</ele><time>2026-04-25T15:10:27.519Z</time></trkpt><trkpt lat="42.0196882" lon="12.1197379"><ele>139.0</ele><time>2026-04-25T15:10:30.57Z</time></trkpt><trkpt lat="42.0197309" lon="12.119652"><ele>139.0</ele><time>2026-04-25T15:10:35.49Z</time></trkpt><trkpt lat="42.0197396" lon="12.1195565"><ele>139.0</ele><time>2026-04-25T15:10:37.498Z</time></trkpt><trkpt lat="42.0197301" lon="12.1194528"><ele>139.0</ele><time>2026-04-25T15:10:40.513Z</time></trkpt><trkpt lat="42.0197175" lon="12.119348"><ele>139.0</ele><time>2026-04-25T15:10:43.503Z</time></trkpt><trkpt lat="42.0197265" lon="12.119264"><ele>139.0</ele><time>2026-04-25T15:10:46.508Z</time></trkpt><trkpt lat="42.0197501" lon="12.1191659"><ele>139.0</ele><time>2026-04-25T15:10:50.498Z</time></trkpt><trkpt lat="42.0197781" lon="12.1190739"><ele>139.0</ele><time>2026-04-25T15:10:54.505Z</time></trkpt><trkpt lat="42.0198083" lon="12.1189756"><ele>139.0</ele><time>2026-04-25T15:10:58.513Z</time></trkpt><trkpt lat="42.0198359" lon="12.1188879"><ele>139.0</ele><time>2026-04-25T15:11:01.512Z</time></trkpt><trkpt lat="42.019868" lon="12.1187838"><ele>139.0</ele><time>2026-04-25T15:11:05.516Z</time></trkpt><trkpt lat="42.0198978" lon="12.1186933"><ele>139.0</ele><time>2026-04-25T15:11:10.502Z</time></trkpt><trkpt lat="42.0199237" lon="12.1186031"><ele>139.57142857142856</ele><time>2026-04-25T15:11:16.516Z</time></trkpt><trkpt lat="42.0199455" lon="12.1185024"><ele>140.14285714285714</ele><time>2026-04-25T15:11:21.519Z</time></trkpt><trkpt lat="42.0199559" lon="12.1184121"><ele>140.71428571428572</ele><time>2026-04-25T15:11:25.525Z</time></trkpt><trkpt lat="42.0199718" lon="12.1183161"><ele>141.28571428571428</ele><time>2026-04-25T15:11:29.522Z</time></trkpt><trkpt lat="42.0199619" lon="12.1182221"><ele>141.85714285714286</ele><time>2026-04-25T15:11:36.498Z</time></trkpt><trkpt lat="42.019937" lon="12.1181413"><ele>142.42857142857142</ele><time>2026-04-25T15:11:42.496Z</time></trkpt><trkpt lat="42.0199" lon="12.1180591"><ele>143.0</ele><time>2026-04-25T15:11:48.507Z</time></trkpt><trkpt lat="42.0198579" lon="12.1179807"><ele>143.7142857142857</ele><time>2026-04-25T15:11:54.561Z</time></trkpt><trkpt lat="42.0198302" lon="12.1179021"><ele>144.42857142857142</ele><time>2026-04-25T15:11:59.5Z</time></trkpt><trkpt lat="42.0197973" lon="12.1178119"><ele>145.14285714285714</ele><time>2026-04-25T15:12:05.559Z</time></trkpt><trkpt lat="42.0197742" lon="12.1177291"><ele>145.85714285714283</ele><time>2026-04-25T15:12:10.496Z</time></trkpt><trkpt lat="42.019749" lon="12.1176331"><ele>146.57142857142856</ele><time>2026-04-25T15:12:15.522Z</time></trkpt><trkpt lat="42.0197174" lon="12.1175358"><ele>147.28571428571428</ele><time>2026-04-25T15:12:20.513Z</time></trkpt><trkpt lat="42.0196823" lon="12.1174269"><ele>148.0</ele><time>2026-04-25T15:12:25.57Z</time></trkpt><trkpt lat="42.0196459" lon="12.1173426"><ele>148.33333333333334</ele><time>2026-04-25T15:12:29.516Z</time></trkpt><trkpt lat="42.0196407" lon="12.1172541"><ele>148.66666666666669</ele><time>2026-04-25T15:12:32.5Z</time></trkpt><trkpt lat="42.0196375" lon="12.1171436"><ele>149.0</ele><time>2026-04-25T15:12:36.517Z</time></trkpt><trkpt lat="42.0196413" lon="12.1170385"><ele>149.33333333333334</ele><time>2026-04-25T15:12:40.5Z</time></trkpt><trkpt lat="42.0196401" lon="12.1169406"><ele>149.66666666666666</ele><time>2026-04-25T15:12:44.513Z</time></trkpt><trkpt lat="42.0196432" lon="12.1168307"><ele>150.0</ele><time>2026-04-25T15:12:48.578Z</time></trkpt><trkpt lat="42.0196711" lon="12.1167414"><ele>149.99999999999997</ele><time>2026-04-25T15:12:52.516Z</time></trkpt><trkpt lat="42.0197099" lon="12.11665"><ele>150.0</ele><time>2026-04-25T15:12:57.52Z</time></trkpt><trkpt lat="42.0197378" lon="12.1165599"><ele>150.0</ele><time>2026-04-25T15:13:01.515Z</time></trkpt><trkpt lat="42.019773" lon="12.1164866"><ele>150.0</ele><time>2026-04-25T15:13:05.496Z</time></trkpt><trkpt lat="42.0198021" lon="12.1164106"><ele>150.0</ele><time>2026-04-25T15:13:09.511Z</time></trkpt><trkpt lat="42.0198392" lon="12.1163336"><ele>149.99999999999997</ele><time>2026-04-25T15:13:13.498Z</time></trkpt><trkpt lat="42.0198646" lon="12.1162499"><ele>150.0</ele><time>2026-04-25T15:13:17.56Z</time></trkpt><trkpt lat="42.0198907" lon="12.1161566"><ele>149.99999999999997</ele><time>2026-04-25T15:13:22.505Z</time></trkpt><trkpt lat="42.0199004" lon="12.1160677"><ele>150.0</ele><time>2026-04-25T15:13:25.497Z</time></trkpt><trkpt lat="42.0198852" lon="12.1159567"><ele>150.0</ele><time>2026-04-25T15:13:28.512Z</time></trkpt><trkpt lat="42.0198626" lon="12.1158686"><ele>150.0</ele><time>2026-04-25T15:13:30.509Z</time></trkpt><trkpt lat="42.019837" lon="12.11578"><ele>150.0</ele><time>2026-04-25T15:13:32.5Z</time></trkpt><trkpt lat="42.0198203" lon="12.1156832"><ele>149.99999999999997</ele><time>2026-04-25T15:13:34.498Z</time></trkpt><trkpt lat="42.0198045" lon="12.1155719"><ele>150.0</ele><time>2026-04-25T15:13:36.508Z</time></trkpt><trkpt lat="42.0197836" lon="12.115452"><ele>149.0</ele><time>2026-04-25T15:13:38.522Z</time></trkpt><trkpt lat="42.0197439" lon="12.1153437"><ele>148.0</ele><time>2026-04-25T15:13:40.508Z</time></trkpt><trkpt lat="42.0197011" lon="12.1152355"><ele>147.0</ele><time>2026-04-25T15:13:42.515Z</time></trkpt><trkpt lat="42.0196498" lon="12.1151273"><ele>146.0</ele><time>2026-04-25T15:13:44.502Z</time></trkpt><trkpt lat="42.0195799" lon="12.1150121"><ele>145.0</ele><time>2026-04-25T15:13:46.513Z</time></trkpt><trkpt lat="42.0194952" lon="12.1149087"><ele>144.6</ele><time>2026-04-25T15:13:48.525Z</time></trkpt><trkpt lat="42.0194242" lon="12.114802"><ele>144.2</ele><time>2026-04-25T15:13:50.565Z</time></trkpt><trkpt lat="42.0193501" lon="12.1146867"><ele>143.8</ele><time>2026-04-25T15:13:52.512Z</time></trkpt><trkpt lat="42.0193091" lon="12.1146167"><ele>143.4</ele><time>2026-04-25T15:13:53.513Z</time></trkpt><trkpt lat="42.0192383" lon="12.1144734"><ele>143.0</ele><time>2026-04-25T15:13:55.513Z</time></trkpt><trkpt lat="42.0192045" lon="12.1143975"><ele>142.99999999999997</ele><time>2026-04-25T15:13:56.539Z</time></trkpt><trkpt lat="42.0191656" lon="12.1143264"><ele>143.0</ele><time>2026-04-25T15:13:57.518Z</time></trkpt><trkpt lat="42.0191269" lon="12.1142474"><ele>143.0</ele><time>2026-04-25T15:13:58.517Z</time></trkpt><trkpt lat="42.0190855" lon="12.1141655"><ele>143.0</ele><time>2026-04-25T15:13:59.53Z</time></trkpt><trkpt lat="42.0190461" lon="12.1140822"><ele>143.0</ele><time>2026-04-25T15:14:00.515Z</time></trkpt><trkpt lat="42.0190061" lon="12.114005"><ele>142.99999999999997</ele><time>2026-04-25T15:14:01.507Z</time></trkpt><trkpt lat="42.018961" lon="12.1139294"><ele>143.0</ele><time>2026-04-25T15:14:02.512Z</time></trkpt><trkpt lat="42.018913" lon="12.113862"><ele>142.66666666666666</ele><time>2026-04-25T15:14:03.506Z</time></trkpt><trkpt lat="42.0188549" lon="12.1138024"><ele>142.33333333333331</ele><time>2026-04-25T15:14:04.518Z</time></trkpt><trkpt lat="42.0188014" lon="12.1137562"><ele>142.0</ele><time>2026-04-25T15:14:05.52Z</time></trkpt><trkpt lat="42.018695" lon="12.1136684"><ele>141.66666666666666</ele><time>2026-04-25T15:14:07.513Z</time></trkpt><trkpt lat="42.0186407" lon="12.1136151"><ele>141.33333333333334</ele><time>2026-04-25T15:14:08.516Z</time></trkpt><trkpt lat="42.0185873" lon="12.1135633"><ele>141.0</ele><time>2026-04-25T15:14:09.577Z</time></trkpt><trkpt lat="42.0184915" lon="12.1134722"><ele>141.0</ele><time>2026-04-25T15:14:11.532Z</time></trkpt><trkpt lat="42.0183853" lon="12.1133981"><ele>141.0</ele><time>2026-04-25T15:14:13.597Z</time></trkpt><trkpt lat="42.0182849" lon="12.1133551"><ele>141.0</ele><time>2026-04-25T15:14:15.527Z</time></trkpt><trkpt lat="42.0181964" lon="12.1133066"><ele>141.0</ele><time>2026-04-25T15:14:17.502Z</time></trkpt><trkpt lat="42.0181137" lon="12.1132488"><ele>141.0</ele><time>2026-04-25T15:14:19.518Z</time></trkpt><trkpt lat="42.0180468" lon="12.1131721"><ele>139.2</ele><time>2026-04-25T15:14:21.534Z</time></trkpt><trkpt lat="42.0179649" lon="12.1131031"><ele>137.39999999999998</ele><time>2026-04-25T15:14:23.569Z</time></trkpt><trkpt lat="42.0178829" lon="12.1130292"><ele>135.6</ele><time>2026-04-25T15:14:25.534Z</time></trkpt><trkpt lat="42.0177922" lon="12.1129555"><ele>133.79999999999998</ele><time>2026-04-25T15:14:27.562Z</time></trkpt><trkpt lat="42.0176973" lon="12.1128811"><ele>132.0</ele><time>2026-04-25T15:14:29.522Z</time></trkpt><trkpt lat="42.017598" lon="12.1128248"><ele>132.0</ele><time>2026-04-25T15:14:31.566Z</time></trkpt><trkpt lat="42.0175011" lon="12.1128029"><ele>132.0</ele><time>2026-04-25T15:14:33.518Z</time></trkpt><trkpt lat="42.0174058" lon="12.1127654"><ele>132.0</ele><time>2026-04-25T15:14:35.501Z</time></trkpt><trkpt lat="42.01733" lon="12.1127216"><ele>132.0</ele><time>2026-04-25T15:14:37.511Z</time></trkpt><trkpt lat="42.0172699" lon="12.1126708"><ele>132.0</ele><time>2026-04-25T15:14:39.506Z</time></trkpt><trkpt lat="42.0172144" lon="12.1126042"><ele>132.0</ele><time>2026-04-25T15:14:41.503Z</time></trkpt><trkpt lat="42.0171489" lon="12.1125411"><ele>132.0</ele><time>2026-04-25T15:14:43.493Z</time></trkpt><trkpt lat="42.0170781" lon="12.1124698"><ele>132.0</ele><time>2026-04-25T15:14:45.498Z</time></trkpt><trkpt lat="42.0169944" lon="12.1124026"><ele>132.0</ele><time>2026-04-25T15:14:47.518Z</time></trkpt><trkpt lat="42.0168964" lon="12.112333"><ele>132.0</ele><time>2026-04-25T15:14:49.528Z</time></trkpt><trkpt lat="42.0168032" lon="12.1122857"><ele>132.0</ele><time>2026-04-25T15:14:51.5Z</time></trkpt><trkpt lat="42.0166947" lon="12.1122375"><ele>131.33333333333334</ele><time>2026-04-25T15:14:53.503Z</time></trkpt><trkpt lat="42.0166067" lon="12.1122097"><ele>130.66666666666666</ele><time>2026-04-25T15:14:55.545Z</time></trkpt><trkpt lat="42.0165395" lon="12.1121987"><ele>130.0</ele><time>2026-04-25T15:14:58.507Z</time></trkpt><trkpt lat="42.0164829" lon="12.1121185"><ele>129.33333333333331</ele><time>2026-04-25T15:15:20.503Z</time></trkpt><trkpt lat="42.0164333" lon="12.1120509"><ele>128.66666666666666</ele><time>2026-04-25T15:15:22.509Z</time></trkpt><trkpt lat="42.0163565" lon="12.1120064"><ele>128.0</ele><time>2026-04-25T15:15:24.553Z</time></trkpt><trkpt lat="42.0162903" lon="12.1119678"><ele>127.99999999999999</ele><time>2026-04-25T15:15:26.504Z</time></trkpt><trkpt lat="42.0162316" lon="12.1119213"><ele>128.0</ele><time>2026-04-25T15:15:28.564Z</time></trkpt><trkpt lat="42.0161566" lon="12.1118532"><ele>128.0</ele><time>2026-04-25T15:15:31.509Z</time></trkpt><trkpt lat="42.0160787" lon="12.1118116"><ele>128.0</ele><time>2026-04-25T15:15:34.554Z</time></trkpt><trkpt lat="42.0160245" lon="12.1117662"><ele>127.99999999999999</ele><time>2026-04-25T15:15:36.51Z</time></trkpt><trkpt lat="42.0159608" lon="12.1117259"><ele>128.0</ele><time>2026-04-25T15:15:38.501Z</time></trkpt><trkpt lat="42.015889" lon="12.1116991"><ele>127.99999999999999</ele><time>2026-04-25T15:15:40.497Z</time></trkpt><trkpt lat="42.0158227" lon="12.1116757"><ele>128.0</ele><time>2026-04-25T15:15:42.507Z</time></trkpt><trkpt lat="42.015756" lon="12.1116523"><ele>128.0</ele><time>2026-04-25T15:15:44.505Z</time></trkpt><trkpt lat="42.0156864" lon="12.1116363"><ele>128.0</ele><time>2026-04-25T15:15:46.508Z</time></trkpt><trkpt lat="42.0156118" lon="12.1116059"><ele>127.99999999999999</ele><time>2026-04-25T15:15:48.508Z</time></trkpt><trkpt lat="42.01553" lon="12.1115642"><ele>128.0</ele><time>2026-04-25T15:15:50.561Z</time></trkpt><trkpt lat="42.0154448" lon="12.1115004"><ele>126.99999999999999</ele><time>2026-04-25T15:15:52.512Z</time></trkpt><trkpt lat="42.0153527" lon="12.1114264"><ele>126.0</ele><time>2026-04-25T15:15:54.51Z</time></trkpt><trkpt lat="42.0152786" lon="12.1112958"><ele>125.0</ele><time>2026-04-25T15:15:56.523Z</time></trkpt><trkpt lat="42.0152442" lon="12.1112137"><ele>124.0</ele><time>2026-04-25T15:15:57.527Z</time></trkpt><trkpt lat="42.015202" lon="12.1111501"><ele>122.99999999999999</ele><time>2026-04-25T15:15:58.57Z</time></trkpt><trkpt lat="42.0151599" lon="12.1110803"><ele>122.0</ele><time>2026-04-25T15:15:59.512Z</time></trkpt><trkpt lat="42.0151141" lon="12.1110169"><ele>122.0</ele><time>2026-04-25T15:16:00.575Z</time></trkpt><trkpt lat="42.0150206" lon="12.1109148"><ele>122.0</ele><time>2026-04-25T15:16:02.521Z</time></trkpt><trkpt lat="42.014916" lon="12.110831"><ele>122.0</ele><time>2026-04-25T15:16:04.567Z</time></trkpt><trkpt lat="42.0148024" lon="12.1107618"><ele>122.0</ele><time>2026-04-25T15:16:06.576Z</time></trkpt><trkpt lat="42.0146979" lon="12.1107034"><ele>121.0</ele><time>2026-04-25T15:16:08.495Z</time></trkpt><trkpt lat="42.0145875" lon="12.1106492"><ele>120.0</ele><time>2026-04-25T15:16:10.564Z</time></trkpt><trkpt lat="42.0144843" lon="12.1105936"><ele>119.0</ele><time>2026-04-25T15:16:12.565Z</time></trkpt><trkpt lat="42.0143975" lon="12.1105082"><ele>118.0</ele><time>2026-04-25T15:16:14.534Z</time></trkpt><trkpt lat="42.0143095" lon="12.1103977"><ele>118.0</ele><time>2026-04-25T15:16:16.572Z</time></trkpt><trkpt lat="42.0142706" lon="12.1103282"><ele>118.0</ele><time>2026-04-25T15:16:17.599Z</time></trkpt><trkpt lat="42.0142353" lon="12.1102549"><ele>118.0</ele><time>2026-04-25T15:16:18.521Z</time></trkpt><trkpt lat="42.0142041" lon="12.1101664"><ele>118.0</ele><time>2026-04-25T15:16:19.515Z</time></trkpt><trkpt lat="42.0141869" lon="12.1100715"><ele>118.0</ele><time>2026-04-25T15:16:20.521Z</time></trkpt><trkpt lat="42.0141772" lon="12.1099795"><ele>118.0</ele><time>2026-04-25T15:16:21.514Z</time></trkpt><trkpt lat="42.0141615" lon="12.1098841"><ele>118.0</ele><time>2026-04-25T15:16:22.528Z</time></trkpt><trkpt lat="42.014139" lon="12.1097891"><ele>117.57142857142857</ele><time>2026-04-25T15:16:23.51Z</time></trkpt><trkpt lat="42.0141176" lon="12.1097006"><ele>117.14285714285714</ele><time>2026-04-25T15:16:24.519Z</time></trkpt><trkpt lat="42.0140957" lon="12.109616"><ele>116.71428571428571</ele><time>2026-04-25T15:16:25.504Z</time></trkpt><trkpt lat="42.0140609" lon="12.10953"><ele>116.28571428571428</ele><time>2026-04-25T15:16:26.51Z</time></trkpt><trkpt lat="42.0140206" lon="12.1094485"><ele>115.85714285714286</ele><time>2026-04-25T15:16:27.517Z</time></trkpt><trkpt lat="42.0139677" lon="12.1093806"><ele>115.42857142857142</ele><time>2026-04-25T15:16:28.514Z</time></trkpt><trkpt lat="42.0139143" lon="12.1093135"><ele>114.99999999999999</ele><time>2026-04-25T15:16:29.518Z</time></trkpt><trkpt lat="42.0138645" lon="12.1092537"><ele>115.0</ele><time>2026-04-25T15:16:30.511Z</time></trkpt><trkpt lat="42.0137713" lon="12.1091509"><ele>115.0</ele><time>2026-04-25T15:16:32.512Z</time></trkpt><trkpt lat="42.0136853" lon="12.1090344"><ele>115.0</ele><time>2026-04-25T15:16:34.516Z</time></trkpt><trkpt lat="42.0136108" lon="12.1088996"><ele>115.0</ele><time>2026-04-25T15:16:36.514Z</time></trkpt><trkpt lat="42.0135769" lon="12.1088266"><ele>115.0</ele><time>2026-04-25T15:16:37.503Z</time></trkpt><trkpt lat="42.0135541" lon="12.1087449"><ele>114.4</ele><time>2026-04-25T15:16:38.514Z</time></trkpt><trkpt lat="42.0135149" lon="12.1086046"><ele>113.8</ele><time>2026-04-25T15:16:40.505Z</time></trkpt><trkpt lat="42.0134676" lon="12.1084985"><ele>113.19999999999999</ele><time>2026-04-25T15:16:42.561Z</time></trkpt><trkpt lat="42.0134132" lon="12.1084053"><ele>112.6</ele><time>2026-04-25T15:16:44.507Z</time></trkpt><trkpt lat="42.0133408" lon="12.1083355"><ele>112.0</ele><time>2026-04-25T15:16:46.508Z</time></trkpt><trkpt lat="42.0132701" lon="12.10836"><ele>112.00000000000001</ele><time>2026-04-25T15:16:49.506Z</time></trkpt><trkpt lat="42.0132045" lon="12.108395"><ele>112.0</ele><time>2026-04-25T15:16:52.514Z</time></trkpt><trkpt lat="42.0131208" lon="12.1083936"><ele>112.0</ele><time>2026-04-25T15:16:55.504Z</time></trkpt><trkpt lat="42.0130439" lon="12.108402"><ele>112.0</ele><time>2026-04-25T15:16:58.504Z</time></trkpt><trkpt lat="42.0129615" lon="12.1084176"><ele>112.00000000000001</ele><time>2026-04-25T15:17:01.509Z</time></trkpt><trkpt lat="42.0128806" lon="12.1084293"><ele>112.0</ele><time>2026-04-25T15:17:04.495Z</time></trkpt><trkpt lat="42.0127997" lon="12.1084521"><ele>112.00000000000001</ele><time>2026-04-25T15:17:07.52Z</time></trkpt><trkpt lat="42.0127162" lon="12.1084666"><ele>112.0</ele><time>2026-04-25T15:17:10.519Z</time></trkpt><trkpt lat="42.0126365" lon="12.1084942"><ele>112.0</ele><time>2026-04-25T15:17:13.497Z</time></trkpt><trkpt lat="42.0125531" lon="12.108517"><ele>112.0</ele><time>2026-04-25T15:17:16.5Z</time></trkpt><trkpt lat="42.0124631" lon="12.1085497"><ele>112.00000000000001</ele><time>2026-04-25T15:17:19.512Z</time></trkpt><trkpt lat="42.0123737" lon="12.1085864"><ele>112.0</ele><time>2026-04-25T15:17:22.517Z</time></trkpt><trkpt lat="42.0122878" lon="12.1086185"><ele>112.28571428571428</ele><time>2026-04-25T15:17:25.498Z</time></trkpt><trkpt lat="42.012218" lon="12.1086544"><ele>112.57142857142857</ele><time>2026-04-25T15:17:28.524Z</time></trkpt><trkpt lat="42.0121412" lon="12.1086975"><ele>112.85714285714286</ele><time>2026-04-25T15:17:32.516Z</time></trkpt><trkpt lat="42.0120744" lon="12.1086888"><ele>113.14285714285714</ele><time>2026-04-25T15:17:35.509Z</time></trkpt><trkpt lat="42.0120305" lon="12.1086101"><ele>113.42857142857142</ele><time>2026-04-25T15:17:39.506Z</time></trkpt><trkpt lat="42.0120366" lon="12.1085255"><ele>113.71428571428571</ele><time>2026-04-25T15:17:42.517Z</time></trkpt><trkpt lat="42.0120414" lon="12.1084181"><ele>114.0</ele><time>2026-04-25T15:17:46.495Z</time></trkpt><trkpt lat="42.0120393" lon="12.1083067"><ele>113.5</ele><time>2026-04-25T15:17:50.554Z</time></trkpt><trkpt lat="42.0119632" lon="12.1079239"><ele>113.0</ele><time>2026-04-25T15:17:51.502Z</time></trkpt><trkpt lat="42.0119365" lon="12.1078276"><ele>112.5</ele><time>2026-04-25T15:17:53.608Z</time></trkpt><trkpt lat="42.0119059" lon="12.1077411"><ele>112.0</ele><time>2026-04-25T15:17:55.501Z</time></trkpt><trkpt lat="42.0118651" lon="12.1076544"><ele>112.00000000000001</ele><time>2026-04-25T15:17:57.561Z</time></trkpt><trkpt lat="42.0118162" lon="12.1075626"><ele>112.0</ele><time>2026-04-25T15:17:59.501Z</time></trkpt><trkpt lat="42.011753" lon="12.1074985"><ele>112.0</ele><time>2026-04-25T15:18:01.559Z</time></trkpt><trkpt lat="42.0116996" lon="12.1074294"><ele>112.0</ele><time>2026-04-25T15:18:03.504Z</time></trkpt><trkpt lat="42.0116494" lon="12.1073406"><ele>112.00000000000001</ele><time>2026-04-25T15:18:05.521Z</time></trkpt><trkpt lat="42.0115935" lon="12.1072489"><ele>112.0</ele><time>2026-04-25T15:18:07.494Z</time></trkpt><trkpt lat="42.0115347" lon="12.1071634"><ele>111.66666666666667</ele><time>2026-04-25T15:18:09.533Z</time></trkpt><trkpt lat="42.0114769" lon="12.1070743"><ele>111.33333333333334</ele><time>2026-04-25T15:18:11.502Z</time></trkpt><trkpt lat="42.0114145" lon="12.1069952"><ele>111.0</ele><time>2026-04-25T15:18:13.532Z</time></trkpt><trkpt lat="42.0113465" lon="12.1069352"><ele>110.66666666666666</ele><time>2026-04-25T15:18:15.507Z</time></trkpt><trkpt lat="42.0112692" lon="12.1068882"><ele>110.33333333333333</ele><time>2026-04-25T15:18:17.568Z</time></trkpt><trkpt lat="42.0111905" lon="12.106847"><ele>110.0</ele><time>2026-04-25T15:18:19.506Z</time></trkpt><trkpt lat="42.0111064" lon="12.1068123"><ele>109.99999999999999</ele><time>2026-04-25T15:18:21.497Z</time></trkpt><trkpt lat="42.0110208" lon="12.1067935"><ele>110.0</ele><time>2026-04-25T15:18:23.504Z</time></trkpt><trkpt lat="42.0109391" lon="12.1067677"><ele>110.0</ele><time>2026-04-25T15:18:25.57Z</time></trkpt><trkpt lat="42.0108645" lon="12.1067261"><ele>110.0</ele><time>2026-04-25T15:18:27.51Z</time></trkpt><trkpt lat="42.0107953" lon="12.1066827"><ele>109.99999999999999</ele><time>2026-04-25T15:18:29.495Z</time></trkpt><trkpt lat="42.0107232" lon="12.1066298"><ele>110.0</ele><time>2026-04-25T15:18:31.502Z</time></trkpt><trkpt lat="42.0106526" lon="12.1065811"><ele>109.99999999999999</ele><time>2026-04-25T15:18:33.501Z</time></trkpt><trkpt lat="42.0105901" lon="12.1065358"><ele>110.0</ele><time>2026-04-25T15:18:35.522Z</time></trkpt><trkpt lat="42.0105246" lon="12.1064906"><ele>110.0</ele><time>2026-04-25T15:19:10.554Z</time></trkpt><trkpt lat="42.0104598" lon="12.1064813"><ele>110.0</ele><time>2026-04-25T15:19:13.5Z</time></trkpt><trkpt lat="42.010378" lon="12.1065364"><ele>109.99999999999999</ele><time>2026-04-25T15:19:16.5Z</time></trkpt><trkpt lat="42.0103023" lon="12.1066058"><ele>110.0</ele><time>2026-04-25T15:19:19.562Z</time></trkpt><trkpt lat="42.0102507" lon="12.1066582"><ele>109.99999999999999</ele><time>2026-04-25T15:19:21.517Z</time></trkpt><trkpt lat="42.0101977" lon="12.1067116"><ele>110.0</ele><time>2026-04-25T15:19:23.502Z</time></trkpt><trkpt lat="42.0101427" lon="12.106769"><ele>110.0</ele><time>2026-04-25T15:19:25.504Z</time></trkpt><trkpt lat="42.0100845" lon="12.1068285"><ele>110.0</ele><time>2026-04-25T15:19:27.498Z</time></trkpt><trkpt lat="42.0100208" lon="12.1068828"><ele>110.0</ele><time>2026-04-25T15:19:29.545Z</time></trkpt><trkpt lat="42.0099579" lon="12.1069431"><ele>109.99999999999999</ele><time>2026-04-25T15:19:31.509Z</time></trkpt><trkpt lat="42.0098897" lon="12.1069984"><ele>110.0</ele><time>2026-04-25T15:19:33.499Z</time></trkpt><trkpt lat="42.0098211" lon="12.1070488"><ele>109.6</ele><time>2026-04-25T15:19:35.505Z</time></trkpt><trkpt lat="42.0097568" lon="12.1071082"><ele>109.2</ele><time>2026-04-25T15:19:37.517Z</time></trkpt><trkpt lat="42.0096925" lon="12.1071777"><ele>108.80000000000001</ele><time>2026-04-25T15:19:39.551Z</time></trkpt><trkpt lat="42.0096198" lon="12.1072584"><ele>108.4</ele><time>2026-04-25T15:19:41.504Z</time></trkpt><trkpt lat="42.0095332" lon="12.1073207"><ele>108.0</ele><time>2026-04-25T15:19:43.521Z</time></trkpt><trkpt lat="42.0094622" lon="12.1074201"><ele>108.0</ele><time>2026-04-25T15:19:45.512Z</time></trkpt><trkpt lat="42.0093823" lon="12.107514"><ele>108.00000000000001</ele><time>2026-04-25T15:19:47.565Z</time></trkpt><trkpt lat="42.0092832" lon="12.1075804"><ele>108.00000000000001</ele><time>2026-04-25T15:19:49.562Z</time></trkpt><trkpt lat="42.0091839" lon="12.107609"><ele>108.0</ele><time>2026-04-25T15:19:51.518Z</time></trkpt><trkpt lat="42.0090839" lon="12.1076202"><ele>108.0</ele><time>2026-04-25T15:19:53.501Z</time></trkpt><trkpt lat="42.0089773" lon="12.1076212"><ele>107.4</ele><time>2026-04-25T15:19:55.518Z</time></trkpt><trkpt lat="42.0088728" lon="12.1075817"><ele>106.80000000000001</ele><time>2026-04-25T15:19:57.56Z</time></trkpt><trkpt lat="42.0087754" lon="12.1075453"><ele>106.2</ele><time>2026-04-25T15:19:59.603Z</time></trkpt><trkpt lat="42.0086842" lon="12.1075028"><ele>105.6</ele><time>2026-04-25T15:20:01.528Z</time></trkpt><trkpt lat="42.0085978" lon="12.1074488"><ele>105.0</ele><time>2026-04-25T15:20:03.573Z</time></trkpt><trkpt lat="42.0085163" lon="12.1073889"><ele>105.0</ele><time>2026-04-25T15:20:05.568Z</time></trkpt><trkpt lat="42.0084335" lon="12.1073302"><ele>105.0</ele><time>2026-04-25T15:20:07.519Z</time></trkpt><trkpt lat="42.008347" lon="12.1072854"><ele>105.0</ele><time>2026-04-25T15:20:09.495Z</time></trkpt><trkpt lat="42.0082592" lon="12.1072231"><ele>105.0</ele><time>2026-04-25T15:20:11.52Z</time></trkpt><trkpt lat="42.0081734" lon="12.1071595"><ele>105.0</ele><time>2026-04-25T15:20:13.556Z</time></trkpt><trkpt lat="42.0080866" lon="12.1071184"><ele>104.83333333333333</ele><time>2026-04-25T15:20:15.555Z</time></trkpt><trkpt lat="42.0079951" lon="12.1070657"><ele>104.66666666666666</ele><time>2026-04-25T15:20:17.573Z</time></trkpt><trkpt lat="42.0079106" lon="12.107028"><ele>104.5</ele><time>2026-04-25T15:20:19.559Z</time></trkpt><trkpt lat="42.0078287" lon="12.1069876"><ele>104.33333333333333</ele><time>2026-04-25T15:20:21.495Z</time></trkpt><trkpt lat="42.007759" lon="12.1069333"><ele>104.16666666666666</ele><time>2026-04-25T15:20:23.527Z</time></trkpt><trkpt lat="42.0076741" lon="12.1069087"><ele>104.0</ele><time>2026-04-25T15:20:25.507Z</time></trkpt><trkpt lat="42.0075954" lon="12.1068904"><ele>103.99999999999999</ele><time>2026-04-25T15:20:27.494Z</time></trkpt><trkpt lat="42.0075089" lon="12.1068596"><ele>104.0</ele><time>2026-04-25T15:20:29.492Z</time></trkpt><trkpt lat="42.0074359" lon="12.1068134"><ele>104.0</ele><time>2026-04-25T15:20:31.581Z</time></trkpt><trkpt lat="42.007375" lon="12.1067538"><ele>104.0</ele><time>2026-04-25T15:20:34.497Z</time></trkpt><trkpt lat="42.0073182" lon="12.1066786"><ele>103.99999999999999</ele><time>2026-04-25T15:20:38.535Z</time></trkpt><trkpt lat="42.0072992" lon="12.1065969"><ele>104.0</ele><time>2026-04-25T15:20:42.497Z</time></trkpt><trkpt lat="42.0072797" lon="12.1065075"><ele>103.28571428571428</ele><time>2026-04-25T15:20:48.505Z</time></trkpt><trkpt lat="42.0072412" lon="12.1064359"><ele>102.57142857142858</ele><time>2026-04-25T15:20:56.497Z</time></trkpt><trkpt lat="42.0072249" lon="12.106354"><ele>101.85714285714286</ele><time>2026-04-25T15:21:02.514Z</time></trkpt><trkpt lat="42.0072093" lon="12.1062718"><ele>101.14285714285714</ele><time>2026-04-25T15:21:08.5Z</time></trkpt><trkpt lat="42.0071911" lon="12.1061835"><ele>100.42857142857142</ele><time>2026-04-25T15:21:13.523Z</time></trkpt><trkpt lat="42.0071789" lon="12.1060758"><ele>99.71428571428572</ele><time>2026-04-25T15:21:18.5Z</time></trkpt><trkpt lat="42.0071544" lon="12.1059806"><ele>99.0</ele><time>2026-04-25T15:21:22.504Z</time></trkpt><trkpt lat="42.0071435" lon="12.105889"><ele>99.0</ele><time>2026-04-25T15:21:25.499Z</time></trkpt><trkpt lat="42.0071289" lon="12.1057896"><ele>99.0</ele><time>2026-04-25T15:21:28.498Z</time></trkpt><trkpt lat="42.0071207" lon="12.1056819"><ele>99.0</ele><time>2026-04-25T15:21:31.52Z</time></trkpt><trkpt lat="42.0071254" lon="12.1055954"><ele>99.0</ele><time>2026-04-25T15:21:33.517Z</time></trkpt><trkpt lat="42.0071198" lon="12.1054743"><ele>99.0</ele><time>2026-04-25T15:21:36.51Z</time></trkpt><trkpt lat="42.007118" lon="12.1053886"><ele>99.0</ele><time>2026-04-25T15:21:38.497Z</time></trkpt><trkpt lat="42.0071147" lon="12.1052646"><ele>100.16666666666667</ele><time>2026-04-25T15:21:41.513Z</time></trkpt><trkpt lat="42.0071189" lon="12.1051399"><ele>101.33333333333334</ele><time>2026-04-25T15:21:44.572Z</time></trkpt><trkpt lat="42.0071209" lon="12.1050501"><ele>102.5</ele><time>2026-04-25T15:21:46.507Z</time></trkpt><trkpt lat="42.0071113" lon="12.1049598"><ele>103.66666666666667</ele><time>2026-04-25T15:21:48.518Z</time></trkpt><trkpt lat="42.0071021" lon="12.104875"><ele>104.83333333333334</ele><time>2026-04-25T15:21:50.527Z</time></trkpt><trkpt lat="42.0070783" lon="12.1047884"><ele>106.0</ele><time>2026-04-25T15:21:52.57Z</time></trkpt><trkpt lat="42.0070192" lon="12.1046838"><ele>106.28571428571429</ele><time>2026-04-25T15:21:55.504Z</time></trkpt><trkpt lat="42.0069784" lon="12.1046116"><ele>106.57142857142857</ele><time>2026-04-25T15:21:57.497Z</time></trkpt><trkpt lat="42.0069385" lon="12.1045309"><ele>106.85714285714286</ele><time>2026-04-25T15:21:59.509Z</time></trkpt><trkpt lat="42.0069102" lon="12.1044507"><ele>107.14285714285714</ele><time>2026-04-25T15:22:01.496Z</time></trkpt><trkpt lat="42.0068729" lon="12.1043634"><ele>107.42857142857142</ele><time>2026-04-25T15:22:03.547Z</time></trkpt><trkpt lat="42.0068314" lon="12.1042909"><ele>107.71428571428571</ele><time>2026-04-25T15:22:05.506Z</time></trkpt><trkpt lat="42.0067898" lon="12.1042217"><ele>108.0</ele><time>2026-04-25T15:22:07.506Z</time></trkpt><trkpt lat="42.0067385" lon="12.1041341"><ele>107.5</ele><time>2026-04-25T15:22:09.513Z</time></trkpt><trkpt lat="42.0066866" lon="12.1040472"><ele>107.0</ele><time>2026-04-25T15:22:11.501Z</time></trkpt><trkpt lat="42.006646" lon="12.1039676"><ele>106.5</ele><time>2026-04-25T15:22:13.499Z</time></trkpt><trkpt lat="42.006595" lon="12.1038616"><ele>106.0</ele><time>2026-04-25T15:22:16.497Z</time></trkpt><trkpt lat="42.0065508" lon="12.1037826"><ele>105.5</ele><time>2026-04-25T15:22:18.531Z</time></trkpt><trkpt lat="42.0065127" lon="12.1037026"><ele>105.0</ele><time>2026-04-25T15:22:20.511Z</time></trkpt><trkpt lat="42.0064802" lon="12.1036166"><ele>104.66666666666667</ele><time>2026-04-25T15:22:22.506Z</time></trkpt><trkpt lat="42.0064525" lon="12.1035207"><ele>104.33333333333334</ele><time>2026-04-25T15:22:24.506Z</time></trkpt><trkpt lat="42.0064263" lon="12.1034252"><ele>104.0</ele><time>2026-04-25T15:22:26.558Z</time></trkpt><trkpt lat="42.0063982" lon="12.1033213"><ele>103.66666666666667</ele><time>2026-04-25T15:22:28.526Z</time></trkpt><trkpt lat="42.006369" lon="12.1032177"><ele>103.33333333333334</ele><time>2026-04-25T15:22:30.504Z</time></trkpt><trkpt lat="42.0063355" lon="12.1031173"><ele>103.0</ele><time>2026-04-25T15:22:32.505Z</time></trkpt><trkpt lat="42.0063089" lon="12.1030169"><ele>102.83333333333334</ele><time>2026-04-25T15:22:34.506Z</time></trkpt><trkpt lat="42.0062756" lon="12.1029215"><ele>102.66666666666667</ele><time>2026-04-25T15:22:36.512Z</time></trkpt><trkpt lat="42.0062438" lon="12.1028342"><ele>102.5</ele><time>2026-04-25T15:22:38.554Z</time></trkpt><trkpt lat="42.0061915" lon="12.1027488"><ele>102.33333333333334</ele><time>2026-04-25T15:22:41.508Z</time></trkpt><trkpt lat="42.0061256" lon="12.102666"><ele>102.16666666666667</ele><time>2026-04-25T15:22:44.513Z</time></trkpt><trkpt lat="42.0060881" lon="12.1025626"><ele>102.0</ele><time>2026-04-25T15:22:46.497Z</time></trkpt><trkpt lat="42.006047" lon="12.1024386"><ele>101.6</ele><time>2026-04-25T15:22:48.506Z</time></trkpt><trkpt lat="42.0060016" lon="12.1023177"><ele>101.19999999999999</ele><time>2026-04-25T15:22:50.512Z</time></trkpt><trkpt lat="42.0059533" lon="12.1022142"><ele>100.8</ele><time>2026-04-25T15:22:52.517Z</time></trkpt><trkpt lat="42.0058966" lon="12.1021238"><ele>100.4</ele><time>2026-04-25T15:22:54.521Z</time></trkpt><trkpt lat="42.0058357" lon="12.1020399"><ele>100.0</ele><time>2026-04-25T15:22:56.562Z</time></trkpt><trkpt lat="42.0057465" lon="12.1019898"><ele>99.33333333333334</ele><time>2026-04-25T15:22:58.507Z</time></trkpt><trkpt lat="42.005658" lon="12.1019511"><ele>98.66666666666667</ele><time>2026-04-25T15:23:00.586Z</time></trkpt><trkpt lat="42.0055709" lon="12.1019505"><ele>98.0</ele><time>2026-04-25T15:23:02.494Z</time></trkpt><trkpt lat="42.0054936" lon="12.1019582"><ele>97.33333333333334</ele><time>2026-04-25T15:23:04.497Z</time></trkpt><trkpt lat="42.0054125" lon="12.1019706"><ele>96.66666666666667</ele><time>2026-04-25T15:23:06.564Z</time></trkpt><trkpt lat="42.0053205" lon="12.1020135"><ele>96.0</ele><time>2026-04-25T15:23:08.505Z</time></trkpt><trkpt lat="42.005223" lon="12.1020632"><ele>96.0</ele><time>2026-04-25T15:23:10.508Z</time></trkpt><trkpt lat="42.0051302" lon="12.1021228"><ele>96.0</ele><time>2026-04-25T15:23:12.566Z</time></trkpt><trkpt lat="42.0050436" lon="12.1021899"><ele>96.0</ele><time>2026-04-25T15:23:14.499Z</time></trkpt><trkpt lat="42.0049713" lon="12.1022677"><ele>96.0</ele><time>2026-04-25T15:23:16.519Z</time></trkpt><trkpt lat="42.0049037" lon="12.1023446"><ele>96.0</ele><time>2026-04-25T15:23:18.527Z</time></trkpt><trkpt lat="42.0048359" lon="12.1023989"><ele>95.83333333333333</ele><time>2026-04-25T15:23:20.507Z</time></trkpt><trkpt lat="42.0047636" lon="12.1024253"><ele>95.66666666666667</ele><time>2026-04-25T15:23:22.512Z</time></trkpt><trkpt lat="42.0046918" lon="12.1024096"><ele>95.5</ele><time>2026-04-25T15:23:24.555Z</time></trkpt><trkpt lat="42.0046267" lon="12.1023461"><ele>95.33333333333334</ele><time>2026-04-25T15:23:26.505Z</time></trkpt><trkpt lat="42.0045675" lon="12.1022501"><ele>95.16666666666667</ele><time>2026-04-25T15:23:28.498Z</time></trkpt><trkpt lat="42.0045157" lon="12.1021492"><ele>95.0</ele><time>2026-04-25T15:23:30.514Z</time></trkpt><trkpt lat="42.0044532" lon="12.1020406"><ele>95.0</ele><time>2026-04-25T15:23:32.501Z</time></trkpt><trkpt lat="42.0043803" lon="12.1019393"><ele>95.0</ele><time>2026-04-25T15:23:34.492Z</time></trkpt><trkpt lat="42.0043114" lon="12.1018457"><ele>95.0</ele><time>2026-04-25T15:23:36.567Z</time></trkpt><trkpt lat="42.0042457" lon="12.1017749"><ele>95.0</ele><time>2026-04-25T15:23:38.569Z</time></trkpt><trkpt lat="42.0041659" lon="12.101787"><ele>95.0</ele><time>2026-04-25T15:23:40.5Z</time></trkpt><trkpt lat="42.0040949" lon="12.1017993"><ele>95.0</ele><time>2026-04-25T15:23:42.502Z</time></trkpt><trkpt lat="42.004019" lon="12.1017752"><ele>93.8</ele><time>2026-04-25T15:23:44.547Z</time></trkpt><trkpt lat="42.0039476" lon="12.1017186"><ele>92.6</ele><time>2026-04-25T15:23:46.494Z</time></trkpt><trkpt lat="42.003861" lon="12.1016636"><ele>91.4</ele><time>2026-04-25T15:23:48.494Z</time></trkpt><trkpt lat="42.0037673" lon="12.1016334"><ele>90.2</ele><time>2026-04-25T15:23:50.49Z</time></trkpt><trkpt lat="42.0036773" lon="12.1015946"><ele>89.0</ele><time>2026-04-25T15:23:52.491Z</time></trkpt><trkpt lat="42.0035831" lon="12.1015451"><ele>89.0</ele><time>2026-04-25T15:23:54.491Z</time></trkpt><trkpt lat="42.0034926" lon="12.1014671"><ele>89.0</ele><time>2026-04-25T15:23:56.492Z</time></trkpt><trkpt lat="42.0034106" lon="12.1013828"><ele>89.0</ele><time>2026-04-25T15:23:58.492Z</time></trkpt><trkpt lat="42.0033503" lon="12.1012801"><ele>89.0</ele><time>2026-04-25T15:24:00.508Z</time></trkpt><trkpt lat="42.0033099" lon="12.1011634"><ele>89.0</ele><time>2026-04-25T15:24:02.522Z</time></trkpt><trkpt lat="42.0032715" lon="12.1010436"><ele>88.83333333333334</ele><time>2026-04-25T15:24:04.538Z</time></trkpt><trkpt lat="42.0032487" lon="12.100933"><ele>88.66666666666667</ele><time>2026-04-25T15:24:06.491Z</time></trkpt><trkpt lat="42.0032259" lon="12.1008259"><ele>88.5</ele><time>2026-04-25T15:24:08.494Z</time></trkpt><trkpt lat="42.0032023" lon="12.10072"><ele>88.33333333333333</ele><time>2026-04-25T15:24:10.496Z</time></trkpt><trkpt lat="42.0031884" lon="12.1006118"><ele>88.16666666666666</ele><time>2026-04-25T15:24:12.499Z</time></trkpt><trkpt lat="42.003183" lon="12.1005105"><ele>88.0</ele><time>2026-04-25T15:24:14.493Z</time></trkpt><trkpt lat="42.0031949" lon="12.1004258"><ele>88.0</ele><time>2026-04-25T15:24:16.497Z</time></trkpt><trkpt lat="42.0032151" lon="12.1003449"><ele>88.0</ele><time>2026-04-25T15:24:18.49Z</time></trkpt><trkpt lat="42.0032468" lon="12.1002312"><ele>88.0</ele><time>2026-04-25T15:24:21.503Z</time></trkpt><trkpt lat="42.0032687" lon="12.1001049"><ele>88.0</ele><time>2026-04-25T15:24:24.511Z</time></trkpt><trkpt lat="42.0032658" lon="12.1000197"><ele>88.0</ele><time>2026-04-25T15:24:26.517Z</time></trkpt><trkpt lat="42.0032445" lon="12.0999353"><ele>88.0</ele><time>2026-04-25T15:24:28.512Z</time></trkpt><trkpt lat="42.0032077" lon="12.0998535"><ele>88.16666666666666</ele><time>2026-04-25T15:24:30.503Z</time></trkpt><trkpt lat="42.0031689" lon="12.099774"><ele>88.33333333333333</ele><time>2026-04-25T15:24:32.499Z</time></trkpt><trkpt lat="42.003121" lon="12.0996969"><ele>88.5</ele><time>2026-04-25T15:24:34.506Z</time></trkpt><trkpt lat="42.0030688" lon="12.0996124"><ele>88.66666666666667</ele><time>2026-04-25T15:24:36.517Z</time></trkpt><trkpt lat="42.003002" lon="12.0995334"><ele>88.83333333333334</ele><time>2026-04-25T15:24:38.496Z</time></trkpt><trkpt lat="42.0029403" lon="12.0994489"><ele>89.0</ele><time>2026-04-25T15:24:40.494Z</time></trkpt><trkpt lat="42.0028818" lon="12.0993652"><ele>89.0</ele><time>2026-04-25T15:24:42.516Z</time></trkpt><trkpt lat="42.002829" lon="12.0992661"><ele>89.0</ele><time>2026-04-25T15:24:44.51Z</time></trkpt><trkpt lat="42.0027861" lon="12.0991656"><ele>89.0</ele><time>2026-04-25T15:24:46.507Z</time></trkpt><trkpt lat="42.0027333" lon="12.099073"><ele>89.0</ele><time>2026-04-25T15:24:48.511Z</time></trkpt><trkpt lat="42.0026803" lon="12.0989801"><ele>89.0</ele><time>2026-04-25T15:24:50.509Z</time></trkpt><trkpt lat="42.0026294" lon="12.0988916"><ele>89.0</ele><time>2026-04-25T15:24:52.511Z</time></trkpt><trkpt lat="42.0025732" lon="12.0987978"><ele>88.2</ele><time>2026-04-25T15:24:54.504Z</time></trkpt><trkpt lat="42.0025123" lon="12.098705"><ele>87.4</ele><time>2026-04-25T15:24:56.512Z</time></trkpt><trkpt lat="42.0024554" lon="12.0986134"><ele>86.6</ele><time>2026-04-25T15:24:58.491Z</time></trkpt><trkpt lat="42.0024044" lon="12.0985117"><ele>85.8</ele><time>2026-04-25T15:25:00.494Z</time></trkpt><trkpt lat="42.0023439" lon="12.0984139"><ele>85.0</ele><time>2026-04-25T15:25:02.503Z</time></trkpt><trkpt lat="42.0022829" lon="12.0983278"><ele>84.0</ele><time>2026-04-25T15:25:04.513Z</time></trkpt><trkpt lat="42.0022278" lon="12.0982494"><ele>83.0</ele><time>2026-04-25T15:25:06.508Z</time></trkpt><trkpt lat="42.0021562" lon="12.098182"><ele>82.0</ele><time>2026-04-25T15:25:08.501Z</time></trkpt><trkpt lat="42.0020965" lon="12.0980884"><ele>81.0</ele><time>2026-04-25T15:25:10.501Z</time></trkpt><trkpt lat="42.0020118" lon="12.097928"><ele>80.0</ele><time>2026-04-25T15:25:13.557Z</time></trkpt><trkpt lat="42.0019569" lon="12.0978231"><ele>80.0</ele><time>2026-04-25T15:25:15.568Z</time></trkpt><trkpt lat="42.0019078" lon="12.0977243"><ele>80.0</ele><time>2026-04-25T15:25:17.585Z</time></trkpt><trkpt lat="42.0018646" lon="12.0976441"><ele>80.0</ele><time>2026-04-25T15:25:19.498Z</time></trkpt><trkpt lat="42.0018186" lon="12.0975526"><ele>80.0</ele><time>2026-04-25T15:25:21.502Z</time></trkpt><trkpt lat="42.0017722" lon="12.0974594"><ele>80.0</ele><time>2026-04-25T15:25:23.499Z</time></trkpt><trkpt lat="42.0017182" lon="12.0973624"><ele>80.0</ele><time>2026-04-25T15:25:25.566Z</time></trkpt><trkpt lat="42.0016715" lon="12.0972677"><ele>79.0</ele><time>2026-04-25T15:25:27.516Z</time></trkpt><trkpt lat="42.0016099" lon="12.0971512"><ele>78.0</ele><time>2026-04-25T15:25:29.553Z</time></trkpt><trkpt lat="42.0015455" lon="12.09704"><ele>77.0</ele><time>2026-04-25T15:25:31.517Z</time></trkpt><trkpt lat="42.0014779" lon="12.0969342"><ele>76.0</ele><time>2026-04-25T15:25:33.505Z</time></trkpt><trkpt lat="42.0014021" lon="12.0968189"><ele>75.0</ele><time>2026-04-25T15:25:35.58Z</time></trkpt><trkpt lat="42.0013297" lon="12.0967196"><ele>75.0</ele><time>2026-04-25T15:25:37.522Z</time></trkpt><trkpt lat="42.0012664" lon="12.0966199"><ele>75.0</ele><time>2026-04-25T15:25:39.518Z</time></trkpt><trkpt lat="42.0012084" lon="12.0965176"><ele>75.0</ele><time>2026-04-25T15:25:41.525Z</time></trkpt><trkpt lat="42.0011641" lon="12.0964338"><ele>75.0</ele><time>2026-04-25T15:25:43.499Z</time></trkpt><trkpt lat="42.001123" lon="12.0963685"><ele>75.0</ele><time>2026-04-25T15:25:45.514Z</time></trkpt><trkpt lat="42.0010683" lon="12.0962782"><ele>75.0</ele><time>2026-04-25T15:25:48.495Z</time></trkpt><trkpt lat="42.0010234" lon="12.0962135"><ele>74.33333333333333</ele><time>2026-04-25T15:25:53.562Z</time></trkpt><trkpt lat="42.0010173" lon="12.0961112"><ele>73.66666666666667</ele><time>2026-04-25T15:26:10.562Z</time></trkpt><trkpt lat="42.0010542" lon="12.0960325"><ele>73.0</ele><time>2026-04-25T15:26:13.51Z</time></trkpt><trkpt lat="42.0011113" lon="12.0959942"><ele>72.33333333333334</ele><time>2026-04-25T15:26:15.494Z</time></trkpt><trkpt lat="42.0011793" lon="12.0959298"><ele>71.66666666666667</ele><time>2026-04-25T15:26:17.495Z</time></trkpt><trkpt lat="42.0012403" lon="12.0958388"><ele>71.0</ele><time>2026-04-25T15:26:19.494Z</time></trkpt><trkpt lat="42.0013005" lon="12.0957339"><ele>70.83333333333334</ele><time>2026-04-25T15:26:21.517Z</time></trkpt><trkpt lat="42.0013649" lon="12.0956371"><ele>70.66666666666667</ele><time>2026-04-25T15:26:23.494Z</time></trkpt><trkpt lat="42.0014008" lon="12.0955296"><ele>70.5</ele><time>2026-04-25T15:26:25.517Z</time></trkpt><trkpt lat="42.0014299" lon="12.0954179"><ele>70.33333333333333</ele><time>2026-04-25T15:26:27.505Z</time></trkpt><trkpt lat="42.0014193" lon="12.0953164"><ele>70.16666666666666</ele><time>2026-04-25T15:26:29.503Z</time></trkpt><trkpt lat="42.0013805" lon="12.0952288"><ele>70.0</ele><time>2026-04-25T15:26:31.519Z</time></trkpt><trkpt lat="42.0013258" lon="12.0951624"><ele>70.0</ele><time>2026-04-25T15:26:33.5Z</time></trkpt><trkpt lat="42.001264" lon="12.0950991"><ele>70.0</ele><time>2026-04-25T15:26:35.502Z</time></trkpt><trkpt lat="42.0011963" lon="12.0950494"><ele>70.0</ele><time>2026-04-25T15:26:37.567Z</time></trkpt><trkpt lat="42.001138" lon="12.0950025"><ele>70.0</ele><time>2026-04-25T15:26:39.497Z</time></trkpt><trkpt lat="42.0010842" lon="12.0949381"><ele>70.0</ele><time>2026-04-25T15:26:41.543Z</time></trkpt><trkpt lat="42.0010123" lon="12.0948686"><ele>70.0</ele><time>2026-04-25T15:26:44.516Z</time></trkpt><trkpt lat="42.000946" lon="12.0947828"><ele>69.71428571428571</ele><time>2026-04-25T15:26:47.513Z</time></trkpt><trkpt lat="42.0008996" lon="12.0947125"><ele>69.42857142857143</ele><time>2026-04-25T15:26:49.499Z</time></trkpt><trkpt lat="42.0008618" lon="12.0946429"><ele>69.14285714285714</ele><time>2026-04-25T15:26:51.574Z</time></trkpt><trkpt lat="42.0008189" lon="12.094524"><ele>68.85714285714286</ele><time>2026-04-25T15:26:54.507Z</time></trkpt><trkpt lat="42.000783" lon="12.0944444"><ele>68.57142857142857</ele><time>2026-04-25T15:26:56.515Z</time></trkpt><trkpt lat="42.0007563" lon="12.0943591"><ele>68.28571428571428</ele><time>2026-04-25T15:26:58.534Z</time></trkpt><trkpt lat="42.0007256" lon="12.0942731"><ele>68.0</ele><time>2026-04-25T15:27:00.495Z</time></trkpt><trkpt lat="42.0006876" lon="12.0941779"><ele>67.83333333333334</ele><time>2026-04-25T15:27:02.526Z</time></trkpt><trkpt lat="42.0006417" lon="12.0940832"><ele>67.66666666666667</ele><time>2026-04-25T15:27:04.499Z</time></trkpt><trkpt lat="42.0006011" lon="12.0940003"><ele>67.5</ele><time>2026-04-25T15:27:06.56Z</time></trkpt><trkpt lat="42.0005509" lon="12.0939217"><ele>67.33333333333333</ele><time>2026-04-25T15:27:08.556Z</time></trkpt><trkpt lat="42.0005034" lon="12.0938409"><ele>67.16666666666666</ele><time>2026-04-25T15:27:10.513Z</time></trkpt><trkpt lat="42.0004678" lon="12.0937529"><ele>67.0</ele><time>2026-04-25T15:27:12.493Z</time></trkpt><trkpt lat="42.0004496" lon="12.0936491"><ele>67.0</ele><time>2026-04-25T15:27:14.518Z</time></trkpt><trkpt lat="42.0004572" lon="12.0935429"><ele>67.0</ele><time>2026-04-25T15:27:16.53Z</time></trkpt><trkpt lat="42.000489" lon="12.093437"><ele>67.0</ele><time>2026-04-25T15:27:18.56Z</time></trkpt><trkpt lat="42.0005364" lon="12.0933124"><ele>67.0</ele><time>2026-04-25T15:27:20.5Z</time></trkpt><trkpt lat="42.000585" lon="12.0931986"><ele>67.0</ele><time>2026-04-25T15:27:22.515Z</time></trkpt><trkpt lat="42.0006365" lon="12.0930972"><ele>66.5</ele><time>2026-04-25T15:27:24.557Z</time></trkpt><trkpt lat="42.0006967" lon="12.0930154"><ele>66.0</ele><time>2026-04-25T15:27:26.568Z</time></trkpt><trkpt lat="42.0007544" lon="12.09294"><ele>65.5</ele><time>2026-04-25T15:27:28.51Z</time></trkpt><trkpt lat="42.0008183" lon="12.092916"><ele>65.0</ele><time>2026-04-25T15:27:30.556Z</time></trkpt><trkpt lat="42.0008401" lon="12.0928049"><ele>64.5</ele><time>2026-04-25T15:27:33.488Z</time></trkpt><trkpt lat="42.0007899" lon="12.0927232"><ele>64.0</ele><time>2026-04-25T15:27:35.505Z</time></trkpt><trkpt lat="42.0007177" lon="12.0926656"><ele>63.800000000000004</ele><time>2026-04-25T15:27:37.523Z</time></trkpt><trkpt lat="42.0006146" lon="12.0926742"><ele>63.60000000000001</ele><time>2026-04-25T15:27:39.527Z</time></trkpt><trkpt lat="42.0005055" lon="12.0926806"><ele>63.4</ele><time>2026-04-25T15:27:41.499Z</time></trkpt><trkpt lat="42.0003962" lon="12.0927129"><ele>63.2</ele><time>2026-04-25T15:27:43.502Z</time></trkpt><trkpt lat="42.00029" lon="12.0927897"><ele>63.0</ele><time>2026-04-25T15:27:45.527Z</time></trkpt><trkpt lat="42.0001983" lon="12.0928666"><ele>63.0</ele><time>2026-04-25T15:27:47.557Z</time></trkpt><trkpt lat="42.0001032" lon="12.0929662"><ele>63.0</ele><time>2026-04-25T15:27:49.513Z</time></trkpt><trkpt lat="42.0000455" lon="12.0930163"><ele>63.0</ele><time>2026-04-25T15:27:50.512Z</time></trkpt><trkpt lat="41.9999956" lon="12.0930758"><ele>63.0</ele><time>2026-04-25T15:27:51.507Z</time></trkpt><trkpt lat="41.9999425" lon="12.0931324"><ele>63.0</ele><time>2026-04-25T15:27:52.515Z</time></trkpt><trkpt lat="41.9998945" lon="12.09319"><ele>63.0</ele><time>2026-04-25T15:27:53.531Z</time></trkpt><trkpt lat="41.9998392" lon="12.0932534"><ele>63.666666666666664</ele><time>2026-04-25T15:27:54.569Z</time></trkpt><trkpt lat="41.9997888" lon="12.0933355"><ele>64.33333333333333</ele><time>2026-04-25T15:27:55.561Z</time></trkpt><trkpt lat="41.9997263" lon="12.0934971"><ele>65.0</ele><time>2026-04-25T15:27:57.563Z</time></trkpt><trkpt lat="41.9996905" lon="12.0935856"><ele>65.66666666666666</ele><time>2026-04-25T15:27:58.519Z</time></trkpt><trkpt lat="41.9996454" lon="12.0936722"><ele>66.33333333333333</ele><time>2026-04-25T15:27:59.528Z</time></trkpt><trkpt lat="41.9995979" lon="12.0937479"><ele>67.0</ele><time>2026-04-25T15:28:00.588Z</time></trkpt><trkpt lat="41.9995565" lon="12.0938349"><ele>67.0</ele><time>2026-04-25T15:28:01.527Z</time></trkpt><trkpt lat="41.9995155" lon="12.0939203"><ele>67.0</ele><time>2026-04-25T15:28:02.513Z</time></trkpt><trkpt lat="41.9994717" lon="12.0940018"><ele>67.0</ele><time>2026-04-25T15:28:03.495Z</time></trkpt><trkpt lat="41.9994164" lon="12.0940526"><ele>67.0</ele><time>2026-04-25T15:28:04.491Z</time></trkpt><trkpt lat="41.9993005" lon="12.0941328"><ele>67.0</ele><time>2026-04-25T15:28:06.521Z</time></trkpt><trkpt lat="41.9992428" lon="12.0941735"><ele>67.0</ele><time>2026-04-25T15:28:07.576Z</time></trkpt><trkpt lat="41.9991868" lon="12.0942237"><ele>65.0</ele><time>2026-04-25T15:28:08.532Z</time></trkpt><trkpt lat="41.9991261" lon="12.0942723"><ele>63.0</ele><time>2026-04-25T15:28:09.548Z</time></trkpt><trkpt lat="41.9990717" lon="12.0943217"><ele>61.0</ele><time>2026-04-25T15:28:10.556Z</time></trkpt><trkpt lat="41.9989944" lon="12.0944122"><ele>59.0</ele><time>2026-04-25T15:28:12.524Z</time></trkpt><trkpt lat="41.998915" lon="12.0945169"><ele>57.0</ele><time>2026-04-25T15:28:14.579Z</time></trkpt><trkpt lat="41.9988628" lon="12.0946313"><ele>57.0</ele><time>2026-04-25T15:28:16.555Z</time></trkpt><trkpt lat="41.9988059" lon="12.0947448"><ele>57.0</ele><time>2026-04-25T15:28:18.554Z</time></trkpt><trkpt lat="41.9987608" lon="12.0948527"><ele>57.0</ele><time>2026-04-25T15:28:20.556Z</time></trkpt><trkpt lat="41.9987348" lon="12.0949344"><ele>57.0</ele><time>2026-04-25T15:28:22.496Z</time></trkpt><trkpt lat="41.9986631" lon="12.0949469"><ele>57.0</ele><time>2026-04-25T15:28:25.499Z</time></trkpt><trkpt lat="41.9986205" lon="12.094862"><ele>57.0</ele><time>2026-04-25T15:28:27.498Z</time></trkpt><trkpt lat="41.9985713" lon="12.0947482"><ele>57.0</ele><time>2026-04-25T15:28:29.498Z</time></trkpt><trkpt lat="41.9985267" lon="12.0946082"><ele>57.0</ele><time>2026-04-25T15:28:31.628Z</time></trkpt><trkpt lat="41.9984879" lon="12.0944796"><ele>57.0</ele><time>2026-04-25T15:28:33.575Z</time></trkpt><trkpt lat="41.9984359" lon="12.0943405"><ele>57.0</ele><time>2026-04-25T15:28:35.505Z</time></trkpt><trkpt lat="41.9983837" lon="12.0942146"><ele>57.0</ele><time>2026-04-25T15:28:37.511Z</time></trkpt><trkpt lat="41.9983387" lon="12.0940973"><ele>56.166666666666664</ele><time>2026-04-25T15:28:39.504Z</time></trkpt><trkpt lat="41.9982924" lon="12.0939708"><ele>55.33333333333333</ele><time>2026-04-25T15:28:41.542Z</time></trkpt><trkpt lat="41.9982431" lon="12.0938685"><ele>54.5</ele><time>2026-04-25T15:28:43.557Z</time></trkpt><trkpt lat="41.9982116" lon="12.0937756"><ele>53.666666666666664</ele><time>2026-04-25T15:28:45.509Z</time></trkpt><trkpt lat="41.9981799" lon="12.0936929"><ele>52.83333333333333</ele><time>2026-04-25T15:28:47.514Z</time></trkpt><trkpt lat="41.9981477" lon="12.0936075"><ele>52.0</ele><time>2026-04-25T15:28:49.51Z</time></trkpt><trkpt lat="41.9981246" lon="12.0935203"><ele>51.99999999999999</ele><time>2026-04-25T15:28:51.519Z</time></trkpt><trkpt lat="41.9980985" lon="12.0934315"><ele>52.0</ele><time>2026-04-25T15:28:53.498Z</time></trkpt><trkpt lat="41.9980673" lon="12.0933401"><ele>52.0</ele><time>2026-04-25T15:28:55.512Z</time></trkpt><trkpt lat="41.9980356" lon="12.09325"><ele>52.0</ele><time>2026-04-25T15:28:57.516Z</time></trkpt><trkpt lat="41.9980021" lon="12.0931481"><ele>51.99999999999999</ele><time>2026-04-25T15:28:59.525Z</time></trkpt><trkpt lat="41.997967" lon="12.0930414"><ele>52.0</ele><time>2026-04-25T15:29:01.561Z</time></trkpt><trkpt lat="41.9979304" lon="12.0929231"><ele>51.8</ele><time>2026-04-25T15:29:03.512Z</time></trkpt><trkpt lat="41.9978883" lon="12.0927855"><ele>51.6</ele><time>2026-04-25T15:29:05.519Z</time></trkpt><trkpt lat="41.9978409" lon="12.092643"><ele>51.4</ele><time>2026-04-25T15:29:07.526Z</time></trkpt><trkpt lat="41.9978191" lon="12.0925599"><ele>51.199999999999996</ele><time>2026-04-25T15:29:08.522Z</time></trkpt><trkpt lat="41.9977797" lon="12.0924081"><ele>51.0</ele><time>2026-04-25T15:29:10.571Z</time></trkpt><trkpt lat="41.997759" lon="12.0923263"><ele>51.0</ele><time>2026-04-25T15:29:11.529Z</time></trkpt><trkpt lat="41.997731" lon="12.0921669"><ele>51.0</ele><time>2026-04-25T15:29:13.567Z</time></trkpt><trkpt lat="41.9977187" lon="12.0920809"><ele>51.0</ele><time>2026-04-25T15:29:14.558Z</time></trkpt><trkpt lat="41.9977162" lon="12.0919959"><ele>51.0</ele><time>2026-04-25T15:29:15.493Z</time></trkpt><trkpt lat="41.9977116" lon="12.0919077"><ele>51.0</ele><time>2026-04-25T15:29:16.557Z</time></trkpt><trkpt lat="41.9977087" lon="12.0918128"><ele>51.0</ele><time>2026-04-25T15:29:17.522Z</time></trkpt><trkpt lat="41.9977046" lon="12.0917179"><ele>51.0</ele><time>2026-04-25T15:29:18.563Z</time></trkpt><trkpt lat="41.9977018" lon="12.0916192"><ele>51.0</ele><time>2026-04-25T15:29:19.514Z</time></trkpt><trkpt lat="41.997705" lon="12.0915264"><ele>51.0</ele><time>2026-04-25T15:29:20.532Z</time></trkpt><trkpt lat="41.997703" lon="12.091428"><ele>51.0</ele><time>2026-04-25T15:29:21.531Z</time></trkpt><trkpt lat="41.997699" lon="12.091325"><ele>51.0</ele><time>2026-04-25T15:29:22.569Z</time></trkpt><trkpt lat="41.997693" lon="12.0912246"><ele>51.0</ele><time>2026-04-25T15:29:23.599Z</time></trkpt><trkpt lat="41.9976901" lon="12.0911317"><ele>51.0</ele><time>2026-04-25T15:29:24.544Z</time></trkpt><trkpt lat="41.9976802" lon="12.091026"><ele>50.666666666666664</ele><time>2026-04-25T15:29:25.61Z</time></trkpt><trkpt lat="41.9976713" lon="12.0909174"><ele>50.33333333333333</ele><time>2026-04-25T15:29:26.559Z</time></trkpt><trkpt lat="41.9976612" lon="12.0908166"><ele>50.0</ele><time>2026-04-25T15:29:27.522Z</time></trkpt><trkpt lat="41.9976566" lon="12.0907168"><ele>49.666666666666664</ele><time>2026-04-25T15:29:28.527Z</time></trkpt><trkpt lat="41.9976425" lon="12.0906118"><ele>49.33333333333333</ele><time>2026-04-25T15:29:29.492Z</time></trkpt><trkpt lat="41.9976324" lon="12.0905051"><ele>49.0</ele><time>2026-04-25T15:29:30.515Z</time></trkpt><trkpt lat="41.9976226" lon="12.090408"><ele>48.142857142857146</ele><time>2026-04-25T15:29:31.515Z</time></trkpt><trkpt lat="41.9976175" lon="12.0903078"><ele>47.285714285714285</ele><time>2026-04-25T15:29:32.557Z</time></trkpt><trkpt lat="41.9976125" lon="12.0902085"><ele>46.42857142857143</ele><time>2026-04-25T15:29:33.57Z</time></trkpt><trkpt lat="41.9976055" lon="12.0901109"><ele>45.57142857142857</ele><time>2026-04-25T15:29:34.496Z</time></trkpt><trkpt lat="41.9975945" lon="12.0900167"><ele>44.714285714285715</ele><time>2026-04-25T15:29:35.587Z</time></trkpt><trkpt lat="41.9975854" lon="12.0899202"><ele>43.85714285714286</ele><time>2026-04-25T15:29:36.5Z</time></trkpt><trkpt lat="41.9975739" lon="12.0898205"><ele>43.0</ele><time>2026-04-25T15:29:37.499Z</time></trkpt><trkpt lat="41.9975665" lon="12.0897248"><ele>42.333333333333336</ele><time>2026-04-25T15:29:38.525Z</time></trkpt><trkpt lat="41.9975585" lon="12.0896235"><ele>41.66666666666667</ele><time>2026-04-25T15:29:39.529Z</time></trkpt><trkpt lat="41.9975469" lon="12.0895252"><ele>41.0</ele><time>2026-04-25T15:29:40.559Z</time></trkpt><trkpt lat="41.9975373" lon="12.0894299"><ele>40.333333333333336</ele><time>2026-04-25T15:29:41.557Z</time></trkpt><trkpt lat="41.997525" lon="12.0893263"><ele>39.666666666666664</ele><time>2026-04-25T15:29:42.535Z</time></trkpt><trkpt lat="41.9975095" lon="12.0892234"><ele>39.0</ele><time>2026-04-25T15:29:43.491Z</time></trkpt><trkpt lat="41.9974964" lon="12.089122"><ele>38.333333333333336</ele><time>2026-04-25T15:29:44.562Z</time></trkpt><trkpt lat="41.9974906" lon="12.0890216"><ele>37.666666666666664</ele><time>2026-04-25T15:29:45.564Z</time></trkpt><trkpt lat="41.9974768" lon="12.088911"><ele>37.0</ele><time>2026-04-25T15:29:46.536Z</time></trkpt><trkpt lat="41.9974664" lon="12.0888072"><ele>36.33333333333333</ele><time>2026-04-25T15:29:47.529Z</time></trkpt><trkpt lat="41.9974532" lon="12.0886967"><ele>35.666666666666664</ele><time>2026-04-25T15:29:48.5Z</time></trkpt><trkpt lat="41.9974364" lon="12.0885847"><ele>35.0</ele><time>2026-04-25T15:29:49.556Z</time></trkpt><trkpt lat="41.9974234" lon="12.0884717"><ele>35.0</ele><time>2026-04-25T15:29:50.554Z</time></trkpt><trkpt lat="41.9974073" lon="12.0883603"><ele>35.0</ele><time>2026-04-25T15:29:51.569Z</time></trkpt><trkpt lat="41.9973937" lon="12.0882514"><ele>35.0</ele><time>2026-04-25T15:29:52.563Z</time></trkpt><trkpt lat="41.9973822" lon="12.0881404"><ele>35.0</ele><time>2026-04-25T15:29:53.559Z</time></trkpt><trkpt lat="41.9973695" lon="12.0880292"><ele>35.0</ele><time>2026-04-25T15:29:54.529Z</time></trkpt><trkpt lat="41.997355" lon="12.0879128"><ele>35.0</ele><time>2026-04-25T15:29:55.574Z</time></trkpt><trkpt lat="41.9973412" lon="12.0878057"><ele>34.666666666666664</ele><time>2026-04-25T15:29:56.522Z</time></trkpt><trkpt lat="41.9973218" lon="12.0876951"><ele>34.33333333333333</ele><time>2026-04-25T15:29:57.524Z</time></trkpt><trkpt lat="41.9973102" lon="12.0875913"><ele>34.0</ele><time>2026-04-25T15:29:58.56Z</time></trkpt><trkpt lat="41.9972971" lon="12.0874923"><ele>33.666666666666664</ele><time>2026-04-25T15:29:59.562Z</time></trkpt><trkpt lat="41.9972876" lon="12.087401"><ele>33.333333333333336</ele><time>2026-04-25T15:30:00.571Z</time></trkpt><trkpt lat="41.9972891" lon="12.0872286"><ele>33.0</ele><time>2026-04-25T15:30:02.518Z</time></trkpt><trkpt lat="41.997282" lon="12.087074"><ele>32.75</ele><time>2026-04-25T15:30:04.531Z</time></trkpt><trkpt lat="41.9972592" lon="12.0869305"><ele>32.5</ele><time>2026-04-25T15:30:06.514Z</time></trkpt><trkpt lat="41.9972407" lon="12.0867822"><ele>32.25</ele><time>2026-04-25T15:30:08.514Z</time></trkpt><trkpt lat="41.9972154" lon="12.0866251"><ele>32.0</ele><time>2026-04-25T15:30:10.523Z</time></trkpt><trkpt lat="41.9971991" lon="12.0864715"><ele>32.0</ele><time>2026-04-25T15:30:12.558Z</time></trkpt><trkpt lat="41.9971812" lon="12.0863192"><ele>32.0</ele><time>2026-04-25T15:30:14.528Z</time></trkpt><trkpt lat="41.9971613" lon="12.086171"><ele>32.0</ele><time>2026-04-25T15:30:16.557Z</time></trkpt><trkpt lat="41.9971306" lon="12.0860267"><ele>32.0</ele><time>2026-04-25T15:30:18.555Z</time></trkpt><trkpt lat="41.997105" lon="12.0858781"><ele>31.75</ele><time>2026-04-25T15:30:20.517Z</time></trkpt><trkpt lat="41.9970825" lon="12.0857257"><ele>31.5</ele><time>2026-04-25T15:30:22.511Z</time></trkpt><trkpt lat="41.9970587" lon="12.0855711"><ele>31.25</ele><time>2026-04-25T15:30:24.524Z</time></trkpt><trkpt lat="41.997021" lon="12.0854201"><ele>31.0</ele><time>2026-04-25T15:30:26.51Z</time></trkpt><trkpt lat="41.9970021" lon="12.0852752"><ele>31.0</ele><time>2026-04-25T15:30:28.495Z</time></trkpt><trkpt lat="41.9969673" lon="12.085128"><ele>31.0</ele><time>2026-04-25T15:30:30.498Z</time></trkpt><trkpt lat="41.9969403" lon="12.0849782"><ele>31.0</ele><time>2026-04-25T15:30:32.543Z</time></trkpt><trkpt lat="41.996923" lon="12.0848175"><ele>31.0</ele><time>2026-04-25T15:30:34.574Z</time></trkpt><trkpt lat="41.9968912" lon="12.0846716"><ele>31.0</ele><time>2026-04-25T15:30:36.526Z</time></trkpt><trkpt lat="41.996862" lon="12.0845231"><ele>31.0</ele><time>2026-04-25T15:30:38.514Z</time></trkpt><trkpt lat="41.9968344" lon="12.0843816"><ele>31.0</ele><time>2026-04-25T15:30:40.516Z</time></trkpt><trkpt lat="41.9967893" lon="12.0841643"><ele>31.0</ele><time>2026-04-25T15:30:43.57Z</time></trkpt><trkpt lat="41.9967676" lon="12.084009"><ele>31.0</ele><time>2026-04-25T15:30:45.562Z</time></trkpt><trkpt lat="41.9967362" lon="12.0838593"><ele>31.0</ele><time>2026-04-25T15:30:47.56Z</time></trkpt><trkpt lat="41.99671" lon="12.0837049"><ele>31.0</ele><time>2026-04-25T15:30:49.513Z</time></trkpt><trkpt lat="41.9966777" lon="12.083551"><ele>31.0</ele><time>2026-04-25T15:30:51.556Z</time></trkpt><trkpt lat="41.9966555" lon="12.0834012"><ele>31.4</ele><time>2026-04-25T15:30:53.516Z</time></trkpt><trkpt lat="41.9966246" lon="12.0832535"><ele>31.8</ele><time>2026-04-25T15:30:55.492Z</time></trkpt><trkpt lat="41.9966028" lon="12.083113"><ele>32.199999999999996</ele><time>2026-04-25T15:30:57.527Z</time></trkpt><trkpt lat="41.9965774" lon="12.0829794"><ele>32.6</ele><time>2026-04-25T15:30:59.523Z</time></trkpt><trkpt lat="41.9965506" lon="12.0828507"><ele>33.0</ele><time>2026-04-25T15:31:01.562Z</time></trkpt><trkpt lat="41.9965224" lon="12.0827124"><ele>33.0</ele><time>2026-04-25T15:31:03.522Z</time></trkpt><trkpt lat="41.9965072" lon="12.0825755"><ele>33.0</ele><time>2026-04-25T15:31:05.529Z</time></trkpt><trkpt lat="41.9964926" lon="12.0824467"><ele>33.0</ele><time>2026-04-25T15:31:07.5Z</time></trkpt><trkpt lat="41.9964812" lon="12.0823286"><ele>33.0</ele><time>2026-04-25T15:31:09.577Z</time></trkpt><trkpt lat="41.9964588" lon="12.0822074"><ele>33.0</ele><time>2026-04-25T15:31:11.581Z</time></trkpt><trkpt lat="41.9964428" lon="12.0820824"><ele>33.199999999999996</ele><time>2026-04-25T15:31:13.529Z</time></trkpt><trkpt lat="41.9964288" lon="12.0819596"><ele>33.4</ele><time>2026-04-25T15:31:15.567Z</time></trkpt><trkpt lat="41.9964083" lon="12.0818349"><ele>33.599999999999994</ele><time>2026-04-25T15:31:17.496Z</time></trkpt><trkpt lat="41.9964015" lon="12.0817137"><ele>33.8</ele><time>2026-04-25T15:31:19.498Z</time></trkpt><trkpt lat="41.9963832" lon="12.0815944"><ele>34.0</ele><time>2026-04-25T15:31:21.495Z</time></trkpt><trkpt lat="41.9963695" lon="12.081485"><ele>34.0</ele><time>2026-04-25T15:31:23.499Z</time></trkpt><trkpt lat="41.9963561" lon="12.0813694"><ele>34.0</ele><time>2026-04-25T15:31:25.507Z</time></trkpt><trkpt lat="41.99634" lon="12.0812565"><ele>34.0</ele><time>2026-04-25T15:31:27.514Z</time></trkpt><trkpt lat="41.9963205" lon="12.0811323"><ele>34.0</ele><time>2026-04-25T15:31:29.509Z</time></trkpt><trkpt lat="41.9963041" lon="12.0810122"><ele>34.0</ele><time>2026-04-25T15:31:31.581Z</time></trkpt><trkpt lat="41.9962914" lon="12.0808847"><ele>34.2</ele><time>2026-04-25T15:31:33.519Z</time></trkpt><trkpt lat="41.9962745" lon="12.0807576"><ele>34.4</ele><time>2026-04-25T15:31:35.511Z</time></trkpt><trkpt lat="41.9962583" lon="12.0806242"><ele>34.6</ele><time>2026-04-25T15:31:37.5Z</time></trkpt><trkpt lat="41.9962413" lon="12.080496"><ele>34.8</ele><time>2026-04-25T15:31:39.515Z</time></trkpt><trkpt lat="41.9962255" lon="12.0803686"><ele>35.0</ele><time>2026-04-25T15:31:41.553Z</time></trkpt><trkpt lat="41.9962064" lon="12.0802292"><ele>35.0</ele><time>2026-04-25T15:31:43.531Z</time></trkpt><trkpt lat="41.9961938" lon="12.0800991"><ele>35.0</ele><time>2026-04-25T15:31:45.501Z</time></trkpt><trkpt lat="41.9961514" lon="12.0798881"><ele>35.0</ele><time>2026-04-25T15:31:48.568Z</time></trkpt><trkpt lat="41.996117" lon="12.0797592"><ele>35.0</ele><time>2026-04-25T15:31:50.533Z</time></trkpt><trkpt lat="41.9960738" lon="12.0796304"><ele>34.6</ele><time>2026-04-25T15:31:52.524Z</time></trkpt><trkpt lat="41.9960242" lon="12.0795042"><ele>34.2</ele><time>2026-04-25T15:31:54.558Z</time></trkpt><trkpt lat="41.9959732" lon="12.0793737"><ele>33.8</ele><time>2026-04-25T15:31:56.528Z</time></trkpt><trkpt lat="41.9959278" lon="12.0792474"><ele>33.4</ele><time>2026-04-25T15:31:58.544Z</time></trkpt><trkpt lat="41.9958736" lon="12.0791156"><ele>33.0</ele><time>2026-04-25T15:32:00.599Z</time></trkpt><trkpt lat="41.9958297" lon="12.0789854"><ele>32.8</ele><time>2026-04-25T15:32:02.552Z</time></trkpt><trkpt lat="41.9957772" lon="12.0788576"><ele>32.599999999999994</ele><time>2026-04-25T15:32:04.558Z</time></trkpt><trkpt lat="41.9957265" lon="12.0787259"><ele>32.400000000000006</ele><time>2026-04-25T15:32:06.518Z</time></trkpt><trkpt lat="41.9956755" lon="12.0785963"><ele>32.2</ele><time>2026-04-25T15:32:08.543Z</time></trkpt><trkpt lat="41.9956235" lon="12.0784618"><ele>32.0</ele><time>2026-04-25T15:32:10.536Z</time></trkpt><trkpt lat="41.9955777" lon="12.0783249"><ele>32.0</ele><time>2026-04-25T15:32:12.559Z</time></trkpt><trkpt lat="41.9955345" lon="12.0782014"><ele>32.0</ele><time>2026-04-25T15:32:14.564Z</time></trkpt><trkpt lat="41.9954841" lon="12.0780772"><ele>32.0</ele><time>2026-04-25T15:32:16.555Z</time></trkpt><trkpt lat="41.9954335" lon="12.0779436"><ele>32.0</ele><time>2026-04-25T15:32:18.555Z</time></trkpt><trkpt lat="41.9953814" lon="12.0778113"><ele>32.0</ele><time>2026-04-25T15:32:20.506Z</time></trkpt><trkpt lat="41.9953223" lon="12.0776662"><ele>32.0</ele><time>2026-04-25T15:32:22.563Z</time></trkpt><trkpt lat="41.9952945" lon="12.0775899"><ele>32.0</ele><time>2026-04-25T15:32:23.574Z</time></trkpt><trkpt lat="41.9952528" lon="12.0774621"><ele>32.0</ele><time>2026-04-25T15:32:25.52Z</time></trkpt><trkpt lat="41.9952025" lon="12.0773258"><ele>32.0</ele><time>2026-04-25T15:32:27.544Z</time></trkpt><trkpt lat="41.9951572" lon="12.0772037"><ele>32.0</ele><time>2026-04-25T15:32:29.525Z</time></trkpt><trkpt lat="41.9951088" lon="12.0770818"><ele>31.999999999999996</ele><time>2026-04-25T15:32:31.495Z</time></trkpt><trkpt lat="41.9950504" lon="12.0770123"><ele>32.0</ele><time>2026-04-25T15:32:33.507Z</time></trkpt><trkpt lat="41.9949697" lon="12.0770024"><ele>32.0</ele><time>2026-04-25T15:32:35.511Z</time></trkpt><trkpt lat="41.9948891" lon="12.0770413"><ele>32.0</ele><time>2026-04-25T15:32:37.503Z</time></trkpt><trkpt lat="41.9948009" lon="12.0771047"><ele>31.999999999999996</ele><time>2026-04-25T15:32:39.493Z</time></trkpt><trkpt lat="41.9947071" lon="12.0771546"><ele>32.0</ele><time>2026-04-25T15:32:41.496Z</time></trkpt><trkpt lat="41.9946082" lon="12.0772041"><ele>32.0</ele><time>2026-04-25T15:32:43.524Z</time></trkpt><trkpt lat="41.9945226" lon="12.0772547"><ele>32.0</ele><time>2026-04-25T15:32:45.556Z</time></trkpt><trkpt lat="41.9944256" lon="12.077295"><ele>32.0</ele><time>2026-04-25T15:32:47.517Z</time></trkpt><trkpt lat="41.9943395" lon="12.0773454"><ele>32.0</ele><time>2026-04-25T15:32:49.511Z</time></trkpt><trkpt lat="41.9942602" lon="12.0773887"><ele>32.0</ele><time>2026-04-25T15:32:51.528Z</time></trkpt><trkpt lat="41.9941769" lon="12.0774307"><ele>31.8</ele><time>2026-04-25T15:32:53.556Z</time></trkpt><trkpt lat="41.9940875" lon="12.0774756"><ele>31.6</ele><time>2026-04-25T15:32:55.573Z</time></trkpt><trkpt lat="41.9939971" lon="12.0775159"><ele>31.400000000000002</ele><time>2026-04-25T15:32:57.514Z</time></trkpt><trkpt lat="41.9938716" lon="12.0775874"><ele>31.200000000000003</ele><time>2026-04-25T15:33:00.557Z</time></trkpt><trkpt lat="41.9937904" lon="12.0776374"><ele>31.0</ele><time>2026-04-25T15:33:02.498Z</time></trkpt><trkpt lat="41.9937166" lon="12.0776835"><ele>31.000000000000004</ele><time>2026-04-25T15:33:04.559Z</time></trkpt><trkpt lat="41.9936327" lon="12.0777182"><ele>31.0</ele><time>2026-04-25T15:33:06.516Z</time></trkpt><trkpt lat="41.9935532" lon="12.0777559"><ele>31.0</ele><time>2026-04-25T15:33:08.492Z</time></trkpt><trkpt lat="41.9934717" lon="12.0778031"><ele>31.0</ele><time>2026-04-25T15:33:10.495Z</time></trkpt><trkpt lat="41.9933976" lon="12.0778423"><ele>31.000000000000004</ele><time>2026-04-25T15:33:12.5Z</time></trkpt><trkpt lat="41.9933216" lon="12.0778807"><ele>31.0</ele><time>2026-04-25T15:33:14.516Z</time></trkpt><trkpt lat="41.9932468" lon="12.0779169"><ele>31.000000000000004</ele><time>2026-04-25T15:33:16.57Z</time></trkpt><trkpt lat="41.9931744" lon="12.077955"><ele>31.0</ele><time>2026-04-25T15:33:18.503Z</time></trkpt><trkpt lat="41.9931052" lon="12.0780005"><ele>31.0</ele><time>2026-04-25T15:33:20.5Z</time></trkpt><trkpt lat="41.9930305" lon="12.0780342"><ele>31.0</ele><time>2026-04-25T15:33:22.499Z</time></trkpt><trkpt lat="41.9929549" lon="12.0780681"><ele>31.000000000000004</ele><time>2026-04-25T15:33:24.491Z</time></trkpt><trkpt lat="41.9928746" lon="12.0781083"><ele>31.0</ele><time>2026-04-25T15:33:26.497Z</time></trkpt><trkpt lat="41.9927944" lon="12.0781495"><ele>31.0</ele><time>2026-04-25T15:33:28.533Z</time></trkpt><trkpt lat="41.9927132" lon="12.0781886"><ele>31.0</ele><time>2026-04-25T15:33:30.503Z</time></trkpt><trkpt lat="41.9926304" lon="12.0782277"><ele>31.0</ele><time>2026-04-25T15:33:32.507Z</time></trkpt><trkpt lat="41.9925476" lon="12.078276"><ele>31.0</ele><time>2026-04-25T15:33:34.509Z</time></trkpt><trkpt lat="41.9924241" lon="12.0783402"><ele>31.0</ele><time>2026-04-25T15:33:37.516Z</time></trkpt><trkpt lat="41.9923507" lon="12.0783878"><ele>31.4</ele><time>2026-04-25T15:33:39.511Z</time></trkpt><trkpt lat="41.9922725" lon="12.0784343"><ele>31.8</ele><time>2026-04-25T15:33:41.504Z</time></trkpt><trkpt lat="41.9921884" lon="12.0784816"><ele>32.199999999999996</ele><time>2026-04-25T15:33:43.513Z</time></trkpt><trkpt lat="41.9920945" lon="12.0785347"><ele>32.6</ele><time>2026-04-25T15:33:45.544Z</time></trkpt><trkpt lat="41.9919859" lon="12.0785847"><ele>33.0</ele><time>2026-04-25T15:33:47.52Z</time></trkpt><trkpt lat="41.9918697" lon="12.0786402"><ele>33.0</ele><time>2026-04-25T15:33:49.551Z</time></trkpt><trkpt lat="41.9918095" lon="12.0786683"><ele>33.0</ele><time>2026-04-25T15:33:50.557Z</time></trkpt><trkpt lat="41.9916922" lon="12.0787336"><ele>33.0</ele><time>2026-04-25T15:33:52.516Z</time></trkpt><trkpt lat="41.9916305" lon="12.0787633"><ele>33.0</ele><time>2026-04-25T15:33:53.531Z</time></trkpt><trkpt lat="41.9915746" lon="12.0788075"><ele>33.0</ele><time>2026-04-25T15:33:54.521Z</time></trkpt><trkpt lat="41.9915153" lon="12.0788447"><ele>33.0</ele><time>2026-04-25T15:33:55.567Z</time></trkpt><trkpt lat="41.9914537" lon="12.078868"><ele>32.857142857142854</ele><time>2026-04-25T15:33:56.557Z</time></trkpt><trkpt lat="41.9913882" lon="12.0788963"><ele>32.714285714285715</ele><time>2026-04-25T15:33:57.525Z</time></trkpt><trkpt lat="41.9913255" lon="12.0789278"><ele>32.57142857142857</ele><time>2026-04-25T15:33:58.523Z</time></trkpt><trkpt lat="41.9912644" lon="12.0789704"><ele>32.42857142857143</ele><time>2026-04-25T15:33:59.496Z</time></trkpt><trkpt lat="41.9912001" lon="12.0790135"><ele>32.285714285714285</ele><time>2026-04-25T15:34:00.497Z</time></trkpt><trkpt lat="41.9911357" lon="12.0790371"><ele>32.14285714285714</ele><time>2026-04-25T15:34:01.491Z</time></trkpt><trkpt lat="41.9910668" lon="12.0790591"><ele>32.0</ele><time>2026-04-25T15:34:02.512Z</time></trkpt><trkpt lat="41.9909995" lon="12.0790951"><ele>31.333333333333332</ele><time>2026-04-25T15:34:03.578Z</time></trkpt><trkpt lat="41.9909321" lon="12.0791372"><ele>30.666666666666664</ele><time>2026-04-25T15:34:04.493Z</time></trkpt><trkpt lat="41.9908655" lon="12.0791726"><ele>30.0</ele><time>2026-04-25T15:34:05.528Z</time></trkpt><trkpt lat="41.9907965" lon="12.0792101"><ele>29.333333333333336</ele><time>2026-04-25T15:34:06.565Z</time></trkpt><trkpt lat="41.9907297" lon="12.0792519"><ele>28.666666666666668</ele><time>2026-04-25T15:34:07.528Z</time></trkpt><trkpt lat="41.9906693" lon="12.0792784"><ele>28.0</ele><time>2026-04-25T15:34:08.59Z</time></trkpt><trkpt lat="41.9905547" lon="12.0793389"><ele>27.571428571428573</ele><time>2026-04-25T15:34:10.521Z</time></trkpt><trkpt lat="41.9904958" lon="12.0793809"><ele>27.142857142857142</ele><time>2026-04-25T15:34:11.519Z</time></trkpt><trkpt lat="41.9904343" lon="12.0794086"><ele>26.714285714285715</ele><time>2026-04-25T15:34:12.512Z</time></trkpt><trkpt lat="41.9903752" lon="12.0794412"><ele>26.285714285714285</ele><time>2026-04-25T15:34:13.515Z</time></trkpt><trkpt lat="41.9903153" lon="12.0794724"><ele>25.857142857142858</ele><time>2026-04-25T15:34:14.591Z</time></trkpt><trkpt lat="41.9902541" lon="12.0794978"><ele>25.42857142857143</ele><time>2026-04-25T15:34:15.585Z</time></trkpt><trkpt lat="41.9901394" lon="12.0795534"><ele>25.0</ele><time>2026-04-25T15:34:17.566Z</time></trkpt><trkpt lat="41.9900767" lon="12.0795787"><ele>25.4</ele><time>2026-04-25T15:34:18.575Z</time></trkpt><trkpt lat="41.9899624" lon="12.0796275"><ele>25.8</ele><time>2026-04-25T15:34:20.57Z</time></trkpt><trkpt lat="41.9898616" lon="12.0796865"><ele>26.200000000000003</ele><time>2026-04-25T15:34:22.569Z</time></trkpt><trkpt lat="41.9897431" lon="12.0797419"><ele>26.6</ele><time>2026-04-25T15:34:24.515Z</time></trkpt><trkpt lat="41.9896812" lon="12.0797816"><ele>27.0</ele><time>2026-04-25T15:34:25.533Z</time></trkpt><trkpt lat="41.989589" lon="12.0798208"><ele>27.0</ele><time>2026-04-25T15:34:27.56Z</time></trkpt><trkpt lat="41.9895143" lon="12.0798603"><ele>27.0</ele><time>2026-04-25T15:34:29.559Z</time></trkpt><trkpt lat="41.9894425" lon="12.0799063"><ele>27.0</ele><time>2026-04-25T15:34:33.502Z</time></trkpt><trkpt lat="41.9894127" lon="12.0800003"><ele>27.0</ele><time>2026-04-25T15:34:37.498Z</time></trkpt><trkpt lat="41.9894059" lon="12.0801054"><ele>27.0</ele><time>2026-04-25T15:34:39.505Z</time></trkpt><trkpt lat="41.9894132" lon="12.080226"><ele>27.0</ele><time>2026-04-25T15:34:41.573Z</time></trkpt><trkpt lat="41.9894373" lon="12.0803571"><ele>26.8</ele><time>2026-04-25T15:34:43.491Z</time></trkpt><trkpt lat="41.9894506" lon="12.0804921"><ele>26.6</ele><time>2026-04-25T15:34:45.512Z</time></trkpt><trkpt lat="41.9894747" lon="12.0806411"><ele>26.400000000000002</ele><time>2026-04-25T15:34:47.51Z</time></trkpt><trkpt lat="41.9894956" lon="12.0807858"><ele>26.200000000000003</ele><time>2026-04-25T15:34:49.558Z</time></trkpt><trkpt lat="41.9895227" lon="12.0809469"><ele>26.0</ele><time>2026-04-25T15:34:51.56Z</time></trkpt><trkpt lat="41.9895391" lon="12.0811025"><ele>26.0</ele><time>2026-04-25T15:34:53.574Z</time></trkpt><trkpt lat="41.9895547" lon="12.0812468"><ele>26.0</ele><time>2026-04-25T15:34:55.576Z</time></trkpt><trkpt lat="41.9895758" lon="12.0813914"><ele>26.0</ele><time>2026-04-25T15:34:57.529Z</time></trkpt><trkpt lat="41.9895934" lon="12.0815412"><ele>26.0</ele><time>2026-04-25T15:34:59.523Z</time></trkpt><trkpt lat="41.9896148" lon="12.0816931"><ele>26.0</ele><time>2026-04-25T15:35:01.501Z</time></trkpt><trkpt lat="41.989643" lon="12.0818548"><ele>25.5</ele><time>2026-04-25T15:35:03.555Z</time></trkpt><trkpt lat="41.9896654" lon="12.0820018"><ele>25.0</ele><time>2026-04-25T15:35:05.554Z</time></trkpt><trkpt lat="41.9896832" lon="12.0821497"><ele>24.5</ele><time>2026-04-25T15:35:07.565Z</time></trkpt><trkpt lat="41.9897009" lon="12.082303"><ele>24.0</ele><time>2026-04-25T15:35:09.518Z</time></trkpt><trkpt lat="41.9897189" lon="12.082455"><ele>23.4</ele><time>2026-04-25T15:35:11.495Z</time></trkpt><trkpt lat="41.9897344" lon="12.0825945"><ele>22.799999999999997</ele><time>2026-04-25T15:35:13.489Z</time></trkpt><trkpt lat="41.989755" lon="12.0827397"><ele>22.200000000000003</ele><time>2026-04-25T15:35:15.503Z</time></trkpt><trkpt lat="41.9897778" lon="12.0828787"><ele>21.6</ele><time>2026-04-25T15:35:17.569Z</time></trkpt><trkpt lat="41.9898079" lon="12.083027"><ele>21.0</ele><time>2026-04-25T15:35:19.565Z</time></trkpt><trkpt lat="41.9898321" lon="12.0831712"><ele>21.0</ele><time>2026-04-25T15:35:21.499Z</time></trkpt><trkpt lat="41.9898472" lon="12.0832547"><ele>21.0</ele><time>2026-04-25T15:35:22.494Z</time></trkpt><trkpt lat="41.9898659" lon="12.083413"><ele>21.0</ele><time>2026-04-25T15:35:24.53Z</time></trkpt><trkpt lat="41.9898881" lon="12.0835755"><ele>21.0</ele><time>2026-04-25T15:35:26.574Z</time></trkpt><trkpt lat="41.9899194" lon="12.0837326"><ele>21.0</ele><time>2026-04-25T15:35:28.51Z</time></trkpt><trkpt lat="41.9899432" lon="12.0838154"><ele>21.5</ele><time>2026-04-25T15:35:29.567Z</time></trkpt><trkpt lat="41.9899693" lon="12.0839699"><ele>22.0</ele><time>2026-04-25T15:35:31.581Z</time></trkpt><trkpt lat="41.9899897" lon="12.0841294"><ele>22.5</ele><time>2026-04-25T15:35:33.57Z</time></trkpt><trkpt lat="41.9900165" lon="12.0842783"><ele>23.0</ele><time>2026-04-25T15:35:35.563Z</time></trkpt><trkpt lat="41.9900329" lon="12.0844181"><ele>23.2</ele><time>2026-04-25T15:35:37.566Z</time></trkpt><trkpt lat="41.9900583" lon="12.0845528"><ele>23.4</ele><time>2026-04-25T15:35:39.517Z</time></trkpt><trkpt lat="41.9900962" lon="12.0846843"><ele>23.599999999999998</ele><time>2026-04-25T15:35:41.563Z</time></trkpt><trkpt lat="41.9901353" lon="12.0848049"><ele>23.799999999999997</ele><time>2026-04-25T15:35:43.553Z</time></trkpt><trkpt lat="41.9901814" lon="12.0849142"><ele>24.0</ele><time>2026-04-25T15:35:45.508Z</time></trkpt><trkpt lat="41.9902268" lon="12.0850251"><ele>24.5</ele><time>2026-04-25T15:35:47.497Z</time></trkpt><trkpt lat="41.9902786" lon="12.0851255"><ele>25.0</ele><time>2026-04-25T15:35:49.494Z</time></trkpt><trkpt lat="41.9903339" lon="12.0852157"><ele>25.5</ele><time>2026-04-25T15:35:51.493Z</time></trkpt><trkpt lat="41.9903932" lon="12.0852833"><ele>26.0</ele><time>2026-04-25T15:35:53.557Z</time></trkpt><trkpt lat="41.9904519" lon="12.0853624"><ele>26.5</ele><time>2026-04-25T15:35:55.53Z</time></trkpt><trkpt lat="41.9905131" lon="12.0854441"><ele>27.0</ele><time>2026-04-25T15:35:57.503Z</time></trkpt><trkpt lat="41.9905838" lon="12.0855247"><ele>27.0</ele><time>2026-04-25T15:35:59.494Z</time></trkpt><trkpt lat="41.990655" lon="12.0856057"><ele>27.000000000000004</ele><time>2026-04-25T15:36:01.555Z</time></trkpt><trkpt lat="41.9907231" lon="12.0856991"><ele>27.000000000000004</ele><time>2026-04-25T15:36:03.518Z</time></trkpt><trkpt lat="41.9907954" lon="12.0857991"><ele>27.0</ele><time>2026-04-25T15:36:05.519Z</time></trkpt><trkpt lat="41.9908514" lon="12.0858853"><ele>27.0</ele><time>2026-04-25T15:36:07.565Z</time></trkpt><trkpt lat="41.9909114" lon="12.0859899"><ele>27.5</ele><time>2026-04-25T15:36:09.563Z</time></trkpt><trkpt lat="41.9909658" lon="12.0860796"><ele>28.0</ele><time>2026-04-25T15:36:11.57Z</time></trkpt><trkpt lat="41.9910092" lon="12.0861891"><ele>28.5</ele><time>2026-04-25T15:36:13.566Z</time></trkpt><trkpt lat="41.9910654" lon="12.0862907"><ele>29.0</ele><time>2026-04-25T15:36:15.55Z</time></trkpt><trkpt lat="41.9911002" lon="12.0863917"><ele>29.5</ele><time>2026-04-25T15:36:17.508Z</time></trkpt><trkpt lat="41.9911058" lon="12.0864873"><ele>30.0</ele><time>2026-04-25T15:36:19.535Z</time></trkpt><trkpt lat="41.9910612" lon="12.0865527"><ele>30.0</ele><time>2026-04-25T15:36:21.575Z</time></trkpt><trkpt lat="41.9909977" lon="12.0866089"><ele>30.0</ele><time>2026-04-25T15:36:23.505Z</time></trkpt><trkpt lat="41.99093" lon="12.0866593"><ele>30.0</ele><time>2026-04-25T15:36:25.511Z</time></trkpt><trkpt lat="41.9908544" lon="12.0867135"><ele>30.0</ele><time>2026-04-25T15:36:27.564Z</time></trkpt><trkpt lat="41.9907829" lon="12.0867758"><ele>30.0</ele><time>2026-04-25T15:36:29.512Z</time></trkpt><trkpt lat="41.9907122" lon="12.086845"><ele>30.0</ele><time>2026-04-25T15:36:31.503Z</time></trkpt><trkpt lat="41.9905993" lon="12.0869287"><ele>30.0</ele><time>2026-04-25T15:36:34.516Z</time></trkpt><trkpt lat="41.9905254" lon="12.0869848"><ele>30.0</ele><time>2026-04-25T15:36:36.519Z</time></trkpt><trkpt lat="41.990445" lon="12.0870383"><ele>30.0</ele><time>2026-04-25T15:36:38.543Z</time></trkpt><trkpt lat="41.990375" lon="12.0870961"><ele>30.0</ele><time>2026-04-25T15:36:40.51Z</time></trkpt><trkpt lat="41.990306" lon="12.0871443"><ele>30.0</ele><time>2026-04-25T15:36:42.565Z</time></trkpt><trkpt lat="41.9902328" lon="12.0871936"><ele>30.0</ele><time>2026-04-25T15:36:44.612Z</time></trkpt><trkpt lat="41.9901566" lon="12.0872343"><ele>30.0</ele><time>2026-04-25T15:36:46.505Z</time></trkpt><trkpt lat="41.9900884" lon="12.0872803"><ele>30.0</ele><time>2026-04-25T15:36:48.537Z</time></trkpt><trkpt lat="41.9900215" lon="12.0873445"><ele>30.0</ele><time>2026-04-25T15:36:50.574Z</time></trkpt><trkpt lat="41.9899487" lon="12.0873906"><ele>30.0</ele><time>2026-04-25T15:36:52.501Z</time></trkpt><trkpt lat="41.9898773" lon="12.0874515"><ele>30.0</ele><time>2026-04-25T15:36:54.58Z</time></trkpt><trkpt lat="41.9898086" lon="12.0875085"><ele>30.0</ele><time>2026-04-25T15:36:56.512Z</time></trkpt><trkpt lat="41.9897369" lon="12.0875649"><ele>30.833333333333332</ele><time>2026-04-25T15:36:58.545Z</time></trkpt><trkpt lat="41.9896667" lon="12.087617"><ele>31.666666666666664</ele><time>2026-04-25T15:37:00.525Z</time></trkpt><trkpt lat="41.9896015" lon="12.0876703"><ele>32.5</ele><time>2026-04-25T15:37:02.495Z</time></trkpt><trkpt lat="41.9895402" lon="12.0877115"><ele>33.33333333333333</ele><time>2026-04-25T15:37:04.573Z</time></trkpt><trkpt lat="41.9894661" lon="12.0877443"><ele>34.166666666666664</ele><time>2026-04-25T15:37:07.499Z</time></trkpt><trkpt lat="41.9893781" lon="12.0876909"><ele>35.0</ele><time>2026-04-25T15:37:10.535Z</time></trkpt><trkpt lat="41.989294" lon="12.0876442"><ele>35.0</ele><time>2026-04-25T15:37:13.536Z</time></trkpt><trkpt lat="41.9892196" lon="12.0876419"><ele>35.0</ele><time>2026-04-25T15:37:16.513Z</time></trkpt><trkpt lat="41.989165" lon="12.0877493"><ele>35.0</ele><time>2026-04-25T15:37:19.517Z</time></trkpt><trkpt lat="41.9891364" lon="12.0878453"><ele>35.0</ele><time>2026-04-25T15:37:21.521Z</time></trkpt><trkpt lat="41.9890998" lon="12.0879428"><ele>35.0</ele><time>2026-04-25T15:37:23.506Z</time></trkpt><trkpt lat="41.9890678" lon="12.0880454"><ele>35.0</ele><time>2026-04-25T15:37:25.522Z</time></trkpt><trkpt lat="41.989039" lon="12.0881551"><ele>35.0</ele><time>2026-04-25T15:37:27.5Z</time></trkpt><trkpt lat="41.9890094" lon="12.0882736"><ele>35.0</ele><time>2026-04-25T15:37:29.521Z</time></trkpt><trkpt lat="41.9889799" lon="12.0883969"><ele>35.0</ele><time>2026-04-25T15:37:31.564Z</time></trkpt><trkpt lat="41.9889463" lon="12.0885235"><ele>35.0</ele><time>2026-04-25T15:37:33.518Z</time></trkpt><trkpt lat="41.988911" lon="12.0886403"><ele>35.0</ele><time>2026-04-25T15:37:35.566Z</time></trkpt><trkpt lat="41.9888832" lon="12.0887609"><ele>35.0</ele><time>2026-04-25T15:37:37.558Z</time></trkpt><trkpt lat="41.9888532" lon="12.0888736"><ele>35.0</ele><time>2026-04-25T15:37:39.583Z</time></trkpt><trkpt lat="41.9888246" lon="12.0889798"><ele>35.0</ele><time>2026-04-25T15:37:41.523Z</time></trkpt><trkpt lat="41.9887922" lon="12.0890837"><ele>35.0</ele><time>2026-04-25T15:37:43.508Z</time></trkpt><trkpt lat="41.9887541" lon="12.0891913"><ele>35.0</ele><time>2026-04-25T15:37:45.608Z</time></trkpt><trkpt lat="41.9887248" lon="12.0892952"><ele>35.0</ele><time>2026-04-25T15:37:47.531Z</time></trkpt><trkpt lat="41.988707" lon="12.0894071"><ele>35.285714285714285</ele><time>2026-04-25T15:37:49.51Z</time></trkpt><trkpt lat="41.9886997" lon="12.0895106"><ele>35.57142857142857</ele><time>2026-04-25T15:37:51.502Z</time></trkpt><trkpt lat="41.9887281" lon="12.0895865"><ele>35.85714285714286</ele><time>2026-04-25T15:37:53.497Z</time></trkpt><trkpt lat="41.9887882" lon="12.0896158"><ele>36.14285714285714</ele><time>2026-04-25T15:37:55.499Z</time></trkpt><trkpt lat="41.9888672" lon="12.0896563"><ele>36.42857142857143</ele><time>2026-04-25T15:37:57.493Z</time></trkpt><trkpt lat="41.9889391" lon="12.0896996"><ele>36.714285714285715</ele><time>2026-04-25T15:37:59.553Z</time></trkpt><trkpt lat="41.9890056" lon="12.0897481"><ele>37.0</ele><time>2026-04-25T15:38:01.512Z</time></trkpt><trkpt lat="41.9890754" lon="12.089791"><ele>37.0</ele><time>2026-04-25T15:38:03.499Z</time></trkpt><trkpt lat="41.9891491" lon="12.0898391"><ele>37.0</ele><time>2026-04-25T15:38:05.499Z</time></trkpt><trkpt lat="41.9892227" lon="12.0898947"><ele>37.0</ele><time>2026-04-25T15:38:07.566Z</time></trkpt><trkpt lat="41.9892975" lon="12.0899467"><ele>37.0</ele><time>2026-04-25T15:38:09.515Z</time></trkpt><trkpt lat="41.9893792" lon="12.089988"><ele>37.0</ele><time>2026-04-25T15:38:11.495Z</time></trkpt><trkpt lat="41.9894685" lon="12.0900438"><ele>37.0</ele><time>2026-04-25T15:38:13.495Z</time></trkpt><trkpt lat="41.989551" lon="12.0900791"><ele>36.4</ele><time>2026-04-25T15:38:15.497Z</time></trkpt><trkpt lat="41.9896362" lon="12.0901319"><ele>35.800000000000004</ele><time>2026-04-25T15:38:17.537Z</time></trkpt><trkpt lat="41.9897292" lon="12.0901864"><ele>35.2</ele><time>2026-04-25T15:38:19.514Z</time></trkpt><trkpt lat="41.9898225" lon="12.0902418"><ele>34.6</ele><time>2026-04-25T15:38:21.523Z</time></trkpt><trkpt lat="41.9899134" lon="12.0902898"><ele>34.0</ele><time>2026-04-25T15:38:23.503Z</time></trkpt><trkpt lat="41.9900182" lon="12.0903347"><ele>34.0</ele><time>2026-04-25T15:38:25.51Z</time></trkpt><trkpt lat="41.9900914" lon="12.0903615"><ele>34.0</ele><time>2026-04-25T15:38:27.498Z</time></trkpt><trkpt lat="41.9901756" lon="12.0903486"><ele>34.0</ele><time>2026-04-25T15:38:30.495Z</time></trkpt><trkpt lat="41.9902645" lon="12.0903325"><ele>34.0</ele><time>2026-04-25T15:38:33.551Z</time></trkpt><trkpt lat="41.9903218" lon="12.0902656"><ele>34.0</ele><time>2026-04-25T15:38:35.52Z</time></trkpt><trkpt lat="41.9903574" lon="12.0901741"><ele>34.0</ele><time>2026-04-25T15:38:37.539Z</time></trkpt><trkpt lat="41.9903961" lon="12.0900765"><ele>34.0</ele><time>2026-04-25T15:38:39.495Z</time></trkpt><trkpt lat="41.990433" lon="12.08998"><ele>34.0</ele><time>2026-04-25T15:38:41.521Z</time></trkpt><trkpt lat="41.990471" lon="12.0898817"><ele>34.0</ele><time>2026-04-25T15:38:43.527Z</time></trkpt><trkpt lat="41.9905086" lon="12.0897853"><ele>34.0</ele><time>2026-04-25T15:38:45.509Z</time></trkpt><trkpt lat="41.9905399" lon="12.0896944"><ele>34.0</ele><time>2026-04-25T15:38:47.598Z</time></trkpt><trkpt lat="41.9905651" lon="12.0895982"><ele>34.0</ele><time>2026-04-25T15:38:49.489Z</time></trkpt><trkpt lat="41.9905971" lon="12.0895062"><ele>34.333333333333336</ele><time>2026-04-25T15:38:51.512Z</time></trkpt><trkpt lat="41.9906328" lon="12.0894168"><ele>34.66666666666667</ele><time>2026-04-25T15:38:53.533Z</time></trkpt><trkpt lat="41.9906602" lon="12.0893213"><ele>35.0</ele><time>2026-04-25T15:38:55.505Z</time></trkpt><trkpt lat="41.99068" lon="12.0892361"><ele>35.333333333333336</ele><time>2026-04-25T15:38:57.514Z</time></trkpt><trkpt lat="41.9906831" lon="12.0891242"><ele>35.666666666666664</ele><time>2026-04-25T15:39:00.491Z</time></trkpt><trkpt lat="41.9906105" lon="12.0890447"><ele>36.0</ele><time>2026-04-25T15:39:03.54Z</time></trkpt><trkpt lat="41.9905454" lon="12.0889983"><ele>36.0</ele><time>2026-04-25T15:39:05.511Z</time></trkpt><trkpt lat="41.9905015" lon="12.0889021"><ele>36.0</ele><time>2026-04-25T15:39:08.523Z</time></trkpt><trkpt lat="41.9904505" lon="12.0888221"><ele>36.0</ele><time>2026-04-25T15:39:11.493Z</time></trkpt><trkpt lat="41.9903757" lon="12.0887491"><ele>36.0</ele><time>2026-04-25T15:39:14.568Z</time></trkpt><trkpt lat="41.990319" lon="12.0886527"><ele>36.0</ele><time>2026-04-25T15:39:17.56Z</time></trkpt><trkpt lat="41.990248" lon="12.0885979"><ele>36.0</ele><time>2026-04-25T15:39:20.513Z</time></trkpt><trkpt lat="41.9901784" lon="12.0885354"><ele>36.0</ele><time>2026-04-25T15:39:23.573Z</time></trkpt><trkpt lat="41.990117" lon="12.0884738"><ele>36.0</ele><time>2026-04-25T15:39:26.502Z</time></trkpt><trkpt lat="41.9900433" lon="12.0884268"><ele>36.0</ele><time>2026-04-25T15:39:29.538Z</time></trkpt><trkpt lat="41.9899981" lon="12.0883583"><ele>36.0</ele><time>2026-04-25T15:39:32.503Z</time></trkpt><trkpt lat="41.9900617" lon="12.0884144"><ele>36.0</ele><time>2026-04-25T15:39:42.57Z</time></trkpt><trkpt lat="41.9901392" lon="12.0884659"><ele>36.0</ele><time>2026-04-25T15:39:45.515Z</time></trkpt><trkpt lat="41.9901764" lon="12.0885459"><ele>36.00000000000001</ele><time>2026-04-25T15:40:01.565Z</time></trkpt><trkpt lat="41.9901057" lon="12.0885565"><ele>36.0</ele><time>2026-04-25T15:40:06.49Z</time></trkpt><trkpt lat="41.9900529" lon="12.0885068"><ele>36.0</ele><time>2026-04-25T15:40:09.493Z</time></trkpt><trkpt lat="41.9900019" lon="12.088449"><ele>36.0</ele><time>2026-04-25T15:40:12.514Z</time></trkpt><trkpt lat="41.9899437" lon="12.0885027"><ele>36.0</ele><time>2026-04-25T15:40:16.494Z</time></trkpt><trkpt lat="41.9899195" lon="12.0885889"><ele>36.00000000000001</ele><time>2026-04-25T15:40:18.505Z</time></trkpt><trkpt lat="41.9898762" lon="12.0886678"><ele>36.0</ele><time>2026-04-25T15:40:20.524Z</time></trkpt><trkpt lat="41.9898334" lon="12.0887407"><ele>36.00000000000001</ele><time>2026-04-25T15:40:22.58Z</time></trkpt><trkpt lat="41.9898038" lon="12.088845"><ele>36.0</ele><time>2026-04-25T15:40:25.515Z</time></trkpt><trkpt lat="41.9897676" lon="12.0889179"><ele>36.0</ele><time>2026-04-25T15:42:26.509Z</time></trkpt><trkpt lat="41.9898029" lon="12.0890137"><ele>36.0</ele><time>2026-04-25T15:43:10.474Z</time></trkpt><trkpt lat="41.9897822" lon="12.0891003"><ele>36.0</ele><time>2026-04-25T15:43:14.506Z</time></trkpt><trkpt lat="41.9898431" lon="12.0891292"><ele>36.00000000000001</ele><time>2026-04-25T15:43:21.563Z</time></trkpt><trkpt lat="41.9897791" lon="12.0891316"><ele>36.0</ele><time>2026-04-25T15:43:47.521Z</time></trkpt><trkpt lat="41.9898427" lon="12.0890941"><ele>36.0</ele><time>2026-04-25T15:44:37.512Z</time></trkpt><trkpt lat="41.9898654" lon="12.089174"><ele>36.0</ele><time>2026-04-25T15:44:56.51Z</time></trkpt><trkpt lat="41.9898643" lon="12.0890741"><ele>36.0</ele><time>2026-04-25T15:45:34.503Z</time></trkpt><trkpt lat="41.9899155" lon="12.0890022"><ele>36.0</ele><time>2026-04-25T15:46:04.497Z</time></trkpt><trkpt lat="41.9898911" lon="12.0889162"><ele>36.0</ele><time>2026-04-25T15:46:19.501Z</time></trkpt><trkpt lat="41.9898702" lon="12.0888096"><ele>36.0</ele><time>2026-04-25T15:46:23.499Z</time></trkpt><trkpt lat="41.9898683" lon="12.0889261"><ele>36.0</ele><time>2026-04-25T15:49:00.492Z</time></trkpt></trkseg></trk></gpx>